<?xml version="1.0" encoding="UTF-8" standalone="no" ?>
<gpx xmlns="http://www.topografix.com/GPX/1/1" xmlns:xsi="http://www.w3.org/2001/XMLSchema-instance" xsi:schemaLocation="http://www.topografix.com/GPX/1/1 http://www.topografix.com/GPX/1/1/gpx.xsd" version="1.1" creator="VisuGPX - https://www.visugpx.com">
  <metadata>
    <name>Randonnée BACCARAT</name>
    <desc><![CDATA[
Eglise de Baccarat- le Haut Buisson- Badménil- le Grand Bois- Fontenoy la Joute- Chapelle Saint Pierre- Glonville- Badménil- Moulin à Vent- Roseraie de Baccarat
]]></desc>
  </metadata>
  <trk>
    <name><![CDATA[2017-04-30 15:28:23]]></name>
    <trkseg>
      <trkpt lat="48.44789" lon="6.73864">
        <ele>303.33</ele>
        <time>2017-04-30T06:58:35Z</time>
      </trkpt>
      <trkpt lat="48.44789" lon="6.73864">
        <ele>303.33</ele>
        <time>2017-04-30T06:58:36Z</time>
      </trkpt>
      <trkpt lat="48.44789" lon="6.73864">
        <ele>290.32</ele>
        <time>2017-04-30T06:58:40Z</time>
      </trkpt>
      <trkpt lat="48.44789" lon="6.73864">
        <ele>290.32</ele>
        <time>2017-04-30T06:58:41Z</time>
      </trkpt>
      <trkpt lat="48.44784" lon="6.73868">
        <ele>290.18</ele>
        <time>2017-04-30T06:59:03Z</time>
      </trkpt>
      <trkpt lat="48.44782" lon="6.73874">
        <ele>290.14</ele>
        <time>2017-04-30T06:59:27Z</time>
      </trkpt>
      <trkpt lat="48.44783" lon="6.73875">
        <ele>290.25</ele>
        <time>2017-04-30T06:59:56Z</time>
      </trkpt>
      <trkpt lat="48.44783" lon="6.73874">
        <ele>290</ele>
        <time>2017-04-30T07:00:24Z</time>
      </trkpt>
      <trkpt lat="48.44784" lon="6.73875">
        <ele>289.46</ele>
        <time>2017-04-30T07:00:54Z</time>
      </trkpt>
      <trkpt lat="48.44783" lon="6.73878">
        <ele>289.36</ele>
        <time>2017-04-30T07:01:23Z</time>
      </trkpt>
      <trkpt lat="48.44783" lon="6.73881">
        <ele>289.37</ele>
        <time>2017-04-30T07:02:04Z</time>
      </trkpt>
      <trkpt lat="48.44783" lon="6.73882">
        <ele>289.24</ele>
        <time>2017-04-30T07:02:36Z</time>
      </trkpt>
      <trkpt lat="48.44784" lon="6.73879">
        <ele>288.45</ele>
        <time>2017-04-30T07:02:57Z</time>
      </trkpt>
      <trkpt lat="48.44789" lon="6.73875">
        <ele>288.99</ele>
        <time>2017-04-30T07:03:01Z</time>
      </trkpt>
      <trkpt lat="48.44795" lon="6.7387">
        <ele>288.97</ele>
        <time>2017-04-30T07:03:06Z</time>
      </trkpt>
      <trkpt lat="48.44802" lon="6.73866">
        <ele>288.89</ele>
        <time>2017-04-30T07:03:12Z</time>
      </trkpt>
      <trkpt lat="48.44818" lon="6.73847">
        <ele>288.17</ele>
        <time>2017-04-30T07:03:26Z</time>
      </trkpt>
      <trkpt lat="48.44823" lon="6.73832">
        <ele>288.57</ele>
        <time>2017-04-30T07:03:35Z</time>
      </trkpt>
      <trkpt lat="48.44846" lon="6.73817">
        <ele>289.31</ele>
        <time>2017-04-30T07:03:54Z</time>
      </trkpt>
      <trkpt lat="48.44859" lon="6.73806">
        <ele>290.51</ele>
        <time>2017-04-30T07:04:06Z</time>
      </trkpt>
      <trkpt lat="48.44861" lon="6.73792">
        <ele>289.92</ele>
        <time>2017-04-30T07:04:20Z</time>
      </trkpt>
      <trkpt lat="48.44856" lon="6.73778">
        <ele>289.69</ele>
        <time>2017-04-30T07:04:30Z</time>
      </trkpt>
      <trkpt lat="48.4485" lon="6.73761">
        <ele>289.23</ele>
        <time>2017-04-30T07:04:42Z</time>
      </trkpt>
      <trkpt lat="48.44841" lon="6.73731">
        <ele>288.84</ele>
        <time>2017-04-30T07:05:00Z</time>
      </trkpt>
      <trkpt lat="48.44834" lon="6.73708">
        <ele>288.4</ele>
        <time>2017-04-30T07:05:15Z</time>
      </trkpt>
      <trkpt lat="48.44832" lon="6.73699">
        <ele>288.22</ele>
        <time>2017-04-30T07:05:20Z</time>
      </trkpt>
      <trkpt lat="48.44827" lon="6.73683">
        <ele>288.19</ele>
        <time>2017-04-30T07:05:30Z</time>
      </trkpt>
      <trkpt lat="48.44821" lon="6.73661">
        <ele>288.36</ele>
        <time>2017-04-30T07:05:43Z</time>
      </trkpt>
      <trkpt lat="48.44816" lon="6.73632">
        <ele>288.03</ele>
        <time>2017-04-30T07:06:00Z</time>
      </trkpt>
      <trkpt lat="48.44814" lon="6.73618">
        <ele>288.09</ele>
        <time>2017-04-30T07:06:07Z</time>
      </trkpt>
      <trkpt lat="48.44822" lon="6.73598">
        <ele>287.95</ele>
        <time>2017-04-30T07:06:18Z</time>
      </trkpt>
      <trkpt lat="48.44823" lon="6.73564">
        <ele>287.12</ele>
        <time>2017-04-30T07:06:39Z</time>
      </trkpt>
      <trkpt lat="48.44819" lon="6.73532">
        <ele>287.43</ele>
        <time>2017-04-30T07:06:58Z</time>
      </trkpt>
      <trkpt lat="48.44819" lon="6.73514">
        <ele>287.41</ele>
        <time>2017-04-30T07:07:09Z</time>
      </trkpt>
      <trkpt lat="48.44826" lon="6.73489">
        <ele>288.57</ele>
        <time>2017-04-30T07:07:25Z</time>
      </trkpt>
      <trkpt lat="48.44825" lon="6.73483">
        <ele>288.9</ele>
        <time>2017-04-30T07:07:29Z</time>
      </trkpt>
      <trkpt lat="48.44818" lon="6.73451">
        <ele>290.03</ele>
        <time>2017-04-30T07:07:49Z</time>
      </trkpt>
      <trkpt lat="48.44815" lon="6.73427">
        <ele>291.33</ele>
        <time>2017-04-30T07:08:06Z</time>
      </trkpt>
      <trkpt lat="48.44814" lon="6.73424">
        <ele>291.28</ele>
        <time>2017-04-30T07:08:08Z</time>
      </trkpt>
      <trkpt lat="48.44815" lon="6.73409">
        <ele>292.12</ele>
        <time>2017-04-30T07:08:17Z</time>
      </trkpt>
      <trkpt lat="48.44821" lon="6.73382">
        <ele>293.37</ele>
        <time>2017-04-30T07:08:34Z</time>
      </trkpt>
      <trkpt lat="48.44833" lon="6.73355">
        <ele>294.1</ele>
        <time>2017-04-30T07:08:53Z</time>
      </trkpt>
      <trkpt lat="48.44834" lon="6.73344">
        <ele>294.66</ele>
        <time>2017-04-30T07:09:01Z</time>
      </trkpt>
      <trkpt lat="48.44836" lon="6.73339">
        <ele>294.82</ele>
        <time>2017-04-30T07:09:04Z</time>
      </trkpt>
      <trkpt lat="48.44841" lon="6.73337">
        <ele>294.76</ele>
        <time>2017-04-30T07:09:09Z</time>
      </trkpt>
      <trkpt lat="48.44851" lon="6.73322">
        <ele>295.32</ele>
        <time>2017-04-30T07:09:21Z</time>
      </trkpt>
      <trkpt lat="48.44863" lon="6.73295">
        <ele>296.27</ele>
        <time>2017-04-30T07:09:39Z</time>
      </trkpt>
      <trkpt lat="48.44871" lon="6.7326">
        <ele>298.11</ele>
        <time>2017-04-30T07:10:01Z</time>
      </trkpt>
      <trkpt lat="48.44869" lon="6.73248">
        <ele>298.88</ele>
        <time>2017-04-30T07:10:08Z</time>
      </trkpt>
      <trkpt lat="48.44869" lon="6.73245">
        <ele>299.33</ele>
        <time>2017-04-30T07:10:10Z</time>
      </trkpt>
      <trkpt lat="48.44867" lon="6.73238">
        <ele>299.98</ele>
        <time>2017-04-30T07:10:14Z</time>
      </trkpt>
      <trkpt lat="48.44858" lon="6.73205">
        <ele>301.92</ele>
        <time>2017-04-30T07:10:35Z</time>
      </trkpt>
      <trkpt lat="48.44854" lon="6.73193">
        <ele>303.38</ele>
        <time>2017-04-30T07:10:44Z</time>
      </trkpt>
      <trkpt lat="48.44854" lon="6.73185">
        <ele>303.77</ele>
        <time>2017-04-30T07:10:49Z</time>
      </trkpt>
      <trkpt lat="48.44856" lon="6.73154">
        <ele>305.31</ele>
        <time>2017-04-30T07:11:07Z</time>
      </trkpt>
      <trkpt lat="48.44856" lon="6.73153">
        <ele>305.63</ele>
        <time>2017-04-30T07:11:08Z</time>
      </trkpt>
      <trkpt lat="48.44851" lon="6.73124">
        <ele>306.07</ele>
        <time>2017-04-30T07:11:24Z</time>
      </trkpt>
      <trkpt lat="48.44844" lon="6.73097">
        <ele>307.81</ele>
        <time>2017-04-30T07:11:39Z</time>
      </trkpt>
      <trkpt lat="48.44838" lon="6.7307">
        <ele>308.72</ele>
        <time>2017-04-30T07:11:56Z</time>
      </trkpt>
      <trkpt lat="48.44833" lon="6.73046">
        <ele>310.25</ele>
        <time>2017-04-30T07:12:11Z</time>
      </trkpt>
      <trkpt lat="48.44823" lon="6.73035">
        <ele>310.57</ele>
        <time>2017-04-30T07:12:22Z</time>
      </trkpt>
      <trkpt lat="48.44817" lon="6.73009">
        <ele>311.43</ele>
        <time>2017-04-30T07:12:39Z</time>
      </trkpt>
      <trkpt lat="48.44811" lon="6.72986">
        <ele>312.39</ele>
        <time>2017-04-30T07:12:55Z</time>
      </trkpt>
      <trkpt lat="48.44804" lon="6.72956">
        <ele>313.26</ele>
        <time>2017-04-30T07:13:12Z</time>
      </trkpt>
      <trkpt lat="48.44796" lon="6.72928">
        <ele>315.42</ele>
        <time>2017-04-30T07:13:30Z</time>
      </trkpt>
      <trkpt lat="48.44792" lon="6.72911">
        <ele>316.98</ele>
        <time>2017-04-30T07:13:41Z</time>
      </trkpt>
      <trkpt lat="48.44798" lon="6.72899">
        <ele>318.12</ele>
        <time>2017-04-30T07:13:50Z</time>
      </trkpt>
      <trkpt lat="48.44814" lon="6.72879">
        <ele>319.11</ele>
        <time>2017-04-30T07:14:08Z</time>
      </trkpt>
      <trkpt lat="48.4482" lon="6.72849">
        <ele>321.18</ele>
        <time>2017-04-30T07:14:27Z</time>
      </trkpt>
      <trkpt lat="48.44824" lon="6.72835">
        <ele>322.17</ele>
        <time>2017-04-30T07:14:36Z</time>
      </trkpt>
      <trkpt lat="48.44831" lon="6.72821">
        <ele>323.32</ele>
        <time>2017-04-30T07:14:46Z</time>
      </trkpt>
      <trkpt lat="48.44835" lon="6.7281">
        <ele>323.9</ele>
        <time>2017-04-30T07:14:54Z</time>
      </trkpt>
      <trkpt lat="48.44817" lon="6.72781">
        <ele>324.86</ele>
        <time>2017-04-30T07:15:17Z</time>
      </trkpt>
      <trkpt lat="48.44801" lon="6.72755">
        <ele>325.29</ele>
        <time>2017-04-30T07:15:35Z</time>
      </trkpt>
      <trkpt lat="48.44785" lon="6.72731">
        <ele>326.35</ele>
        <time>2017-04-30T07:15:54Z</time>
      </trkpt>
      <trkpt lat="48.44771" lon="6.72708">
        <ele>327.11</ele>
        <time>2017-04-30T07:16:10Z</time>
      </trkpt>
      <trkpt lat="48.44756" lon="6.72684">
        <ele>328.14</ele>
        <time>2017-04-30T07:16:28Z</time>
      </trkpt>
      <trkpt lat="48.4474" lon="6.72661">
        <ele>329.33</ele>
        <time>2017-04-30T07:16:45Z</time>
      </trkpt>
      <trkpt lat="48.44724" lon="6.72636">
        <ele>330.14</ele>
        <time>2017-04-30T07:17:04Z</time>
      </trkpt>
      <trkpt lat="48.44709" lon="6.72608">
        <ele>331.6</ele>
        <time>2017-04-30T07:17:23Z</time>
      </trkpt>
      <trkpt lat="48.44695" lon="6.72588">
        <ele>333.15</ele>
        <time>2017-04-30T07:17:39Z</time>
      </trkpt>
      <trkpt lat="48.44677" lon="6.72569">
        <ele>334.31</ele>
        <time>2017-04-30T07:17:57Z</time>
      </trkpt>
      <trkpt lat="48.44659" lon="6.72552">
        <ele>335.54</ele>
        <time>2017-04-30T07:18:15Z</time>
      </trkpt>
      <trkpt lat="48.44637" lon="6.72529">
        <ele>337.34</ele>
        <time>2017-04-30T07:18:37Z</time>
      </trkpt>
      <trkpt lat="48.44619" lon="6.72513">
        <ele>338.92</ele>
        <time>2017-04-30T07:18:53Z</time>
      </trkpt>
      <trkpt lat="48.44601" lon="6.72494">
        <ele>339.29</ele>
        <time>2017-04-30T07:19:11Z</time>
      </trkpt>
      <trkpt lat="48.44578" lon="6.72473">
        <ele>340.55</ele>
        <time>2017-04-30T07:19:32Z</time>
      </trkpt>
      <trkpt lat="48.44559" lon="6.72456">
        <ele>341.12</ele>
        <time>2017-04-30T07:19:50Z</time>
      </trkpt>
      <trkpt lat="48.44539" lon="6.72435">
        <ele>342.64</ele>
        <time>2017-04-30T07:20:10Z</time>
      </trkpt>
      <trkpt lat="48.44521" lon="6.72417">
        <ele>343.54</ele>
        <time>2017-04-30T07:20:28Z</time>
      </trkpt>
      <trkpt lat="48.44506" lon="6.72398">
        <ele>344.22</ele>
        <time>2017-04-30T07:20:44Z</time>
      </trkpt>
      <trkpt lat="48.4449" lon="6.72367">
        <ele>344.11</ele>
        <time>2017-04-30T07:21:04Z</time>
      </trkpt>
      <trkpt lat="48.44476" lon="6.7233">
        <ele>344.92</ele>
        <time>2017-04-30T07:21:26Z</time>
      </trkpt>
      <trkpt lat="48.44456" lon="6.72303">
        <ele>345.2</ele>
        <time>2017-04-30T07:21:46Z</time>
      </trkpt>
      <trkpt lat="48.44443" lon="6.72288">
        <ele>345.43</ele>
        <time>2017-04-30T07:21:59Z</time>
      </trkpt>
      <trkpt lat="48.44422" lon="6.72267">
        <ele>346.01</ele>
        <time>2017-04-30T07:22:18Z</time>
      </trkpt>
      <trkpt lat="48.44402" lon="6.72245">
        <ele>346.31</ele>
        <time>2017-04-30T07:22:37Z</time>
      </trkpt>
      <trkpt lat="48.44382" lon="6.72224">
        <ele>346.87</ele>
        <time>2017-04-30T07:22:56Z</time>
      </trkpt>
      <trkpt lat="48.44362" lon="6.722">
        <ele>347.79</ele>
        <time>2017-04-30T07:23:16Z</time>
      </trkpt>
      <trkpt lat="48.44343" lon="6.72178">
        <ele>348.06</ele>
        <time>2017-04-30T07:23:35Z</time>
      </trkpt>
      <trkpt lat="48.44319" lon="6.72149">
        <ele>348.97</ele>
        <time>2017-04-30T07:23:58Z</time>
      </trkpt>
      <trkpt lat="48.44304" lon="6.72124">
        <ele>349.02</ele>
        <time>2017-04-30T07:24:17Z</time>
      </trkpt>
      <trkpt lat="48.44303" lon="6.72121">
        <ele>348.55</ele>
        <time>2017-04-30T07:24:34Z</time>
      </trkpt>
      <trkpt lat="48.44303" lon="6.72121">
        <ele>348.17</ele>
        <time>2017-04-30T07:24:58Z</time>
      </trkpt>
      <trkpt lat="48.44302" lon="6.72122">
        <ele>348.37</ele>
        <time>2017-04-30T07:25:15Z</time>
      </trkpt>
      <trkpt lat="48.44301" lon="6.72122">
        <ele>347.97</ele>
        <time>2017-04-30T07:25:27Z</time>
      </trkpt>
      <trkpt lat="48.44301" lon="6.72122">
        <ele>347.84</ele>
        <time>2017-04-30T07:25:56Z</time>
      </trkpt>
      <trkpt lat="48.443" lon="6.72121">
        <ele>347.69</ele>
        <time>2017-04-30T07:26:18Z</time>
      </trkpt>
      <trkpt lat="48.443" lon="6.72121">
        <ele>347.53</ele>
        <time>2017-04-30T07:26:56Z</time>
      </trkpt>
      <trkpt lat="48.44301" lon="6.72115">
        <ele>347.61</ele>
        <time>2017-04-30T07:27:07Z</time>
      </trkpt>
      <trkpt lat="48.44301" lon="6.72111">
        <ele>347.4</ele>
        <time>2017-04-30T07:27:10Z</time>
      </trkpt>
      <trkpt lat="48.44296" lon="6.72089">
        <ele>347.2</ele>
        <time>2017-04-30T07:27:26Z</time>
      </trkpt>
      <trkpt lat="48.44295" lon="6.72085">
        <ele>347.13</ele>
        <time>2017-04-30T07:27:29Z</time>
      </trkpt>
      <trkpt lat="48.44295" lon="6.72082">
        <ele>346.89</ele>
        <time>2017-04-30T07:27:31Z</time>
      </trkpt>
      <trkpt lat="48.44289" lon="6.72051">
        <ele>346.39</ele>
        <time>2017-04-30T07:27:50Z</time>
      </trkpt>
      <trkpt lat="48.44284" lon="6.72022">
        <ele>345.19</ele>
        <time>2017-04-30T07:28:07Z</time>
      </trkpt>
      <trkpt lat="48.44276" lon="6.7199">
        <ele>344</ele>
        <time>2017-04-30T07:28:25Z</time>
      </trkpt>
      <trkpt lat="48.44265" lon="6.71958">
        <ele>342.61</ele>
        <time>2017-04-30T07:28:45Z</time>
      </trkpt>
      <trkpt lat="48.44251" lon="6.71935">
        <ele>340.65</ele>
        <time>2017-04-30T07:29:02Z</time>
      </trkpt>
      <trkpt lat="48.44234" lon="6.71911">
        <ele>339.94</ele>
        <time>2017-04-30T07:29:21Z</time>
      </trkpt>
      <trkpt lat="48.44218" lon="6.71888">
        <ele>338.19</ele>
        <time>2017-04-30T07:29:39Z</time>
      </trkpt>
      <trkpt lat="48.44201" lon="6.71864">
        <ele>335.99</ele>
        <time>2017-04-30T07:29:58Z</time>
      </trkpt>
      <trkpt lat="48.44186" lon="6.71839">
        <ele>333.57</ele>
        <time>2017-04-30T07:30:16Z</time>
      </trkpt>
      <trkpt lat="48.44181" lon="6.71822">
        <ele>332.04</ele>
        <time>2017-04-30T07:30:26Z</time>
      </trkpt>
      <trkpt lat="48.44171" lon="6.71796">
        <ele>330.76</ele>
        <time>2017-04-30T07:30:41Z</time>
      </trkpt>
      <trkpt lat="48.44161" lon="6.71768">
        <ele>329.27</ele>
        <time>2017-04-30T07:30:58Z</time>
      </trkpt>
      <trkpt lat="48.44147" lon="6.71741">
        <ele>326.77</ele>
        <time>2017-04-30T07:31:17Z</time>
      </trkpt>
      <trkpt lat="48.44132" lon="6.71727">
        <ele>325.62</ele>
        <time>2017-04-30T07:31:32Z</time>
      </trkpt>
      <trkpt lat="48.44116" lon="6.71715">
        <ele>323.04</ele>
        <time>2017-04-30T07:31:47Z</time>
      </trkpt>
      <trkpt lat="48.44114" lon="6.71713">
        <ele>323.12</ele>
        <time>2017-04-30T07:31:49Z</time>
      </trkpt>
      <trkpt lat="48.4411" lon="6.71705">
        <ele>322.21</ele>
        <time>2017-04-30T07:31:55Z</time>
      </trkpt>
      <trkpt lat="48.44109" lon="6.71688">
        <ele>321.74</ele>
        <time>2017-04-30T07:32:05Z</time>
      </trkpt>
      <trkpt lat="48.44112" lon="6.7168">
        <ele>321.41</ele>
        <time>2017-04-30T07:32:11Z</time>
      </trkpt>
      <trkpt lat="48.44124" lon="6.71654">
        <ele>322.26</ele>
        <time>2017-04-30T07:32:29Z</time>
      </trkpt>
      <trkpt lat="48.44137" lon="6.71633">
        <ele>323.95</ele>
        <time>2017-04-30T07:32:45Z</time>
      </trkpt>
      <trkpt lat="48.4415" lon="6.71616">
        <ele>324.62</ele>
        <time>2017-04-30T07:33:00Z</time>
      </trkpt>
      <trkpt lat="48.4415" lon="6.71614">
        <ele>324.55</ele>
        <time>2017-04-30T07:33:01Z</time>
      </trkpt>
      <trkpt lat="48.44151" lon="6.71611">
        <ele>324.91</ele>
        <time>2017-04-30T07:33:03Z</time>
      </trkpt>
      <trkpt lat="48.44151" lon="6.71584">
        <ele>325.37</ele>
        <time>2017-04-30T07:33:19Z</time>
      </trkpt>
      <trkpt lat="48.4415" lon="6.71579">
        <ele>325.2</ele>
        <time>2017-04-30T07:33:23Z</time>
      </trkpt>
      <trkpt lat="48.44145" lon="6.71557">
        <ele>324.72</ele>
        <time>2017-04-30T07:33:36Z</time>
      </trkpt>
      <trkpt lat="48.44136" lon="6.71533">
        <ele>324.28</ele>
        <time>2017-04-30T07:33:52Z</time>
      </trkpt>
      <trkpt lat="48.44127" lon="6.7151">
        <ele>323.51</ele>
        <time>2017-04-30T07:34:07Z</time>
      </trkpt>
      <trkpt lat="48.44121" lon="6.71499">
        <ele>323.39</ele>
        <time>2017-04-30T07:34:15Z</time>
      </trkpt>
      <trkpt lat="48.44129" lon="6.7147">
        <ele>324.19</ele>
        <time>2017-04-30T07:34:31Z</time>
      </trkpt>
      <trkpt lat="48.44129" lon="6.71462">
        <ele>324.55</ele>
        <time>2017-04-30T07:34:35Z</time>
      </trkpt>
      <trkpt lat="48.44132" lon="6.71435">
        <ele>324.41</ele>
        <time>2017-04-30T07:34:50Z</time>
      </trkpt>
      <trkpt lat="48.4414" lon="6.7141">
        <ele>325.11</ele>
        <time>2017-04-30T07:35:06Z</time>
      </trkpt>
      <trkpt lat="48.44143" lon="6.714">
        <ele>324.56</ele>
        <time>2017-04-30T07:35:12Z</time>
      </trkpt>
      <trkpt lat="48.44146" lon="6.71378">
        <ele>324.1</ele>
        <time>2017-04-30T07:35:25Z</time>
      </trkpt>
      <trkpt lat="48.44149" lon="6.71363">
        <ele>323.61</ele>
        <time>2017-04-30T07:35:34Z</time>
      </trkpt>
      <trkpt lat="48.44138" lon="6.71342">
        <ele>320.78</ele>
        <time>2017-04-30T07:35:49Z</time>
      </trkpt>
      <trkpt lat="48.44135" lon="6.71339">
        <ele>320.7</ele>
        <time>2017-04-30T07:35:52Z</time>
      </trkpt>
      <trkpt lat="48.44126" lon="6.71321">
        <ele>319.06</ele>
        <time>2017-04-30T07:36:05Z</time>
      </trkpt>
      <trkpt lat="48.44113" lon="6.71295">
        <ele>317.48</ele>
        <time>2017-04-30T07:36:24Z</time>
      </trkpt>
      <trkpt lat="48.4411" lon="6.71289">
        <ele>317.23</ele>
        <time>2017-04-30T07:36:28Z</time>
      </trkpt>
      <trkpt lat="48.441" lon="6.71271">
        <ele>316.91</ele>
        <time>2017-04-30T07:36:41Z</time>
      </trkpt>
      <trkpt lat="48.44089" lon="6.7125">
        <ele>316.14</ele>
        <time>2017-04-30T07:36:56Z</time>
      </trkpt>
      <trkpt lat="48.44075" lon="6.71234">
        <ele>315.18</ele>
        <time>2017-04-30T07:37:11Z</time>
      </trkpt>
      <trkpt lat="48.44061" lon="6.71222">
        <ele>314.8</ele>
        <time>2017-04-30T07:37:24Z</time>
      </trkpt>
      <trkpt lat="48.44043" lon="6.71219">
        <ele>315.27</ele>
        <time>2017-04-30T07:37:39Z</time>
      </trkpt>
      <trkpt lat="48.44025" lon="6.7121">
        <ele>314.82</ele>
        <time>2017-04-30T07:37:54Z</time>
      </trkpt>
      <trkpt lat="48.44005" lon="6.71208">
        <ele>314.44</ele>
        <time>2017-04-30T07:38:10Z</time>
      </trkpt>
      <trkpt lat="48.43987" lon="6.71195">
        <ele>312.5</ele>
        <time>2017-04-30T07:38:28Z</time>
      </trkpt>
      <trkpt lat="48.43981" lon="6.71192">
        <ele>312.1</ele>
        <time>2017-04-30T07:38:34Z</time>
      </trkpt>
      <trkpt lat="48.43964" lon="6.71185">
        <ele>309.55</ele>
        <time>2017-04-30T07:38:48Z</time>
      </trkpt>
      <trkpt lat="48.43954" lon="6.71185">
        <ele>308.02</ele>
        <time>2017-04-30T07:38:57Z</time>
      </trkpt>
      <trkpt lat="48.43947" lon="6.71172">
        <ele>307.5</ele>
        <time>2017-04-30T07:39:06Z</time>
      </trkpt>
      <trkpt lat="48.43942" lon="6.71161">
        <ele>306.41</ele>
        <time>2017-04-30T07:39:13Z</time>
      </trkpt>
      <trkpt lat="48.43941" lon="6.71157">
        <ele>306.34</ele>
        <time>2017-04-30T07:39:15Z</time>
      </trkpt>
      <trkpt lat="48.43931" lon="6.71139">
        <ele>304.69</ele>
        <time>2017-04-30T07:39:30Z</time>
      </trkpt>
      <trkpt lat="48.43924" lon="6.71127">
        <ele>301.61</ele>
        <time>2017-04-30T07:39:44Z</time>
      </trkpt>
      <trkpt lat="48.43915" lon="6.71117">
        <ele>298.7</ele>
        <time>2017-04-30T07:39:59Z</time>
      </trkpt>
      <trkpt lat="48.43913" lon="6.71113">
        <ele>297.88</ele>
        <time>2017-04-30T07:40:02Z</time>
      </trkpt>
      <trkpt lat="48.43909" lon="6.71096">
        <ele>297.25</ele>
        <time>2017-04-30T07:40:14Z</time>
      </trkpt>
      <trkpt lat="48.43905" lon="6.71073">
        <ele>295.92</ele>
        <time>2017-04-30T07:40:29Z</time>
      </trkpt>
      <trkpt lat="48.43901" lon="6.7105">
        <ele>292.88</ele>
        <time>2017-04-30T07:40:46Z</time>
      </trkpt>
      <trkpt lat="48.43893" lon="6.71037">
        <ele>290.18</ele>
        <time>2017-04-30T07:41:04Z</time>
      </trkpt>
      <trkpt lat="48.43894" lon="6.71024">
        <ele>286.99</ele>
        <time>2017-04-30T07:41:20Z</time>
      </trkpt>
      <trkpt lat="48.43896" lon="6.71012">
        <ele>283.98</ele>
        <time>2017-04-30T07:41:33Z</time>
      </trkpt>
      <trkpt lat="48.43897" lon="6.70998">
        <ele>281.16</ele>
        <time>2017-04-30T07:41:51Z</time>
      </trkpt>
      <trkpt lat="48.43896" lon="6.70997">
        <ele>281.11</ele>
        <time>2017-04-30T07:42:19Z</time>
      </trkpt>
      <trkpt lat="48.43895" lon="6.70998">
        <ele>281.46</ele>
        <time>2017-04-30T07:42:45Z</time>
      </trkpt>
      <trkpt lat="48.4389" lon="6.70996">
        <ele>281.95</ele>
        <time>2017-04-30T07:43:35Z</time>
      </trkpt>
      <trkpt lat="48.4389" lon="6.70999">
        <ele>282.45</ele>
        <time>2017-04-30T07:44:01Z</time>
      </trkpt>
      <trkpt lat="48.4389" lon="6.71003">
        <ele>282.41</ele>
        <time>2017-04-30T07:44:33Z</time>
      </trkpt>
      <trkpt lat="48.43892" lon="6.71003">
        <ele>282.27</ele>
        <time>2017-04-30T07:45:27Z</time>
      </trkpt>
      <trkpt lat="48.43892" lon="6.71">
        <ele>282.92</ele>
        <time>2017-04-30T07:45:54Z</time>
      </trkpt>
      <trkpt lat="48.43897" lon="6.70998">
        <ele>282.93</ele>
        <time>2017-04-30T07:46:04Z</time>
      </trkpt>
      <trkpt lat="48.43909" lon="6.70991">
        <ele>282.91</ele>
        <time>2017-04-30T07:46:13Z</time>
      </trkpt>
      <trkpt lat="48.43926" lon="6.70986">
        <ele>282.6</ele>
        <time>2017-04-30T07:46:27Z</time>
      </trkpt>
      <trkpt lat="48.43933" lon="6.70982">
        <ele>282.76</ele>
        <time>2017-04-30T07:46:33Z</time>
      </trkpt>
      <trkpt lat="48.43938" lon="6.7098">
        <ele>282.85</ele>
        <time>2017-04-30T07:46:38Z</time>
      </trkpt>
      <trkpt lat="48.43957" lon="6.70976">
        <ele>283.13</ele>
        <time>2017-04-30T07:46:53Z</time>
      </trkpt>
      <trkpt lat="48.43967" lon="6.70974">
        <ele>283.36</ele>
        <time>2017-04-30T07:47:00Z</time>
      </trkpt>
      <trkpt lat="48.43994" lon="6.70977">
        <ele>283.09</ele>
        <time>2017-04-30T07:47:17Z</time>
      </trkpt>
      <trkpt lat="48.44019" lon="6.70987">
        <ele>282.32</ele>
        <time>2017-04-30T07:47:35Z</time>
      </trkpt>
      <trkpt lat="48.44037" lon="6.70994">
        <ele>282.11</ele>
        <time>2017-04-30T07:47:49Z</time>
      </trkpt>
      <trkpt lat="48.44054" lon="6.70996">
        <ele>282.32</ele>
        <time>2017-04-30T07:48:02Z</time>
      </trkpt>
      <trkpt lat="48.44061" lon="6.70997">
        <ele>282.31</ele>
        <time>2017-04-30T07:48:09Z</time>
      </trkpt>
      <trkpt lat="48.44083" lon="6.70999">
        <ele>282.35</ele>
        <time>2017-04-30T07:48:26Z</time>
      </trkpt>
      <trkpt lat="48.44102" lon="6.70997">
        <ele>283.23</ele>
        <time>2017-04-30T07:48:41Z</time>
      </trkpt>
      <trkpt lat="48.44107" lon="6.70997">
        <ele>283.29</ele>
        <time>2017-04-30T07:48:45Z</time>
      </trkpt>
      <trkpt lat="48.44109" lon="6.70998">
        <ele>283.02</ele>
        <time>2017-04-30T07:48:47Z</time>
      </trkpt>
      <trkpt lat="48.4413" lon="6.71006">
        <ele>282.26</ele>
        <time>2017-04-30T07:49:04Z</time>
      </trkpt>
      <trkpt lat="48.44143" lon="6.71014">
        <ele>282.67</ele>
        <time>2017-04-30T07:49:15Z</time>
      </trkpt>
      <trkpt lat="48.44154" lon="6.71019">
        <ele>282.62</ele>
        <time>2017-04-30T07:49:24Z</time>
      </trkpt>
      <trkpt lat="48.44172" lon="6.71026">
        <ele>282.83</ele>
        <time>2017-04-30T07:49:39Z</time>
      </trkpt>
      <trkpt lat="48.44187" lon="6.71029">
        <ele>282.14</ele>
        <time>2017-04-30T07:49:52Z</time>
      </trkpt>
      <trkpt lat="48.44194" lon="6.7101">
        <ele>280.9</ele>
        <time>2017-04-30T07:50:05Z</time>
      </trkpt>
      <trkpt lat="48.44194" lon="6.70987">
        <ele>282.55</ele>
        <time>2017-04-30T07:50:19Z</time>
      </trkpt>
      <trkpt lat="48.44193" lon="6.70977">
        <ele>283.89</ele>
        <time>2017-04-30T07:50:25Z</time>
      </trkpt>
      <trkpt lat="48.44192" lon="6.70952">
        <ele>287.22</ele>
        <time>2017-04-30T07:50:41Z</time>
      </trkpt>
      <trkpt lat="48.44191" lon="6.70938">
        <ele>288.28</ele>
        <time>2017-04-30T07:50:49Z</time>
      </trkpt>
      <trkpt lat="48.44191" lon="6.70931">
        <ele>289.01</ele>
        <time>2017-04-30T07:50:53Z</time>
      </trkpt>
      <trkpt lat="48.4419" lon="6.70924">
        <ele>289</ele>
        <time>2017-04-30T07:50:58Z</time>
      </trkpt>
      <trkpt lat="48.44188" lon="6.70899">
        <ele>290.48</ele>
        <time>2017-04-30T07:51:13Z</time>
      </trkpt>
      <trkpt lat="48.44189" lon="6.70875">
        <ele>291.31</ele>
        <time>2017-04-30T07:51:25Z</time>
      </trkpt>
      <trkpt lat="48.44189" lon="6.70868">
        <ele>291.34</ele>
        <time>2017-04-30T07:51:29Z</time>
      </trkpt>
      <trkpt lat="48.4419" lon="6.70848">
        <ele>291.42</ele>
        <time>2017-04-30T07:51:39Z</time>
      </trkpt>
      <trkpt lat="48.4419" lon="6.70825">
        <ele>291.15</ele>
        <time>2017-04-30T07:51:52Z</time>
      </trkpt>
      <trkpt lat="48.4419" lon="6.70811">
        <ele>290.36</ele>
        <time>2017-04-30T07:52:06Z</time>
      </trkpt>
      <trkpt lat="48.44189" lon="6.70809">
        <ele>290.43</ele>
        <time>2017-04-30T07:52:07Z</time>
      </trkpt>
      <trkpt lat="48.44188" lon="6.70806">
        <ele>290.69</ele>
        <time>2017-04-30T07:52:09Z</time>
      </trkpt>
      <trkpt lat="48.44189" lon="6.70803">
        <ele>290.38</ele>
        <time>2017-04-30T07:52:11Z</time>
      </trkpt>
      <trkpt lat="48.44192" lon="6.70784">
        <ele>290.17</ele>
        <time>2017-04-30T07:52:24Z</time>
      </trkpt>
      <trkpt lat="48.44191" lon="6.70777">
        <ele>288.62</ele>
        <time>2017-04-30T07:52:28Z</time>
      </trkpt>
      <trkpt lat="48.44191" lon="6.7077">
        <ele>290.54</ele>
        <time>2017-04-30T07:52:32Z</time>
      </trkpt>
      <trkpt lat="48.44191" lon="6.70744">
        <ele>291.89</ele>
        <time>2017-04-30T07:52:46Z</time>
      </trkpt>
      <trkpt lat="48.44189" lon="6.70731">
        <ele>292.95</ele>
        <time>2017-04-30T07:52:52Z</time>
      </trkpt>
      <trkpt lat="48.4419" lon="6.70704">
        <ele>294.55</ele>
        <time>2017-04-30T07:53:09Z</time>
      </trkpt>
      <trkpt lat="48.44182" lon="6.70664">
        <ele>297.19</ele>
        <time>2017-04-30T07:53:29Z</time>
      </trkpt>
      <trkpt lat="48.44185" lon="6.70636">
        <ele>298.37</ele>
        <time>2017-04-30T07:53:43Z</time>
      </trkpt>
      <trkpt lat="48.44183" lon="6.70606">
        <ele>298.37</ele>
        <time>2017-04-30T07:53:58Z</time>
      </trkpt>
      <trkpt lat="48.4418" lon="6.70578">
        <ele>297.85</ele>
        <time>2017-04-30T07:54:12Z</time>
      </trkpt>
      <trkpt lat="48.44179" lon="6.70542">
        <ele>297.74</ele>
        <time>2017-04-30T07:54:31Z</time>
      </trkpt>
      <trkpt lat="48.4418" lon="6.70517">
        <ele>297.65</ele>
        <time>2017-04-30T07:54:43Z</time>
      </trkpt>
      <trkpt lat="48.4418" lon="6.70512">
        <ele>298.19</ele>
        <time>2017-04-30T07:54:46Z</time>
      </trkpt>
      <trkpt lat="48.44179" lon="6.70489">
        <ele>298.99</ele>
        <time>2017-04-30T07:55:03Z</time>
      </trkpt>
      <trkpt lat="48.44178" lon="6.70485">
        <ele>298.9</ele>
        <time>2017-04-30T07:55:05Z</time>
      </trkpt>
      <trkpt lat="48.44178" lon="6.70473">
        <ele>299.23</ele>
        <time>2017-04-30T07:55:11Z</time>
      </trkpt>
      <trkpt lat="48.44172" lon="6.70441">
        <ele>299.51</ele>
        <time>2017-04-30T07:55:27Z</time>
      </trkpt>
      <trkpt lat="48.44166" lon="6.70415">
        <ele>299.09</ele>
        <time>2017-04-30T07:55:42Z</time>
      </trkpt>
      <trkpt lat="48.44154" lon="6.70382">
        <ele>299.98</ele>
        <time>2017-04-30T07:56:00Z</time>
      </trkpt>
      <trkpt lat="48.44143" lon="6.70359">
        <ele>300.66</ele>
        <time>2017-04-30T07:56:15Z</time>
      </trkpt>
      <trkpt lat="48.44125" lon="6.70336">
        <ele>301.2</ele>
        <time>2017-04-30T07:56:32Z</time>
      </trkpt>
      <trkpt lat="48.44109" lon="6.70317">
        <ele>301.44</ele>
        <time>2017-04-30T07:56:47Z</time>
      </trkpt>
      <trkpt lat="48.44094" lon="6.703">
        <ele>302.1</ele>
        <time>2017-04-30T07:57:01Z</time>
      </trkpt>
      <trkpt lat="48.44078" lon="6.70277">
        <ele>302.49</ele>
        <time>2017-04-30T07:57:19Z</time>
      </trkpt>
      <trkpt lat="48.44068" lon="6.70256">
        <ele>303.28</ele>
        <time>2017-04-30T07:57:32Z</time>
      </trkpt>
      <trkpt lat="48.44067" lon="6.70229">
        <ele>304.14</ele>
        <time>2017-04-30T07:57:46Z</time>
      </trkpt>
      <trkpt lat="48.44066" lon="6.70197">
        <ele>305.54</ele>
        <time>2017-04-30T07:58:03Z</time>
      </trkpt>
      <trkpt lat="48.44067" lon="6.70182">
        <ele>306.68</ele>
        <time>2017-04-30T07:58:13Z</time>
      </trkpt>
      <trkpt lat="48.44068" lon="6.70169">
        <ele>307.84</ele>
        <time>2017-04-30T07:58:20Z</time>
      </trkpt>
      <trkpt lat="48.44069" lon="6.70141">
        <ele>310.13</ele>
        <time>2017-04-30T07:58:36Z</time>
      </trkpt>
      <trkpt lat="48.44068" lon="6.70108">
        <ele>311.17</ele>
        <time>2017-04-30T07:58:52Z</time>
      </trkpt>
      <trkpt lat="48.44065" lon="6.70079">
        <ele>311.11</ele>
        <time>2017-04-30T07:59:05Z</time>
      </trkpt>
      <trkpt lat="48.44059" lon="6.70051">
        <ele>311.12</ele>
        <time>2017-04-30T07:59:21Z</time>
      </trkpt>
      <trkpt lat="48.44045" lon="6.70027">
        <ele>311.94</ele>
        <time>2017-04-30T07:59:37Z</time>
      </trkpt>
      <trkpt lat="48.44032" lon="6.70005">
        <ele>313.02</ele>
        <time>2017-04-30T07:59:53Z</time>
      </trkpt>
      <trkpt lat="48.44021" lon="6.69988">
        <ele>314.25</ele>
        <time>2017-04-30T08:00:06Z</time>
      </trkpt>
      <trkpt lat="48.44007" lon="6.69968">
        <ele>314.53</ele>
        <time>2017-04-30T08:00:22Z</time>
      </trkpt>
      <trkpt lat="48.44002" lon="6.69961">
        <ele>314.37</ele>
        <time>2017-04-30T08:00:27Z</time>
      </trkpt>
      <trkpt lat="48.43989" lon="6.69943">
        <ele>315.2</ele>
        <time>2017-04-30T08:00:42Z</time>
      </trkpt>
      <trkpt lat="48.43982" lon="6.6993">
        <ele>315.29</ele>
        <time>2017-04-30T08:00:50Z</time>
      </trkpt>
      <trkpt lat="48.43978" lon="6.69922">
        <ele>315.69</ele>
        <time>2017-04-30T08:00:56Z</time>
      </trkpt>
      <trkpt lat="48.43969" lon="6.69901">
        <ele>316.43</ele>
        <time>2017-04-30T08:01:10Z</time>
      </trkpt>
      <trkpt lat="48.43959" lon="6.69867">
        <ele>316.55</ele>
        <time>2017-04-30T08:01:28Z</time>
      </trkpt>
      <trkpt lat="48.43953" lon="6.69839">
        <ele>316.37</ele>
        <time>2017-04-30T08:01:44Z</time>
      </trkpt>
      <trkpt lat="48.43948" lon="6.6981">
        <ele>316.77</ele>
        <time>2017-04-30T08:02:00Z</time>
      </trkpt>
      <trkpt lat="48.43939" lon="6.69782">
        <ele>316.88</ele>
        <time>2017-04-30T08:02:16Z</time>
      </trkpt>
      <trkpt lat="48.43932" lon="6.69765">
        <ele>317.07</ele>
        <time>2017-04-30T08:02:28Z</time>
      </trkpt>
      <trkpt lat="48.43921" lon="6.69748">
        <ele>319.8</ele>
        <time>2017-04-30T08:02:43Z</time>
      </trkpt>
      <trkpt lat="48.43915" lon="6.69738">
        <ele>320.75</ele>
        <time>2017-04-30T08:02:50Z</time>
      </trkpt>
      <trkpt lat="48.43904" lon="6.69717">
        <ele>322.09</ele>
        <time>2017-04-30T08:03:05Z</time>
      </trkpt>
      <trkpt lat="48.43895" lon="6.69692">
        <ele>322.71</ele>
        <time>2017-04-30T08:03:21Z</time>
      </trkpt>
      <trkpt lat="48.43888" lon="6.69667">
        <ele>323</ele>
        <time>2017-04-30T08:03:36Z</time>
      </trkpt>
      <trkpt lat="48.43885" lon="6.69658">
        <ele>322.7</ele>
        <time>2017-04-30T08:03:48Z</time>
      </trkpt>
      <trkpt lat="48.43883" lon="6.69655">
        <ele>322.85</ele>
        <time>2017-04-30T08:03:59Z</time>
      </trkpt>
      <trkpt lat="48.43883" lon="6.69651">
        <ele>323.34</ele>
        <time>2017-04-30T08:04:01Z</time>
      </trkpt>
      <trkpt lat="48.43876" lon="6.69628">
        <ele>323.98</ele>
        <time>2017-04-30T08:04:17Z</time>
      </trkpt>
      <trkpt lat="48.43873" lon="6.69617">
        <ele>323.34</ele>
        <time>2017-04-30T08:04:25Z</time>
      </trkpt>
      <trkpt lat="48.43872" lon="6.69611">
        <ele>323.49</ele>
        <time>2017-04-30T08:04:28Z</time>
      </trkpt>
      <trkpt lat="48.43867" lon="6.6958">
        <ele>323.9</ele>
        <time>2017-04-30T08:04:45Z</time>
      </trkpt>
      <trkpt lat="48.4386" lon="6.69553">
        <ele>323.74</ele>
        <time>2017-04-30T08:05:00Z</time>
      </trkpt>
      <trkpt lat="48.43857" lon="6.69545">
        <ele>323.91</ele>
        <time>2017-04-30T08:05:05Z</time>
      </trkpt>
      <trkpt lat="48.43851" lon="6.69529">
        <ele>323.89</ele>
        <time>2017-04-30T08:05:14Z</time>
      </trkpt>
      <trkpt lat="48.43848" lon="6.69521">
        <ele>324.35</ele>
        <time>2017-04-30T08:05:20Z</time>
      </trkpt>
      <trkpt lat="48.43847" lon="6.69518">
        <ele>324.45</ele>
        <time>2017-04-30T08:05:22Z</time>
      </trkpt>
      <trkpt lat="48.43848" lon="6.69489">
        <ele>323.53</ele>
        <time>2017-04-30T08:05:39Z</time>
      </trkpt>
      <trkpt lat="48.43852" lon="6.69473">
        <ele>322.71</ele>
        <time>2017-04-30T08:05:48Z</time>
      </trkpt>
      <trkpt lat="48.43859" lon="6.69442">
        <ele>321.07</ele>
        <time>2017-04-30T08:06:07Z</time>
      </trkpt>
      <trkpt lat="48.43862" lon="6.69424">
        <ele>320.29</ele>
        <time>2017-04-30T08:06:17Z</time>
      </trkpt>
      <trkpt lat="48.43863" lon="6.69416">
        <ele>319.76</ele>
        <time>2017-04-30T08:06:22Z</time>
      </trkpt>
      <trkpt lat="48.43868" lon="6.69388">
        <ele>318.38</ele>
        <time>2017-04-30T08:06:36Z</time>
      </trkpt>
      <trkpt lat="48.43874" lon="6.69358">
        <ele>316.73</ele>
        <time>2017-04-30T08:06:52Z</time>
      </trkpt>
      <trkpt lat="48.43879" lon="6.69332">
        <ele>315.44</ele>
        <time>2017-04-30T08:07:07Z</time>
      </trkpt>
      <trkpt lat="48.43885" lon="6.693">
        <ele>313.97</ele>
        <time>2017-04-30T08:07:24Z</time>
      </trkpt>
      <trkpt lat="48.43891" lon="6.69272">
        <ele>313.09</ele>
        <time>2017-04-30T08:07:40Z</time>
      </trkpt>
      <trkpt lat="48.43894" lon="6.69241">
        <ele>311.93</ele>
        <time>2017-04-30T08:07:56Z</time>
      </trkpt>
      <trkpt lat="48.43895" lon="6.69236">
        <ele>311.9</ele>
        <time>2017-04-30T08:07:59Z</time>
      </trkpt>
      <trkpt lat="48.43895" lon="6.69221">
        <ele>311.14</ele>
        <time>2017-04-30T08:08:06Z</time>
      </trkpt>
      <trkpt lat="48.43895" lon="6.6921">
        <ele>311.09</ele>
        <time>2017-04-30T08:08:12Z</time>
      </trkpt>
      <trkpt lat="48.43895" lon="6.69201">
        <ele>310.3</ele>
        <time>2017-04-30T08:08:16Z</time>
      </trkpt>
      <trkpt lat="48.43894" lon="6.69172">
        <ele>309.28</ele>
        <time>2017-04-30T08:08:31Z</time>
      </trkpt>
      <trkpt lat="48.43891" lon="6.6915">
        <ele>307.92</ele>
        <time>2017-04-30T08:08:43Z</time>
      </trkpt>
      <trkpt lat="48.4389" lon="6.69142">
        <ele>307.76</ele>
        <time>2017-04-30T08:08:47Z</time>
      </trkpt>
      <trkpt lat="48.4389" lon="6.69139">
        <ele>307.59</ele>
        <time>2017-04-30T08:08:49Z</time>
      </trkpt>
      <trkpt lat="48.43889" lon="6.69128">
        <ele>306.72</ele>
        <time>2017-04-30T08:08:55Z</time>
      </trkpt>
      <trkpt lat="48.43887" lon="6.69112">
        <ele>305.92</ele>
        <time>2017-04-30T08:09:04Z</time>
      </trkpt>
      <trkpt lat="48.43882" lon="6.6908">
        <ele>305.78</ele>
        <time>2017-04-30T08:09:21Z</time>
      </trkpt>
      <trkpt lat="48.43879" lon="6.6907">
        <ele>305.51</ele>
        <time>2017-04-30T08:09:27Z</time>
      </trkpt>
      <trkpt lat="48.43872" lon="6.6904">
        <ele>305.78</ele>
        <time>2017-04-30T08:09:43Z</time>
      </trkpt>
      <trkpt lat="48.43867" lon="6.69013">
        <ele>306.3</ele>
        <time>2017-04-30T08:09:58Z</time>
      </trkpt>
      <trkpt lat="48.43857" lon="6.68978">
        <ele>305.55</ele>
        <time>2017-04-30T08:10:16Z</time>
      </trkpt>
      <trkpt lat="48.43848" lon="6.68943">
        <ele>305.81</ele>
        <time>2017-04-30T08:10:35Z</time>
      </trkpt>
      <trkpt lat="48.43846" lon="6.68935">
        <ele>305.6</ele>
        <time>2017-04-30T08:10:39Z</time>
      </trkpt>
      <trkpt lat="48.43844" lon="6.68928">
        <ele>305</ele>
        <time>2017-04-30T08:10:43Z</time>
      </trkpt>
      <trkpt lat="48.43843" lon="6.68921">
        <ele>305.12</ele>
        <time>2017-04-30T08:10:47Z</time>
      </trkpt>
      <trkpt lat="48.43844" lon="6.68892">
        <ele>303.01</ele>
        <time>2017-04-30T08:11:03Z</time>
      </trkpt>
      <trkpt lat="48.43865" lon="6.68883">
        <ele>303.36</ele>
        <time>2017-04-30T08:11:20Z</time>
      </trkpt>
      <trkpt lat="48.43888" lon="6.68897">
        <ele>304.52</ele>
        <time>2017-04-30T08:11:39Z</time>
      </trkpt>
      <trkpt lat="48.43903" lon="6.68907">
        <ele>305.15</ele>
        <time>2017-04-30T08:11:51Z</time>
      </trkpt>
      <trkpt lat="48.43919" lon="6.68923">
        <ele>307.37</ele>
        <time>2017-04-30T08:12:08Z</time>
      </trkpt>
      <trkpt lat="48.4393" lon="6.68936">
        <ele>308.04</ele>
        <time>2017-04-30T08:12:19Z</time>
      </trkpt>
      <trkpt lat="48.43934" lon="6.68941">
        <ele>308.1</ele>
        <time>2017-04-30T08:12:23Z</time>
      </trkpt>
      <trkpt lat="48.43951" lon="6.68964">
        <ele>309.92</ele>
        <time>2017-04-30T08:12:39Z</time>
      </trkpt>
      <trkpt lat="48.43952" lon="6.68966">
        <ele>310.08</ele>
        <time>2017-04-30T08:12:40Z</time>
      </trkpt>
      <trkpt lat="48.43965" lon="6.68983">
        <ele>309.86</ele>
        <time>2017-04-30T08:12:53Z</time>
      </trkpt>
      <trkpt lat="48.43979" lon="6.68997">
        <ele>310.33</ele>
        <time>2017-04-30T08:13:06Z</time>
      </trkpt>
      <trkpt lat="48.43989" lon="6.69009">
        <ele>311.19</ele>
        <time>2017-04-30T08:13:17Z</time>
      </trkpt>
      <trkpt lat="48.43993" lon="6.69013">
        <ele>311.07</ele>
        <time>2017-04-30T08:13:21Z</time>
      </trkpt>
      <trkpt lat="48.44009" lon="6.69027">
        <ele>311.62</ele>
        <time>2017-04-30T08:13:37Z</time>
      </trkpt>
      <trkpt lat="48.44021" lon="6.69038">
        <ele>312.78</ele>
        <time>2017-04-30T08:13:50Z</time>
      </trkpt>
      <trkpt lat="48.44027" lon="6.6904">
        <ele>313.43</ele>
        <time>2017-04-30T08:13:55Z</time>
      </trkpt>
      <trkpt lat="48.44042" lon="6.69044">
        <ele>314.44</ele>
        <time>2017-04-30T08:14:09Z</time>
      </trkpt>
      <trkpt lat="48.44043" lon="6.69044">
        <ele>314.81</ele>
        <time>2017-04-30T08:14:10Z</time>
      </trkpt>
      <trkpt lat="48.44045" lon="6.69044">
        <ele>315.2</ele>
        <time>2017-04-30T08:14:12Z</time>
      </trkpt>
      <trkpt lat="48.4405" lon="6.69044">
        <ele>315.78</ele>
        <time>2017-04-30T08:14:17Z</time>
      </trkpt>
      <trkpt lat="48.44057" lon="6.69044">
        <ele>316.68</ele>
        <time>2017-04-30T08:14:22Z</time>
      </trkpt>
      <trkpt lat="48.44076" lon="6.69042">
        <ele>318.4</ele>
        <time>2017-04-30T08:14:39Z</time>
      </trkpt>
      <trkpt lat="48.44084" lon="6.69041">
        <ele>319.03</ele>
        <time>2017-04-30T08:14:46Z</time>
      </trkpt>
      <trkpt lat="48.44099" lon="6.69041">
        <ele>319.73</ele>
        <time>2017-04-30T08:15:00Z</time>
      </trkpt>
      <trkpt lat="48.44116" lon="6.69043">
        <ele>320.92</ele>
        <time>2017-04-30T08:15:15Z</time>
      </trkpt>
      <trkpt lat="48.44128" lon="6.69046">
        <ele>322.3</ele>
        <time>2017-04-30T08:15:26Z</time>
      </trkpt>
      <trkpt lat="48.44134" lon="6.69046">
        <ele>322.57</ele>
        <time>2017-04-30T08:15:31Z</time>
      </trkpt>
      <trkpt lat="48.4414" lon="6.69046">
        <ele>323.07</ele>
        <time>2017-04-30T08:15:35Z</time>
      </trkpt>
      <trkpt lat="48.4415" lon="6.69044">
        <ele>323.87</ele>
        <time>2017-04-30T08:15:45Z</time>
      </trkpt>
      <trkpt lat="48.44164" lon="6.69042">
        <ele>324.25</ele>
        <time>2017-04-30T08:15:57Z</time>
      </trkpt>
      <trkpt lat="48.4418" lon="6.69041">
        <ele>326.01</ele>
        <time>2017-04-30T08:16:10Z</time>
      </trkpt>
      <trkpt lat="48.44197" lon="6.69045">
        <ele>326.46</ele>
        <time>2017-04-30T08:16:23Z</time>
      </trkpt>
      <trkpt lat="48.44212" lon="6.69048">
        <ele>326.66</ele>
        <time>2017-04-30T08:16:35Z</time>
      </trkpt>
      <trkpt lat="48.44219" lon="6.69049">
        <ele>327.26</ele>
        <time>2017-04-30T08:16:40Z</time>
      </trkpt>
      <trkpt lat="48.44236" lon="6.69049">
        <ele>328.13</ele>
        <time>2017-04-30T08:16:53Z</time>
      </trkpt>
      <trkpt lat="48.44252" lon="6.69048">
        <ele>328.33</ele>
        <time>2017-04-30T08:17:06Z</time>
      </trkpt>
      <trkpt lat="48.44271" lon="6.69046">
        <ele>328.78</ele>
        <time>2017-04-30T08:17:21Z</time>
      </trkpt>
      <trkpt lat="48.44276" lon="6.69046">
        <ele>328.73</ele>
        <time>2017-04-30T08:17:26Z</time>
      </trkpt>
      <trkpt lat="48.44289" lon="6.69048">
        <ele>328.61</ele>
        <time>2017-04-30T08:17:34Z</time>
      </trkpt>
      <trkpt lat="48.44307" lon="6.69049">
        <ele>327.94</ele>
        <time>2017-04-30T08:17:47Z</time>
      </trkpt>
      <trkpt lat="48.44329" lon="6.69049">
        <ele>327.46</ele>
        <time>2017-04-30T08:18:03Z</time>
      </trkpt>
      <trkpt lat="48.44349" lon="6.69052">
        <ele>326.93</ele>
        <time>2017-04-30T08:18:19Z</time>
      </trkpt>
      <trkpt lat="48.44368" lon="6.69051">
        <ele>326.38</ele>
        <time>2017-04-30T08:18:34Z</time>
      </trkpt>
      <trkpt lat="48.44384" lon="6.6905">
        <ele>324.99</ele>
        <time>2017-04-30T08:18:48Z</time>
      </trkpt>
      <trkpt lat="48.44407" lon="6.69052">
        <ele>323.75</ele>
        <time>2017-04-30T08:19:04Z</time>
      </trkpt>
      <trkpt lat="48.4443" lon="6.6906">
        <ele>322.37</ele>
        <time>2017-04-30T08:19:20Z</time>
      </trkpt>
      <trkpt lat="48.44434" lon="6.69061">
        <ele>322.34</ele>
        <time>2017-04-30T08:19:24Z</time>
      </trkpt>
      <trkpt lat="48.44462" lon="6.69069">
        <ele>320.9</ele>
        <time>2017-04-30T08:19:44Z</time>
      </trkpt>
      <trkpt lat="48.44483" lon="6.69077">
        <ele>319.4</ele>
        <time>2017-04-30T08:20:02Z</time>
      </trkpt>
      <trkpt lat="48.44503" lon="6.69085">
        <ele>317.86</ele>
        <time>2017-04-30T08:20:19Z</time>
      </trkpt>
      <trkpt lat="48.44525" lon="6.69093">
        <ele>316.53</ele>
        <time>2017-04-30T08:20:37Z</time>
      </trkpt>
      <trkpt lat="48.44537" lon="6.69095">
        <ele>316.11</ele>
        <time>2017-04-30T08:20:48Z</time>
      </trkpt>
      <trkpt lat="48.44556" lon="6.691">
        <ele>314.03</ele>
        <time>2017-04-30T08:21:04Z</time>
      </trkpt>
      <trkpt lat="48.44571" lon="6.69099">
        <ele>313.75</ele>
        <time>2017-04-30T08:21:17Z</time>
      </trkpt>
      <trkpt lat="48.44585" lon="6.691">
        <ele>312.9</ele>
        <time>2017-04-30T08:21:26Z</time>
      </trkpt>
      <trkpt lat="48.44612" lon="6.69097">
        <ele>311.86</ele>
        <time>2017-04-30T08:21:45Z</time>
      </trkpt>
      <trkpt lat="48.44632" lon="6.69093">
        <ele>311.01</ele>
        <time>2017-04-30T08:22:01Z</time>
      </trkpt>
      <trkpt lat="48.44647" lon="6.6909">
        <ele>310.3</ele>
        <time>2017-04-30T08:22:13Z</time>
      </trkpt>
      <trkpt lat="48.44664" lon="6.69085">
        <ele>309.58</ele>
        <time>2017-04-30T08:22:26Z</time>
      </trkpt>
      <trkpt lat="48.44685" lon="6.6908">
        <ele>308.88</ele>
        <time>2017-04-30T08:22:42Z</time>
      </trkpt>
      <trkpt lat="48.44693" lon="6.69077">
        <ele>308.66</ele>
        <time>2017-04-30T08:22:49Z</time>
      </trkpt>
      <trkpt lat="48.44694" lon="6.6907">
        <ele>309.03</ele>
        <time>2017-04-30T08:22:55Z</time>
      </trkpt>
      <trkpt lat="48.44689" lon="6.69056">
        <ele>308.67</ele>
        <time>2017-04-30T08:23:07Z</time>
      </trkpt>
      <trkpt lat="48.44686" lon="6.69034">
        <ele>309.16</ele>
        <time>2017-04-30T08:23:23Z</time>
      </trkpt>
      <trkpt lat="48.44683" lon="6.69026">
        <ele>310.15</ele>
        <time>2017-04-30T08:23:29Z</time>
      </trkpt>
      <trkpt lat="48.44681" lon="6.69016">
        <ele>309.44</ele>
        <time>2017-04-30T08:23:34Z</time>
      </trkpt>
      <trkpt lat="48.44676" lon="6.68993">
        <ele>309.62</ele>
        <time>2017-04-30T08:23:49Z</time>
      </trkpt>
      <trkpt lat="48.44669" lon="6.68973">
        <ele>309.68</ele>
        <time>2017-04-30T08:24:03Z</time>
      </trkpt>
      <trkpt lat="48.44664" lon="6.68949">
        <ele>309.09</ele>
        <time>2017-04-30T08:24:18Z</time>
      </trkpt>
      <trkpt lat="48.44657" lon="6.68918">
        <ele>309.42</ele>
        <time>2017-04-30T08:24:36Z</time>
      </trkpt>
      <trkpt lat="48.44656" lon="6.68914">
        <ele>308.27</ele>
        <time>2017-04-30T08:24:40Z</time>
      </trkpt>
      <trkpt lat="48.44651" lon="6.68895">
        <ele>308.78</ele>
        <time>2017-04-30T08:24:52Z</time>
      </trkpt>
      <trkpt lat="48.44645" lon="6.68868">
        <ele>309.28</ele>
        <time>2017-04-30T08:25:08Z</time>
      </trkpt>
      <trkpt lat="48.44639" lon="6.68841">
        <ele>309.39</ele>
        <time>2017-04-30T08:25:23Z</time>
      </trkpt>
      <trkpt lat="48.44635" lon="6.68828">
        <ele>309.33</ele>
        <time>2017-04-30T08:25:29Z</time>
      </trkpt>
      <trkpt lat="48.4463" lon="6.68816">
        <ele>310.18</ele>
        <time>2017-04-30T08:25:40Z</time>
      </trkpt>
      <trkpt lat="48.44629" lon="6.6881">
        <ele>310.08</ele>
        <time>2017-04-30T08:25:43Z</time>
      </trkpt>
      <trkpt lat="48.44625" lon="6.68798">
        <ele>309.91</ele>
        <time>2017-04-30T08:25:50Z</time>
      </trkpt>
      <trkpt lat="48.44624" lon="6.68791">
        <ele>310.44</ele>
        <time>2017-04-30T08:25:55Z</time>
      </trkpt>
      <trkpt lat="48.4462" lon="6.68763">
        <ele>310.71</ele>
        <time>2017-04-30T08:26:09Z</time>
      </trkpt>
      <trkpt lat="48.44617" lon="6.68741">
        <ele>310.95</ele>
        <time>2017-04-30T08:26:23Z</time>
      </trkpt>
      <trkpt lat="48.44613" lon="6.68731">
        <ele>310.65</ele>
        <time>2017-04-30T08:26:29Z</time>
      </trkpt>
      <trkpt lat="48.44603" lon="6.68714">
        <ele>311.09</ele>
        <time>2017-04-30T08:26:42Z</time>
      </trkpt>
      <trkpt lat="48.44604" lon="6.68709">
        <ele>311.11</ele>
        <time>2017-04-30T08:26:46Z</time>
      </trkpt>
      <trkpt lat="48.44618" lon="6.6869">
        <ele>311.01</ele>
        <time>2017-04-30T08:27:03Z</time>
      </trkpt>
      <trkpt lat="48.44626" lon="6.68686">
        <ele>311.03</ele>
        <time>2017-04-30T08:27:11Z</time>
      </trkpt>
      <trkpt lat="48.44632" lon="6.68685">
        <ele>310.41</ele>
        <time>2017-04-30T08:27:16Z</time>
      </trkpt>
      <trkpt lat="48.4464" lon="6.68693">
        <ele>310.03</ele>
        <time>2017-04-30T08:27:26Z</time>
      </trkpt>
      <trkpt lat="48.44642" lon="6.68705">
        <ele>309.77</ele>
        <time>2017-04-30T08:27:32Z</time>
      </trkpt>
      <trkpt lat="48.44644" lon="6.68708">
        <ele>310.19</ele>
        <time>2017-04-30T08:27:48Z</time>
      </trkpt>
      <trkpt lat="48.44641" lon="6.68706">
        <ele>309.64</ele>
        <time>2017-04-30T08:28:13Z</time>
      </trkpt>
      <trkpt lat="48.44636" lon="6.68691">
        <ele>310.03</ele>
        <time>2017-04-30T08:28:27Z</time>
      </trkpt>
      <trkpt lat="48.44632" lon="6.68689">
        <ele>310.88</ele>
        <time>2017-04-30T08:28:42Z</time>
      </trkpt>
      <trkpt lat="48.44631" lon="6.68689">
        <ele>310.54</ele>
        <time>2017-04-30T08:29:01Z</time>
      </trkpt>
      <trkpt lat="48.44631" lon="6.68689">
        <ele>310.5</ele>
        <time>2017-04-30T08:29:23Z</time>
      </trkpt>
      <trkpt lat="48.44628" lon="6.68681">
        <ele>310.34</ele>
        <time>2017-04-30T08:29:54Z</time>
      </trkpt>
      <trkpt lat="48.44632" lon="6.68683">
        <ele>309.88</ele>
        <time>2017-04-30T08:30:10Z</time>
      </trkpt>
      <trkpt lat="48.44629" lon="6.68686">
        <ele>310.35</ele>
        <time>2017-04-30T08:30:25Z</time>
      </trkpt>
      <trkpt lat="48.44627" lon="6.68691">
        <ele>310.74</ele>
        <time>2017-04-30T08:30:52Z</time>
      </trkpt>
      <trkpt lat="48.4464" lon="6.68679">
        <ele>310.39</ele>
        <time>2017-04-30T08:31:10Z</time>
      </trkpt>
      <trkpt lat="48.44642" lon="6.68677">
        <ele>310.26</ele>
        <time>2017-04-30T08:31:12Z</time>
      </trkpt>
      <trkpt lat="48.44649" lon="6.68674">
        <ele>309.68</ele>
        <time>2017-04-30T08:31:18Z</time>
      </trkpt>
      <trkpt lat="48.44664" lon="6.68663">
        <ele>309.4</ele>
        <time>2017-04-30T08:31:32Z</time>
      </trkpt>
      <trkpt lat="48.44678" lon="6.68655">
        <ele>308.81</ele>
        <time>2017-04-30T08:31:46Z</time>
      </trkpt>
      <trkpt lat="48.4468" lon="6.68648">
        <ele>308.65</ele>
        <time>2017-04-30T08:32:01Z</time>
      </trkpt>
      <trkpt lat="48.44679" lon="6.68643">
        <ele>308.73</ele>
        <time>2017-04-30T08:32:05Z</time>
      </trkpt>
      <trkpt lat="48.44678" lon="6.6864">
        <ele>308.76</ele>
        <time>2017-04-30T08:32:07Z</time>
      </trkpt>
      <trkpt lat="48.44676" lon="6.68634">
        <ele>308.33</ele>
        <time>2017-04-30T08:32:12Z</time>
      </trkpt>
      <trkpt lat="48.44675" lon="6.68629">
        <ele>308.44</ele>
        <time>2017-04-30T08:32:15Z</time>
      </trkpt>
      <trkpt lat="48.44675" lon="6.68625">
        <ele>308.42</ele>
        <time>2017-04-30T08:32:17Z</time>
      </trkpt>
      <trkpt lat="48.44674" lon="6.68619">
        <ele>308.2</ele>
        <time>2017-04-30T08:32:21Z</time>
      </trkpt>
      <trkpt lat="48.44671" lon="6.68611">
        <ele>308.13</ele>
        <time>2017-04-30T08:32:26Z</time>
      </trkpt>
      <trkpt lat="48.44671" lon="6.68608">
        <ele>308.83</ele>
        <time>2017-04-30T08:32:28Z</time>
      </trkpt>
      <trkpt lat="48.44669" lon="6.68599">
        <ele>307.98</ele>
        <time>2017-04-30T08:32:33Z</time>
      </trkpt>
      <trkpt lat="48.44668" lon="6.68596">
        <ele>308.02</ele>
        <time>2017-04-30T08:32:35Z</time>
      </trkpt>
      <trkpt lat="48.44664" lon="6.68582">
        <ele>307.74</ele>
        <time>2017-04-30T08:32:44Z</time>
      </trkpt>
      <trkpt lat="48.44662" lon="6.68576">
        <ele>307.2</ele>
        <time>2017-04-30T08:32:48Z</time>
      </trkpt>
      <trkpt lat="48.4466" lon="6.68567">
        <ele>307.8</ele>
        <time>2017-04-30T08:32:53Z</time>
      </trkpt>
      <trkpt lat="48.44657" lon="6.68557">
        <ele>307.43</ele>
        <time>2017-04-30T08:33:00Z</time>
      </trkpt>
      <trkpt lat="48.44655" lon="6.68546">
        <ele>307.71</ele>
        <time>2017-04-30T08:33:07Z</time>
      </trkpt>
      <trkpt lat="48.44654" lon="6.68539">
        <ele>307.34</ele>
        <time>2017-04-30T08:33:11Z</time>
      </trkpt>
      <trkpt lat="48.44653" lon="6.6853">
        <ele>307.53</ele>
        <time>2017-04-30T08:33:16Z</time>
      </trkpt>
      <trkpt lat="48.44646" lon="6.68514">
        <ele>307.7</ele>
        <time>2017-04-30T08:33:27Z</time>
      </trkpt>
      <trkpt lat="48.44637" lon="6.68493">
        <ele>307.6</ele>
        <time>2017-04-30T08:33:42Z</time>
      </trkpt>
      <trkpt lat="48.44633" lon="6.68465">
        <ele>307.86</ele>
        <time>2017-04-30T08:33:57Z</time>
      </trkpt>
      <trkpt lat="48.4463" lon="6.68446">
        <ele>307.76</ele>
        <time>2017-04-30T08:34:08Z</time>
      </trkpt>
      <trkpt lat="48.44626" lon="6.68435">
        <ele>307.55</ele>
        <time>2017-04-30T08:34:15Z</time>
      </trkpt>
      <trkpt lat="48.44624" lon="6.68429">
        <ele>307.31</ele>
        <time>2017-04-30T08:34:19Z</time>
      </trkpt>
      <trkpt lat="48.44617" lon="6.68408">
        <ele>307.26</ele>
        <time>2017-04-30T08:34:31Z</time>
      </trkpt>
      <trkpt lat="48.44615" lon="6.68401">
        <ele>307.43</ele>
        <time>2017-04-30T08:34:35Z</time>
      </trkpt>
      <trkpt lat="48.44613" lon="6.68394">
        <ele>307.04</ele>
        <time>2017-04-30T08:34:39Z</time>
      </trkpt>
      <trkpt lat="48.44605" lon="6.68369">
        <ele>306.76</ele>
        <time>2017-04-30T08:34:55Z</time>
      </trkpt>
      <trkpt lat="48.44605" lon="6.68366">
        <ele>306.3</ele>
        <time>2017-04-30T08:34:57Z</time>
      </trkpt>
      <trkpt lat="48.44604" lon="6.6835">
        <ele>306.41</ele>
        <time>2017-04-30T08:35:06Z</time>
      </trkpt>
      <trkpt lat="48.44599" lon="6.68322">
        <ele>306.06</ele>
        <time>2017-04-30T08:35:22Z</time>
      </trkpt>
      <trkpt lat="48.44596" lon="6.68312">
        <ele>305.69</ele>
        <time>2017-04-30T08:35:28Z</time>
      </trkpt>
      <trkpt lat="48.44585" lon="6.68285">
        <ele>304.65</ele>
        <time>2017-04-30T08:35:45Z</time>
      </trkpt>
      <trkpt lat="48.44582" lon="6.68269">
        <ele>304.45</ele>
        <time>2017-04-30T08:35:54Z</time>
      </trkpt>
      <trkpt lat="48.44577" lon="6.68243">
        <ele>303.91</ele>
        <time>2017-04-30T08:36:10Z</time>
      </trkpt>
      <trkpt lat="48.44575" lon="6.68233">
        <ele>303.89</ele>
        <time>2017-04-30T08:36:15Z</time>
      </trkpt>
      <trkpt lat="48.44571" lon="6.68218">
        <ele>303.37</ele>
        <time>2017-04-30T08:36:24Z</time>
      </trkpt>
      <trkpt lat="48.44563" lon="6.68196">
        <ele>303.59</ele>
        <time>2017-04-30T08:36:39Z</time>
      </trkpt>
      <trkpt lat="48.44563" lon="6.68194">
        <ele>303.62</ele>
        <time>2017-04-30T08:36:40Z</time>
      </trkpt>
      <trkpt lat="48.4456" lon="6.68185">
        <ele>303.47</ele>
        <time>2017-04-30T08:36:47Z</time>
      </trkpt>
      <trkpt lat="48.44555" lon="6.6816">
        <ele>304.5</ele>
        <time>2017-04-30T08:37:03Z</time>
      </trkpt>
      <trkpt lat="48.44549" lon="6.68143">
        <ele>305.81</ele>
        <time>2017-04-30T08:37:15Z</time>
      </trkpt>
      <trkpt lat="48.44542" lon="6.68125">
        <ele>306.01</ele>
        <time>2017-04-30T08:37:27Z</time>
      </trkpt>
      <trkpt lat="48.44542" lon="6.68122">
        <ele>305.95</ele>
        <time>2017-04-30T08:37:29Z</time>
      </trkpt>
      <trkpt lat="48.4454" lon="6.68119">
        <ele>306.23</ele>
        <time>2017-04-30T08:37:31Z</time>
      </trkpt>
      <trkpt lat="48.44538" lon="6.68111">
        <ele>306.27</ele>
        <time>2017-04-30T08:37:36Z</time>
      </trkpt>
      <trkpt lat="48.44538" lon="6.68104">
        <ele>307.05</ele>
        <time>2017-04-30T08:37:40Z</time>
      </trkpt>
      <trkpt lat="48.44534" lon="6.68073">
        <ele>307.35</ele>
        <time>2017-04-30T08:37:58Z</time>
      </trkpt>
      <trkpt lat="48.44533" lon="6.6807">
        <ele>307.52</ele>
        <time>2017-04-30T08:38:00Z</time>
      </trkpt>
      <trkpt lat="48.44532" lon="6.6806">
        <ele>308.07</ele>
        <time>2017-04-30T08:38:06Z</time>
      </trkpt>
      <trkpt lat="48.44531" lon="6.68057">
        <ele>307.42</ele>
        <time>2017-04-30T08:38:09Z</time>
      </trkpt>
      <trkpt lat="48.44531" lon="6.68038">
        <ele>307.74</ele>
        <time>2017-04-30T08:38:25Z</time>
      </trkpt>
      <trkpt lat="48.44535" lon="6.68032">
        <ele>307.38</ele>
        <time>2017-04-30T08:38:31Z</time>
      </trkpt>
      <trkpt lat="48.44549" lon="6.68026">
        <ele>307.08</ele>
        <time>2017-04-30T08:38:45Z</time>
      </trkpt>
      <trkpt lat="48.44561" lon="6.68016">
        <ele>306.12</ele>
        <time>2017-04-30T08:38:58Z</time>
      </trkpt>
      <trkpt lat="48.44563" lon="6.68013">
        <ele>305.97</ele>
        <time>2017-04-30T08:39:01Z</time>
      </trkpt>
      <trkpt lat="48.44568" lon="6.68009">
        <ele>306.04</ele>
        <time>2017-04-30T08:39:06Z</time>
      </trkpt>
      <trkpt lat="48.44577" lon="6.68009">
        <ele>305.34</ele>
        <time>2017-04-30T08:39:15Z</time>
      </trkpt>
      <trkpt lat="48.4458" lon="6.68009">
        <ele>305.34</ele>
        <time>2017-04-30T08:39:17Z</time>
      </trkpt>
      <trkpt lat="48.446" lon="6.68001">
        <ele>304.15</ele>
        <time>2017-04-30T08:39:35Z</time>
      </trkpt>
      <trkpt lat="48.44608" lon="6.68001">
        <ele>304.06</ele>
        <time>2017-04-30T08:39:48Z</time>
      </trkpt>
      <trkpt lat="48.44609" lon="6.68001">
        <ele>303.43</ele>
        <time>2017-04-30T08:39:49Z</time>
      </trkpt>
      <trkpt lat="48.44619" lon="6.68014">
        <ele>303.55</ele>
        <time>2017-04-30T08:40:04Z</time>
      </trkpt>
      <trkpt lat="48.44619" lon="6.68018">
        <ele>302.72</ele>
        <time>2017-04-30T08:40:22Z</time>
      </trkpt>
      <trkpt lat="48.44618" lon="6.68022">
        <ele>303.48</ele>
        <time>2017-04-30T08:40:43Z</time>
      </trkpt>
      <trkpt lat="48.44619" lon="6.6802">
        <ele>303.12</ele>
        <time>2017-04-30T08:41:10Z</time>
      </trkpt>
      <trkpt lat="48.44618" lon="6.68018">
        <ele>303.67</ele>
        <time>2017-04-30T08:41:39Z</time>
      </trkpt>
      <trkpt lat="48.44619" lon="6.68017">
        <ele>303.43</ele>
        <time>2017-04-30T08:42:15Z</time>
      </trkpt>
      <trkpt lat="48.4462" lon="6.6802">
        <ele>303.72</ele>
        <time>2017-04-30T08:42:26Z</time>
      </trkpt>
      <trkpt lat="48.44625" lon="6.68027">
        <ele>303.31</ele>
        <time>2017-04-30T08:42:31Z</time>
      </trkpt>
      <trkpt lat="48.44635" lon="6.68048">
        <ele>302.9</ele>
        <time>2017-04-30T08:42:46Z</time>
      </trkpt>
      <trkpt lat="48.44639" lon="6.68053">
        <ele>302.27</ele>
        <time>2017-04-30T08:42:50Z</time>
      </trkpt>
      <trkpt lat="48.4464" lon="6.68056">
        <ele>302.5</ele>
        <time>2017-04-30T08:42:52Z</time>
      </trkpt>
      <trkpt lat="48.44642" lon="6.68061">
        <ele>302.18</ele>
        <time>2017-04-30T08:42:55Z</time>
      </trkpt>
      <trkpt lat="48.44662" lon="6.68098">
        <ele>301.08</ele>
        <time>2017-04-30T08:43:18Z</time>
      </trkpt>
      <trkpt lat="48.44678" lon="6.68129">
        <ele>299.91</ele>
        <time>2017-04-30T08:43:38Z</time>
      </trkpt>
      <trkpt lat="48.4468" lon="6.68134">
        <ele>299.75</ele>
        <time>2017-04-30T08:43:41Z</time>
      </trkpt>
      <trkpt lat="48.44699" lon="6.68167">
        <ele>297.45</ele>
        <time>2017-04-30T08:44:04Z</time>
      </trkpt>
      <trkpt lat="48.44716" lon="6.68198">
        <ele>297.2</ele>
        <time>2017-04-30T08:44:25Z</time>
      </trkpt>
      <trkpt lat="48.44723" lon="6.68208">
        <ele>297.8</ele>
        <time>2017-04-30T08:44:32Z</time>
      </trkpt>
      <trkpt lat="48.44743" lon="6.68228">
        <ele>297.91</ele>
        <time>2017-04-30T08:44:53Z</time>
      </trkpt>
      <trkpt lat="48.44746" lon="6.68228">
        <ele>297.89</ele>
        <time>2017-04-30T08:44:56Z</time>
      </trkpt>
      <trkpt lat="48.44751" lon="6.68231">
        <ele>297.76</ele>
        <time>2017-04-30T08:45:00Z</time>
      </trkpt>
      <trkpt lat="48.44771" lon="6.68228">
        <ele>297.03</ele>
        <time>2017-04-30T08:45:16Z</time>
      </trkpt>
      <trkpt lat="48.4478" lon="6.68226">
        <ele>297.36</ele>
        <time>2017-04-30T08:45:24Z</time>
      </trkpt>
      <trkpt lat="48.44797" lon="6.68217">
        <ele>296.3</ele>
        <time>2017-04-30T08:45:41Z</time>
      </trkpt>
      <trkpt lat="48.44815" lon="6.6822">
        <ele>296.33</ele>
        <time>2017-04-30T08:45:58Z</time>
      </trkpt>
      <trkpt lat="48.44839" lon="6.68221">
        <ele>295.34</ele>
        <time>2017-04-30T08:46:18Z</time>
      </trkpt>
      <trkpt lat="48.44853" lon="6.68223">
        <ele>295.32</ele>
        <time>2017-04-30T08:46:37Z</time>
      </trkpt>
      <trkpt lat="48.44854" lon="6.68223">
        <ele>294.94</ele>
        <time>2017-04-30T08:46:39Z</time>
      </trkpt>
      <trkpt lat="48.44861" lon="6.68209">
        <ele>294.1</ele>
        <time>2017-04-30T08:46:54Z</time>
      </trkpt>
      <trkpt lat="48.44863" lon="6.68207">
        <ele>293.88</ele>
        <time>2017-04-30T08:46:56Z</time>
      </trkpt>
      <trkpt lat="48.4488" lon="6.68202">
        <ele>293.22</ele>
        <time>2017-04-30T08:47:13Z</time>
      </trkpt>
      <trkpt lat="48.44882" lon="6.682">
        <ele>292.85</ele>
        <time>2017-04-30T08:47:16Z</time>
      </trkpt>
      <trkpt lat="48.44888" lon="6.6818">
        <ele>292.09</ele>
        <time>2017-04-30T08:47:31Z</time>
      </trkpt>
      <trkpt lat="48.44893" lon="6.68164">
        <ele>292.19</ele>
        <time>2017-04-30T08:47:43Z</time>
      </trkpt>
      <trkpt lat="48.44894" lon="6.68163">
        <ele>292.06</ele>
        <time>2017-04-30T08:47:44Z</time>
      </trkpt>
      <trkpt lat="48.449" lon="6.6816">
        <ele>292.16</ele>
        <time>2017-04-30T08:47:50Z</time>
      </trkpt>
      <trkpt lat="48.44908" lon="6.68157">
        <ele>291.21</ele>
        <time>2017-04-30T08:47:58Z</time>
      </trkpt>
      <trkpt lat="48.4491" lon="6.68156">
        <ele>290.95</ele>
        <time>2017-04-30T08:48:00Z</time>
      </trkpt>
      <trkpt lat="48.44919" lon="6.68148">
        <ele>290.76</ele>
        <time>2017-04-30T08:48:14Z</time>
      </trkpt>
      <trkpt lat="48.44923" lon="6.68133">
        <ele>291.41</ele>
        <time>2017-04-30T08:48:30Z</time>
      </trkpt>
      <trkpt lat="48.44924" lon="6.6813">
        <ele>291.62</ele>
        <time>2017-04-30T08:48:32Z</time>
      </trkpt>
      <trkpt lat="48.44933" lon="6.68108">
        <ele>292.51</ele>
        <time>2017-04-30T08:48:48Z</time>
      </trkpt>
      <trkpt lat="48.44943" lon="6.68082">
        <ele>293.4</ele>
        <time>2017-04-30T08:49:05Z</time>
      </trkpt>
      <trkpt lat="48.44953" lon="6.68063">
        <ele>293.94</ele>
        <time>2017-04-30T08:49:22Z</time>
      </trkpt>
      <trkpt lat="48.44962" lon="6.68044">
        <ele>294</ele>
        <time>2017-04-30T08:49:40Z</time>
      </trkpt>
      <trkpt lat="48.44966" lon="6.6804">
        <ele>294.81</ele>
        <time>2017-04-30T08:49:45Z</time>
      </trkpt>
      <trkpt lat="48.44973" lon="6.68027">
        <ele>295.04</ele>
        <time>2017-04-30T08:49:59Z</time>
      </trkpt>
      <trkpt lat="48.44976" lon="6.68027">
        <ele>295.37</ele>
        <time>2017-04-30T08:50:04Z</time>
      </trkpt>
      <trkpt lat="48.4498" lon="6.68026">
        <ele>295.36</ele>
        <time>2017-04-30T08:50:08Z</time>
      </trkpt>
      <trkpt lat="48.44999" lon="6.68038">
        <ele>294.84</ele>
        <time>2017-04-30T08:50:25Z</time>
      </trkpt>
      <trkpt lat="48.45013" lon="6.68042">
        <ele>294.64</ele>
        <time>2017-04-30T08:50:42Z</time>
      </trkpt>
      <trkpt lat="48.45014" lon="6.68041">
        <ele>294.37</ele>
        <time>2017-04-30T08:50:43Z</time>
      </trkpt>
      <trkpt lat="48.45017" lon="6.68041">
        <ele>294.3</ele>
        <time>2017-04-30T08:50:46Z</time>
      </trkpt>
      <trkpt lat="48.45029" lon="6.68038">
        <ele>294.45</ele>
        <time>2017-04-30T08:51:00Z</time>
      </trkpt>
      <trkpt lat="48.45042" lon="6.68035">
        <ele>293.58</ele>
        <time>2017-04-30T08:51:17Z</time>
      </trkpt>
      <trkpt lat="48.45056" lon="6.68038">
        <ele>292.95</ele>
        <time>2017-04-30T08:51:32Z</time>
      </trkpt>
      <trkpt lat="48.45061" lon="6.68038">
        <ele>292.95</ele>
        <time>2017-04-30T08:51:40Z</time>
      </trkpt>
      <trkpt lat="48.45078" lon="6.68049">
        <ele>292.22</ele>
        <time>2017-04-30T08:51:57Z</time>
      </trkpt>
      <trkpt lat="48.45083" lon="6.6805">
        <ele>292.17</ele>
        <time>2017-04-30T08:52:02Z</time>
      </trkpt>
      <trkpt lat="48.45092" lon="6.68055">
        <ele>291.38</ele>
        <time>2017-04-30T08:52:12Z</time>
      </trkpt>
      <trkpt lat="48.45097" lon="6.68057">
        <ele>291.29</ele>
        <time>2017-04-30T08:52:16Z</time>
      </trkpt>
      <trkpt lat="48.45111" lon="6.68067">
        <ele>290.93</ele>
        <time>2017-04-30T08:52:30Z</time>
      </trkpt>
      <trkpt lat="48.45113" lon="6.68068">
        <ele>290.91</ele>
        <time>2017-04-30T08:52:32Z</time>
      </trkpt>
      <trkpt lat="48.45127" lon="6.68077">
        <ele>288.93</ele>
        <time>2017-04-30T08:52:47Z</time>
      </trkpt>
      <trkpt lat="48.45128" lon="6.68078">
        <ele>289.43</ele>
        <time>2017-04-30T08:52:48Z</time>
      </trkpt>
      <trkpt lat="48.45138" lon="6.68082">
        <ele>288.75</ele>
        <time>2017-04-30T08:52:59Z</time>
      </trkpt>
      <trkpt lat="48.45143" lon="6.68083">
        <ele>288.61</ele>
        <time>2017-04-30T08:53:03Z</time>
      </trkpt>
      <trkpt lat="48.45157" lon="6.68088">
        <ele>287.55</ele>
        <time>2017-04-30T08:53:17Z</time>
      </trkpt>
      <trkpt lat="48.45169" lon="6.68093">
        <ele>286.65</ele>
        <time>2017-04-30T08:53:32Z</time>
      </trkpt>
      <trkpt lat="48.45176" lon="6.68093">
        <ele>286.62</ele>
        <time>2017-04-30T08:53:45Z</time>
      </trkpt>
      <trkpt lat="48.45182" lon="6.68089">
        <ele>286.67</ele>
        <time>2017-04-30T08:54:07Z</time>
      </trkpt>
      <trkpt lat="48.45187" lon="6.68078">
        <ele>286.33</ele>
        <time>2017-04-30T08:54:22Z</time>
      </trkpt>
      <trkpt lat="48.45188" lon="6.68078">
        <ele>286.29</ele>
        <time>2017-04-30T08:54:43Z</time>
      </trkpt>
      <trkpt lat="48.45188" lon="6.68079">
        <ele>286.26</ele>
        <time>2017-04-30T08:55:03Z</time>
      </trkpt>
      <trkpt lat="48.45187" lon="6.68078">
        <ele>286.73</ele>
        <time>2017-04-30T08:55:25Z</time>
      </trkpt>
      <trkpt lat="48.45187" lon="6.68063">
        <ele>286.65</ele>
        <time>2017-04-30T08:55:40Z</time>
      </trkpt>
      <trkpt lat="48.45188" lon="6.68056">
        <ele>286.22</ele>
        <time>2017-04-30T08:55:46Z</time>
      </trkpt>
      <trkpt lat="48.45189" lon="6.68049">
        <ele>286.44</ele>
        <time>2017-04-30T08:55:51Z</time>
      </trkpt>
      <trkpt lat="48.45189" lon="6.68046">
        <ele>286.34</ele>
        <time>2017-04-30T08:55:53Z</time>
      </trkpt>
      <trkpt lat="48.45189" lon="6.68022">
        <ele>286.29</ele>
        <time>2017-04-30T08:56:10Z</time>
      </trkpt>
      <trkpt lat="48.45188" lon="6.68014">
        <ele>285.83</ele>
        <time>2017-04-30T08:56:16Z</time>
      </trkpt>
      <trkpt lat="48.45194" lon="6.67992">
        <ele>286.34</ele>
        <time>2017-04-30T08:56:32Z</time>
      </trkpt>
      <trkpt lat="48.452" lon="6.67964">
        <ele>285.51</ele>
        <time>2017-04-30T08:56:51Z</time>
      </trkpt>
      <trkpt lat="48.45204" lon="6.67935">
        <ele>286.13</ele>
        <time>2017-04-30T08:57:08Z</time>
      </trkpt>
      <trkpt lat="48.45206" lon="6.67927">
        <ele>286.27</ele>
        <time>2017-04-30T08:57:13Z</time>
      </trkpt>
      <trkpt lat="48.45208" lon="6.6792">
        <ele>286.3</ele>
        <time>2017-04-30T08:57:17Z</time>
      </trkpt>
      <trkpt lat="48.45209" lon="6.67912">
        <ele>285.65</ele>
        <time>2017-04-30T08:57:22Z</time>
      </trkpt>
      <trkpt lat="48.45218" lon="6.67883">
        <ele>285.78</ele>
        <time>2017-04-30T08:57:41Z</time>
      </trkpt>
      <trkpt lat="48.45224" lon="6.67857">
        <ele>286.06</ele>
        <time>2017-04-30T08:57:58Z</time>
      </trkpt>
      <trkpt lat="48.45227" lon="6.67829">
        <ele>286.02</ele>
        <time>2017-04-30T08:58:16Z</time>
      </trkpt>
      <trkpt lat="48.45228" lon="6.67801">
        <ele>285.96</ele>
        <time>2017-04-30T08:58:33Z</time>
      </trkpt>
      <trkpt lat="48.45228" lon="6.67769">
        <ele>286.04</ele>
        <time>2017-04-30T08:58:51Z</time>
      </trkpt>
      <trkpt lat="48.45244" lon="6.67739">
        <ele>285.82</ele>
        <time>2017-04-30T08:59:13Z</time>
      </trkpt>
      <trkpt lat="48.45261" lon="6.67721">
        <ele>285.01</ele>
        <time>2017-04-30T08:59:31Z</time>
      </trkpt>
      <trkpt lat="48.45283" lon="6.67705">
        <ele>283.56</ele>
        <time>2017-04-30T08:59:51Z</time>
      </trkpt>
      <trkpt lat="48.45304" lon="6.67688">
        <ele>282.95</ele>
        <time>2017-04-30T09:00:11Z</time>
      </trkpt>
      <trkpt lat="48.45321" lon="6.6767">
        <ele>282.52</ele>
        <time>2017-04-30T09:00:30Z</time>
      </trkpt>
      <trkpt lat="48.45327" lon="6.67651">
        <ele>281.19</ele>
        <time>2017-04-30T09:00:45Z</time>
      </trkpt>
      <trkpt lat="48.45315" lon="6.67625">
        <ele>281.28</ele>
        <time>2017-04-30T09:01:04Z</time>
      </trkpt>
      <trkpt lat="48.45304" lon="6.67599">
        <ele>279.67</ele>
        <time>2017-04-30T09:01:23Z</time>
      </trkpt>
      <trkpt lat="48.45299" lon="6.67586">
        <ele>279.66</ele>
        <time>2017-04-30T09:01:32Z</time>
      </trkpt>
      <trkpt lat="48.45294" lon="6.67575">
        <ele>279.68</ele>
        <time>2017-04-30T09:01:39Z</time>
      </trkpt>
      <trkpt lat="48.45282" lon="6.67543">
        <ele>279.48</ele>
        <time>2017-04-30T09:01:59Z</time>
      </trkpt>
      <trkpt lat="48.45273" lon="6.6751">
        <ele>278.59</ele>
        <time>2017-04-30T09:02:17Z</time>
      </trkpt>
      <trkpt lat="48.45277" lon="6.67489">
        <ele>278.34</ele>
        <time>2017-04-30T09:02:29Z</time>
      </trkpt>
      <trkpt lat="48.45291" lon="6.67464">
        <ele>278.6</ele>
        <time>2017-04-30T09:02:47Z</time>
      </trkpt>
      <trkpt lat="48.45305" lon="6.67443">
        <ele>277.83</ele>
        <time>2017-04-30T09:03:03Z</time>
      </trkpt>
      <trkpt lat="48.4532" lon="6.67424">
        <ele>278.04</ele>
        <time>2017-04-30T09:03:21Z</time>
      </trkpt>
      <trkpt lat="48.45335" lon="6.67402">
        <ele>278.36</ele>
        <time>2017-04-30T09:03:41Z</time>
      </trkpt>
      <trkpt lat="48.45342" lon="6.67392">
        <ele>278.66</ele>
        <time>2017-04-30T09:03:51Z</time>
      </trkpt>
      <trkpt lat="48.45359" lon="6.6737">
        <ele>280.04</ele>
        <time>2017-04-30T09:04:10Z</time>
      </trkpt>
      <trkpt lat="48.45361" lon="6.67367">
        <ele>280.58</ele>
        <time>2017-04-30T09:04:13Z</time>
      </trkpt>
      <trkpt lat="48.45378" lon="6.67342">
        <ele>281.21</ele>
        <time>2017-04-30T09:04:33Z</time>
      </trkpt>
      <trkpt lat="48.45394" lon="6.67318">
        <ele>281.45</ele>
        <time>2017-04-30T09:04:52Z</time>
      </trkpt>
      <trkpt lat="48.45407" lon="6.67299">
        <ele>281.6</ele>
        <time>2017-04-30T09:05:07Z</time>
      </trkpt>
      <trkpt lat="48.45424" lon="6.67269">
        <ele>280.87</ele>
        <time>2017-04-30T09:05:29Z</time>
      </trkpt>
      <trkpt lat="48.4544" lon="6.67238">
        <ele>280.21</ele>
        <time>2017-04-30T09:05:51Z</time>
      </trkpt>
      <trkpt lat="48.45453" lon="6.67204">
        <ele>279.88</ele>
        <time>2017-04-30T09:06:12Z</time>
      </trkpt>
      <trkpt lat="48.45468" lon="6.67163">
        <ele>279.28</ele>
        <time>2017-04-30T09:06:37Z</time>
      </trkpt>
      <trkpt lat="48.45486" lon="6.67129">
        <ele>278.42</ele>
        <time>2017-04-30T09:07:00Z</time>
      </trkpt>
      <trkpt lat="48.45492" lon="6.67119">
        <ele>278.5</ele>
        <time>2017-04-30T09:07:07Z</time>
      </trkpt>
      <trkpt lat="48.45497" lon="6.67112">
        <ele>278.13</ele>
        <time>2017-04-30T09:07:13Z</time>
      </trkpt>
      <trkpt lat="48.45512" lon="6.6709">
        <ele>277.3</ele>
        <time>2017-04-30T09:07:31Z</time>
      </trkpt>
      <trkpt lat="48.45529" lon="6.67067">
        <ele>276.77</ele>
        <time>2017-04-30T09:07:50Z</time>
      </trkpt>
      <trkpt lat="48.45549" lon="6.67044">
        <ele>276.75</ele>
        <time>2017-04-30T09:08:10Z</time>
      </trkpt>
      <trkpt lat="48.45569" lon="6.67019">
        <ele>275.9</ele>
        <time>2017-04-30T09:08:31Z</time>
      </trkpt>
      <trkpt lat="48.45589" lon="6.66998">
        <ele>275.82</ele>
        <time>2017-04-30T09:08:50Z</time>
      </trkpt>
      <trkpt lat="48.45611" lon="6.66974">
        <ele>275.73</ele>
        <time>2017-04-30T09:09:12Z</time>
      </trkpt>
      <trkpt lat="48.45632" lon="6.66954">
        <ele>275.74</ele>
        <time>2017-04-30T09:09:32Z</time>
      </trkpt>
      <trkpt lat="48.45653" lon="6.66935">
        <ele>276.15</ele>
        <time>2017-04-30T09:09:52Z</time>
      </trkpt>
      <trkpt lat="48.45678" lon="6.6692">
        <ele>275.85</ele>
        <time>2017-04-30T09:10:14Z</time>
      </trkpt>
      <trkpt lat="48.45704" lon="6.66903">
        <ele>276.08</ele>
        <time>2017-04-30T09:10:37Z</time>
      </trkpt>
      <trkpt lat="48.45727" lon="6.66885">
        <ele>275.58</ele>
        <time>2017-04-30T09:10:59Z</time>
      </trkpt>
      <trkpt lat="48.45738" lon="6.66861">
        <ele>276.41</ele>
        <time>2017-04-30T09:11:16Z</time>
      </trkpt>
      <trkpt lat="48.45741" lon="6.66828">
        <ele>277.68</ele>
        <time>2017-04-30T09:11:35Z</time>
      </trkpt>
      <trkpt lat="48.45738" lon="6.66796">
        <ele>278.22</ele>
        <time>2017-04-30T09:11:53Z</time>
      </trkpt>
      <trkpt lat="48.45736" lon="6.66785">
        <ele>278.86</ele>
        <time>2017-04-30T09:12:10Z</time>
      </trkpt>
      <trkpt lat="48.45734" lon="6.66774">
        <ele>278.38</ele>
        <time>2017-04-30T09:12:34Z</time>
      </trkpt>
      <trkpt lat="48.45729" lon="6.6675">
        <ele>278.77</ele>
        <time>2017-04-30T09:12:51Z</time>
      </trkpt>
      <trkpt lat="48.45722" lon="6.66722">
        <ele>279.22</ele>
        <time>2017-04-30T09:13:09Z</time>
      </trkpt>
      <trkpt lat="48.45713" lon="6.66683">
        <ele>279.04</ele>
        <time>2017-04-30T09:13:32Z</time>
      </trkpt>
      <trkpt lat="48.45704" lon="6.66647">
        <ele>279.18</ele>
        <time>2017-04-30T09:13:53Z</time>
      </trkpt>
      <trkpt lat="48.45695" lon="6.66607">
        <ele>278.72</ele>
        <time>2017-04-30T09:14:16Z</time>
      </trkpt>
      <trkpt lat="48.45685" lon="6.66565">
        <ele>279.17</ele>
        <time>2017-04-30T09:14:40Z</time>
      </trkpt>
      <trkpt lat="48.45675" lon="6.66525">
        <ele>279.27</ele>
        <time>2017-04-30T09:15:03Z</time>
      </trkpt>
      <trkpt lat="48.45666" lon="6.66484">
        <ele>279.56</ele>
        <time>2017-04-30T09:15:27Z</time>
      </trkpt>
      <trkpt lat="48.45658" lon="6.66452">
        <ele>279.73</ele>
        <time>2017-04-30T09:15:46Z</time>
      </trkpt>
      <trkpt lat="48.4565" lon="6.66419">
        <ele>279.89</ele>
        <time>2017-04-30T09:16:05Z</time>
      </trkpt>
      <trkpt lat="48.45639" lon="6.66383">
        <ele>280.43</ele>
        <time>2017-04-30T09:16:26Z</time>
      </trkpt>
      <trkpt lat="48.45627" lon="6.66362">
        <ele>280.48</ele>
        <time>2017-04-30T09:16:42Z</time>
      </trkpt>
      <trkpt lat="48.45611" lon="6.66335">
        <ele>280.21</ele>
        <time>2017-04-30T09:17:01Z</time>
      </trkpt>
      <trkpt lat="48.45597" lon="6.66309">
        <ele>280.69</ele>
        <time>2017-04-30T09:17:19Z</time>
      </trkpt>
      <trkpt lat="48.45582" lon="6.66284">
        <ele>281.03</ele>
        <time>2017-04-30T09:17:37Z</time>
      </trkpt>
      <trkpt lat="48.45571" lon="6.66257">
        <ele>281.32</ele>
        <time>2017-04-30T09:17:54Z</time>
      </trkpt>
      <trkpt lat="48.4556" lon="6.66226">
        <ele>281.39</ele>
        <time>2017-04-30T09:18:13Z</time>
      </trkpt>
      <trkpt lat="48.45556" lon="6.66216">
        <ele>282.01</ele>
        <time>2017-04-30T09:18:19Z</time>
      </trkpt>
      <trkpt lat="48.4555" lon="6.66192">
        <ele>282.48</ele>
        <time>2017-04-30T09:18:34Z</time>
      </trkpt>
      <trkpt lat="48.45546" lon="6.66163">
        <ele>283.28</ele>
        <time>2017-04-30T09:18:52Z</time>
      </trkpt>
      <trkpt lat="48.45542" lon="6.66135">
        <ele>283.45</ele>
        <time>2017-04-30T09:19:09Z</time>
      </trkpt>
      <trkpt lat="48.45539" lon="6.66103">
        <ele>284.35</ele>
        <time>2017-04-30T09:19:27Z</time>
      </trkpt>
      <trkpt lat="48.45535" lon="6.66069">
        <ele>284.79</ele>
        <time>2017-04-30T09:19:47Z</time>
      </trkpt>
      <trkpt lat="48.45536" lon="6.66051">
        <ele>284.72</ele>
        <time>2017-04-30T09:20:04Z</time>
      </trkpt>
      <trkpt lat="48.45537" lon="6.66043">
        <ele>285.05</ele>
        <time>2017-04-30T09:20:22Z</time>
      </trkpt>
      <trkpt lat="48.45538" lon="6.66041">
        <ele>285.44</ele>
        <time>2017-04-30T09:20:42Z</time>
      </trkpt>
      <trkpt lat="48.45539" lon="6.66043">
        <ele>284.89</ele>
        <time>2017-04-30T09:21:10Z</time>
      </trkpt>
      <trkpt lat="48.45539" lon="6.66042">
        <ele>284.85</ele>
        <time>2017-04-30T09:21:32Z</time>
      </trkpt>
      <trkpt lat="48.45539" lon="6.66042">
        <ele>284.84</ele>
        <time>2017-04-30T09:22:03Z</time>
      </trkpt>
      <trkpt lat="48.45539" lon="6.66041">
        <ele>284.54</ele>
        <time>2017-04-30T09:22:31Z</time>
      </trkpt>
      <trkpt lat="48.45539" lon="6.66042">
        <ele>285.03</ele>
        <time>2017-04-30T09:23:00Z</time>
      </trkpt>
      <trkpt lat="48.45539" lon="6.66041">
        <ele>284.66</ele>
        <time>2017-04-30T09:23:29Z</time>
      </trkpt>
      <trkpt lat="48.45542" lon="6.66039">
        <ele>284.71</ele>
        <time>2017-04-30T09:23:54Z</time>
      </trkpt>
      <trkpt lat="48.45557" lon="6.66019">
        <ele>286.41</ele>
        <time>2017-04-30T09:24:13Z</time>
      </trkpt>
      <trkpt lat="48.45571" lon="6.66006">
        <ele>287.83</ele>
        <time>2017-04-30T09:24:29Z</time>
      </trkpt>
      <trkpt lat="48.45592" lon="6.65989">
        <ele>290.6</ele>
        <time>2017-04-30T09:24:52Z</time>
      </trkpt>
      <trkpt lat="48.45614" lon="6.65972">
        <ele>292.83</ele>
        <time>2017-04-30T09:25:15Z</time>
      </trkpt>
      <trkpt lat="48.45636" lon="6.65961">
        <ele>295.7</ele>
        <time>2017-04-30T09:25:37Z</time>
      </trkpt>
      <trkpt lat="48.45657" lon="6.65956">
        <ele>298.49</ele>
        <time>2017-04-30T09:25:57Z</time>
      </trkpt>
      <trkpt lat="48.4568" lon="6.65958">
        <ele>300.88</ele>
        <time>2017-04-30T09:26:19Z</time>
      </trkpt>
      <trkpt lat="48.45682" lon="6.65959">
        <ele>300.92</ele>
        <time>2017-04-30T09:26:21Z</time>
      </trkpt>
      <trkpt lat="48.45706" lon="6.65957">
        <ele>304.13</ele>
        <time>2017-04-30T09:26:43Z</time>
      </trkpt>
      <trkpt lat="48.45725" lon="6.65953">
        <ele>306.76</ele>
        <time>2017-04-30T09:27:01Z</time>
      </trkpt>
      <trkpt lat="48.45745" lon="6.65948">
        <ele>309.13</ele>
        <time>2017-04-30T09:27:20Z</time>
      </trkpt>
      <trkpt lat="48.45764" lon="6.65943">
        <ele>311.11</ele>
        <time>2017-04-30T09:27:38Z</time>
      </trkpt>
      <trkpt lat="48.45776" lon="6.65941">
        <ele>312.09</ele>
        <time>2017-04-30T09:27:49Z</time>
      </trkpt>
      <trkpt lat="48.45797" lon="6.65935">
        <ele>314.87</ele>
        <time>2017-04-30T09:28:09Z</time>
      </trkpt>
      <trkpt lat="48.45816" lon="6.65932">
        <ele>316.59</ele>
        <time>2017-04-30T09:28:27Z</time>
      </trkpt>
      <trkpt lat="48.45831" lon="6.65931">
        <ele>317.77</ele>
        <time>2017-04-30T09:28:41Z</time>
      </trkpt>
      <trkpt lat="48.4585" lon="6.65926">
        <ele>319.67</ele>
        <time>2017-04-30T09:29:00Z</time>
      </trkpt>
      <trkpt lat="48.45866" lon="6.65924">
        <ele>320.15</ele>
        <time>2017-04-30T09:29:15Z</time>
      </trkpt>
      <trkpt lat="48.45868" lon="6.65924">
        <ele>320.28</ele>
        <time>2017-04-30T09:29:17Z</time>
      </trkpt>
      <trkpt lat="48.4587" lon="6.65923">
        <ele>320.14</ele>
        <time>2017-04-30T09:29:19Z</time>
      </trkpt>
      <trkpt lat="48.45887" lon="6.65928">
        <ele>321.66</ele>
        <time>2017-04-30T09:29:37Z</time>
      </trkpt>
      <trkpt lat="48.45891" lon="6.65915">
        <ele>324.12</ele>
        <time>2017-04-30T09:29:53Z</time>
      </trkpt>
      <trkpt lat="48.45895" lon="6.65903">
        <ele>327.27</ele>
        <time>2017-04-30T09:30:08Z</time>
      </trkpt>
      <trkpt lat="48.45897" lon="6.6589">
        <ele>328.94</ele>
        <time>2017-04-30T09:30:25Z</time>
      </trkpt>
      <trkpt lat="48.45897" lon="6.6589">
        <ele>327.74</ele>
        <time>2017-04-30T09:30:44Z</time>
      </trkpt>
      <trkpt lat="48.45898" lon="6.65889">
        <ele>328.79</ele>
        <time>2017-04-30T09:31:13Z</time>
      </trkpt>
      <trkpt lat="48.45896" lon="6.65884">
        <ele>329.55</ele>
        <time>2017-04-30T09:31:31Z</time>
      </trkpt>
      <trkpt lat="48.45896" lon="6.65883">
        <ele>329.42</ele>
        <time>2017-04-30T09:31:54Z</time>
      </trkpt>
      <trkpt lat="48.45896" lon="6.65881">
        <ele>329.76</ele>
        <time>2017-04-30T09:32:42Z</time>
      </trkpt>
      <trkpt lat="48.45896" lon="6.6588">
        <ele>329.84</ele>
        <time>2017-04-30T09:33:22Z</time>
      </trkpt>
      <trkpt lat="48.45896" lon="6.65882">
        <ele>330.01</ele>
        <time>2017-04-30T09:33:58Z</time>
      </trkpt>
      <trkpt lat="48.45897" lon="6.65882">
        <ele>329.75</ele>
        <time>2017-04-30T09:34:33Z</time>
      </trkpt>
      <trkpt lat="48.45898" lon="6.65882">
        <ele>328.84</ele>
        <time>2017-04-30T09:35:11Z</time>
      </trkpt>
      <trkpt lat="48.45896" lon="6.65881">
        <ele>328.66</ele>
        <time>2017-04-30T09:35:45Z</time>
      </trkpt>
      <trkpt lat="48.45897" lon="6.65877">
        <ele>328.21</ele>
        <time>2017-04-30T09:36:31Z</time>
      </trkpt>
      <trkpt lat="48.45896" lon="6.65876">
        <ele>328.12</ele>
        <time>2017-04-30T09:37:16Z</time>
      </trkpt>
      <trkpt lat="48.45895" lon="6.65878">
        <ele>328.71</ele>
        <time>2017-04-30T09:38:01Z</time>
      </trkpt>
      <trkpt lat="48.45895" lon="6.65879">
        <ele>328.33</ele>
        <time>2017-04-30T09:38:41Z</time>
      </trkpt>
      <trkpt lat="48.45893" lon="6.65881">
        <ele>328.49</ele>
        <time>2017-04-30T09:39:11Z</time>
      </trkpt>
      <trkpt lat="48.45895" lon="6.65883">
        <ele>328.76</ele>
        <time>2017-04-30T09:39:40Z</time>
      </trkpt>
      <trkpt lat="48.45895" lon="6.65885">
        <ele>328.53</ele>
        <time>2017-04-30T09:40:05Z</time>
      </trkpt>
      <trkpt lat="48.45894" lon="6.6589">
        <ele>327.65</ele>
        <time>2017-04-30T09:40:24Z</time>
      </trkpt>
      <trkpt lat="48.45895" lon="6.65888">
        <ele>327.2</ele>
        <time>2017-04-30T09:41:03Z</time>
      </trkpt>
      <trkpt lat="48.45895" lon="6.6589">
        <ele>327.24</ele>
        <time>2017-04-30T09:41:38Z</time>
      </trkpt>
      <trkpt lat="48.45895" lon="6.65889">
        <ele>327.43</ele>
        <time>2017-04-30T09:42:35Z</time>
      </trkpt>
      <trkpt lat="48.45895" lon="6.6589">
        <ele>327.53</ele>
        <time>2017-04-30T09:43:28Z</time>
      </trkpt>
      <trkpt lat="48.45895" lon="6.6589">
        <ele>327.64</ele>
        <time>2017-04-30T09:44:25Z</time>
      </trkpt>
      <trkpt lat="48.45895" lon="6.65889">
        <ele>327.64</ele>
        <time>2017-04-30T09:45:21Z</time>
      </trkpt>
      <trkpt lat="48.45895" lon="6.65889">
        <ele>327.88</ele>
        <time>2017-04-30T09:46:20Z</time>
      </trkpt>
      <trkpt lat="48.45894" lon="6.6589">
        <ele>328.34</ele>
        <time>2017-04-30T09:46:39Z</time>
      </trkpt>
      <trkpt lat="48.45895" lon="6.6589">
        <ele>327.78</ele>
        <time>2017-04-30T09:47:01Z</time>
      </trkpt>
      <trkpt lat="48.45896" lon="6.65889">
        <ele>327.79</ele>
        <time>2017-04-30T09:47:49Z</time>
      </trkpt>
      <trkpt lat="48.45896" lon="6.6589">
        <ele>326.85</ele>
        <time>2017-04-30T09:48:44Z</time>
      </trkpt>
      <trkpt lat="48.45897" lon="6.65889">
        <ele>327.21</ele>
        <time>2017-04-30T09:49:14Z</time>
      </trkpt>
      <trkpt lat="48.45897" lon="6.6589">
        <ele>327.54</ele>
        <time>2017-04-30T09:49:45Z</time>
      </trkpt>
      <trkpt lat="48.45897" lon="6.6589">
        <ele>327.54</ele>
        <time>2017-04-30T09:50:13Z</time>
      </trkpt>
      <trkpt lat="48.45897" lon="6.65891">
        <ele>327.54</ele>
        <time>2017-04-30T09:50:50Z</time>
      </trkpt>
      <trkpt lat="48.45898" lon="6.65892">
        <ele>327.58</ele>
        <time>2017-04-30T09:51:34Z</time>
      </trkpt>
      <trkpt lat="48.45898" lon="6.65891">
        <ele>327.49</ele>
        <time>2017-04-30T09:52:20Z</time>
      </trkpt>
      <trkpt lat="48.45897" lon="6.65891">
        <ele>327.35</ele>
        <time>2017-04-30T09:53:04Z</time>
      </trkpt>
      <trkpt lat="48.45897" lon="6.65889">
        <ele>327.83</ele>
        <time>2017-04-30T09:53:54Z</time>
      </trkpt>
      <trkpt lat="48.45897" lon="6.65891">
        <ele>328.04</ele>
        <time>2017-04-30T09:54:48Z</time>
      </trkpt>
      <trkpt lat="48.45896" lon="6.65892">
        <ele>327.69</ele>
        <time>2017-04-30T09:55:37Z</time>
      </trkpt>
      <trkpt lat="48.45895" lon="6.65891">
        <ele>328.38</ele>
        <time>2017-04-30T09:56:22Z</time>
      </trkpt>
      <trkpt lat="48.45896" lon="6.65891">
        <ele>329.15</ele>
        <time>2017-04-30T09:57:07Z</time>
      </trkpt>
      <trkpt lat="48.45895" lon="6.65892">
        <ele>328.12</ele>
        <time>2017-04-30T09:58:00Z</time>
      </trkpt>
      <trkpt lat="48.45896" lon="6.65891">
        <ele>328.87</ele>
        <time>2017-04-30T09:58:42Z</time>
      </trkpt>
      <trkpt lat="48.45896" lon="6.6589">
        <ele>328.8</ele>
        <time>2017-04-30T09:59:16Z</time>
      </trkpt>
      <trkpt lat="48.45896" lon="6.6589">
        <ele>328.58</ele>
        <time>2017-04-30T09:59:57Z</time>
      </trkpt>
      <trkpt lat="48.45897" lon="6.65889">
        <ele>328.56</ele>
        <time>2017-04-30T10:00:42Z</time>
      </trkpt>
      <trkpt lat="48.45896" lon="6.65887">
        <ele>327.84</ele>
        <time>2017-04-30T10:01:25Z</time>
      </trkpt>
      <trkpt lat="48.45894" lon="6.65889">
        <ele>327.54</ele>
        <time>2017-04-30T10:02:12Z</time>
      </trkpt>
      <trkpt lat="48.45895" lon="6.65889">
        <ele>327.38</ele>
        <time>2017-04-30T10:02:57Z</time>
      </trkpt>
      <trkpt lat="48.45896" lon="6.65889">
        <ele>327.36</ele>
        <time>2017-04-30T10:03:43Z</time>
      </trkpt>
      <trkpt lat="48.45896" lon="6.6589">
        <ele>327.05</ele>
        <time>2017-04-30T10:04:37Z</time>
      </trkpt>
      <trkpt lat="48.45898" lon="6.65889">
        <ele>327.21</ele>
        <time>2017-04-30T10:05:29Z</time>
      </trkpt>
      <trkpt lat="48.45897" lon="6.65888">
        <ele>327.01</ele>
        <time>2017-04-30T10:06:21Z</time>
      </trkpt>
      <trkpt lat="48.45897" lon="6.65889">
        <ele>327.11</ele>
        <time>2017-04-30T10:07:14Z</time>
      </trkpt>
      <trkpt lat="48.45897" lon="6.65889">
        <ele>327.61</ele>
        <time>2017-04-30T10:08:05Z</time>
      </trkpt>
      <trkpt lat="48.45896" lon="6.6589">
        <ele>326.97</ele>
        <time>2017-04-30T10:08:55Z</time>
      </trkpt>
      <trkpt lat="48.45895" lon="6.65891">
        <ele>327.18</ele>
        <time>2017-04-30T10:09:59Z</time>
      </trkpt>
      <trkpt lat="48.45896" lon="6.65889">
        <ele>327.15</ele>
        <time>2017-04-30T10:10:58Z</time>
      </trkpt>
      <trkpt lat="48.45896" lon="6.65889">
        <ele>326.63</ele>
        <time>2017-04-30T10:11:53Z</time>
      </trkpt>
      <trkpt lat="48.45896" lon="6.65889">
        <ele>327.19</ele>
        <time>2017-04-30T10:12:36Z</time>
      </trkpt>
      <trkpt lat="48.45896" lon="6.6589">
        <ele>327.41</ele>
        <time>2017-04-30T10:13:09Z</time>
      </trkpt>
      <trkpt lat="48.45895" lon="6.65891">
        <ele>326.8</ele>
        <time>2017-04-30T10:13:50Z</time>
      </trkpt>
      <trkpt lat="48.45894" lon="6.6589">
        <ele>327.25</ele>
        <time>2017-04-30T10:14:41Z</time>
      </trkpt>
      <trkpt lat="48.45894" lon="6.65891">
        <ele>326.54</ele>
        <time>2017-04-30T10:15:36Z</time>
      </trkpt>
      <trkpt lat="48.45895" lon="6.65891">
        <ele>326.82</ele>
        <time>2017-04-30T10:16:33Z</time>
      </trkpt>
      <trkpt lat="48.45896" lon="6.65891">
        <ele>326.37</ele>
        <time>2017-04-30T10:17:21Z</time>
      </trkpt>
      <trkpt lat="48.45896" lon="6.65892">
        <ele>326.13</ele>
        <time>2017-04-30T10:18:09Z</time>
      </trkpt>
      <trkpt lat="48.45896" lon="6.65891">
        <ele>326.46</ele>
        <time>2017-04-30T10:18:55Z</time>
      </trkpt>
      <trkpt lat="48.45895" lon="6.65891">
        <ele>326.22</ele>
        <time>2017-04-30T10:19:43Z</time>
      </trkpt>
      <trkpt lat="48.45895" lon="6.65892">
        <ele>326.41</ele>
        <time>2017-04-30T10:20:35Z</time>
      </trkpt>
      <trkpt lat="48.45894" lon="6.65891">
        <ele>326.2</ele>
        <time>2017-04-30T10:21:25Z</time>
      </trkpt>
      <trkpt lat="48.45894" lon="6.65892">
        <ele>326.68</ele>
        <time>2017-04-30T10:22:13Z</time>
      </trkpt>
      <trkpt lat="48.45894" lon="6.65892">
        <ele>326.32</ele>
        <time>2017-04-30T10:23:09Z</time>
      </trkpt>
      <trkpt lat="48.45894" lon="6.65892">
        <ele>326.7</ele>
        <time>2017-04-30T10:23:57Z</time>
      </trkpt>
      <trkpt lat="48.45893" lon="6.65889">
        <ele>326.5</ele>
        <time>2017-04-30T10:24:51Z</time>
      </trkpt>
      <trkpt lat="48.45895" lon="6.65889">
        <ele>326.78</ele>
        <time>2017-04-30T10:25:44Z</time>
      </trkpt>
      <trkpt lat="48.45895" lon="6.65887">
        <ele>325.82</ele>
        <time>2017-04-30T10:26:34Z</time>
      </trkpt>
      <trkpt lat="48.45895" lon="6.65887">
        <ele>325.94</ele>
        <time>2017-04-30T10:27:25Z</time>
      </trkpt>
      <trkpt lat="48.45895" lon="6.65889">
        <ele>326.09</ele>
        <time>2017-04-30T10:28:10Z</time>
      </trkpt>
      <trkpt lat="48.45895" lon="6.65888">
        <ele>325.85</ele>
        <time>2017-04-30T10:28:59Z</time>
      </trkpt>
      <trkpt lat="48.45895" lon="6.65888">
        <ele>325.81</ele>
        <time>2017-04-30T10:29:45Z</time>
      </trkpt>
      <trkpt lat="48.45896" lon="6.6589">
        <ele>325.99</ele>
        <time>2017-04-30T10:30:40Z</time>
      </trkpt>
      <trkpt lat="48.45896" lon="6.65888">
        <ele>326.57</ele>
        <time>2017-04-30T10:31:31Z</time>
      </trkpt>
      <trkpt lat="48.45896" lon="6.65888">
        <ele>326.07</ele>
        <time>2017-04-30T10:32:17Z</time>
      </trkpt>
      <trkpt lat="48.45896" lon="6.65889">
        <ele>325.42</ele>
        <time>2017-04-30T10:33:03Z</time>
      </trkpt>
      <trkpt lat="48.45896" lon="6.6589">
        <ele>325.89</ele>
        <time>2017-04-30T10:33:51Z</time>
      </trkpt>
      <trkpt lat="48.45896" lon="6.65892">
        <ele>326.46</ele>
        <time>2017-04-30T10:34:42Z</time>
      </trkpt>
      <trkpt lat="48.45895" lon="6.65891">
        <ele>326.08</ele>
        <time>2017-04-30T10:35:27Z</time>
      </trkpt>
      <trkpt lat="48.45895" lon="6.65889">
        <ele>326.41</ele>
        <time>2017-04-30T10:36:16Z</time>
      </trkpt>
      <trkpt lat="48.45895" lon="6.6589">
        <ele>326.45</ele>
        <time>2017-04-30T10:37:07Z</time>
      </trkpt>
      <trkpt lat="48.45896" lon="6.6589">
        <ele>326.54</ele>
        <time>2017-04-30T10:37:53Z</time>
      </trkpt>
      <trkpt lat="48.45895" lon="6.65891">
        <ele>326.86</ele>
        <time>2017-04-30T10:38:49Z</time>
      </trkpt>
      <trkpt lat="48.45895" lon="6.65891">
        <ele>327.4</ele>
        <time>2017-04-30T10:39:44Z</time>
      </trkpt>
      <trkpt lat="48.45895" lon="6.65891">
        <ele>327.64</ele>
        <time>2017-04-30T10:40:39Z</time>
      </trkpt>
      <trkpt lat="48.45895" lon="6.65891">
        <ele>327.6</ele>
        <time>2017-04-30T10:41:28Z</time>
      </trkpt>
      <trkpt lat="48.45894" lon="6.65892">
        <ele>327.67</ele>
        <time>2017-04-30T10:42:26Z</time>
      </trkpt>
      <trkpt lat="48.45895" lon="6.65891">
        <ele>328.31</ele>
        <time>2017-04-30T10:43:13Z</time>
      </trkpt>
      <trkpt lat="48.45895" lon="6.65891">
        <ele>328.27</ele>
        <time>2017-04-30T10:43:52Z</time>
      </trkpt>
      <trkpt lat="48.45895" lon="6.65892">
        <ele>327.97</ele>
        <time>2017-04-30T10:44:49Z</time>
      </trkpt>
      <trkpt lat="48.45894" lon="6.65892">
        <ele>327.72</ele>
        <time>2017-04-30T10:45:44Z</time>
      </trkpt>
      <trkpt lat="48.45893" lon="6.6589">
        <ele>327.74</ele>
        <time>2017-04-30T10:46:41Z</time>
      </trkpt>
      <trkpt lat="48.45892" lon="6.65888">
        <ele>328.45</ele>
        <time>2017-04-30T10:47:11Z</time>
      </trkpt>
      <trkpt lat="48.45892" lon="6.65891">
        <ele>327.34</ele>
        <time>2017-04-30T10:47:44Z</time>
      </trkpt>
      <trkpt lat="48.45892" lon="6.6589">
        <ele>328.27</ele>
        <time>2017-04-30T10:48:04Z</time>
      </trkpt>
      <trkpt lat="48.45893" lon="6.65887">
        <ele>327.59</ele>
        <time>2017-04-30T10:49:01Z</time>
      </trkpt>
      <trkpt lat="48.45894" lon="6.65883">
        <ele>326.64</ele>
        <time>2017-04-30T10:50:03Z</time>
      </trkpt>
      <trkpt lat="48.45891" lon="6.65886">
        <ele>327.17</ele>
        <time>2017-04-30T10:50:45Z</time>
      </trkpt>
      <trkpt lat="48.45893" lon="6.65891">
        <ele>327.04</ele>
        <time>2017-04-30T10:51:08Z</time>
      </trkpt>
      <trkpt lat="48.45894" lon="6.65892">
        <ele>327.14</ele>
        <time>2017-04-30T10:51:27Z</time>
      </trkpt>
      <trkpt lat="48.45896" lon="6.65893">
        <ele>327.1</ele>
        <time>2017-04-30T10:51:43Z</time>
      </trkpt>
      <trkpt lat="48.45897" lon="6.65894">
        <ele>326.82</ele>
        <time>2017-04-30T10:52:15Z</time>
      </trkpt>
      <trkpt lat="48.45896" lon="6.65894">
        <ele>326.33</ele>
        <time>2017-04-30T10:53:03Z</time>
      </trkpt>
      <trkpt lat="48.45898" lon="6.65894">
        <ele>326.64</ele>
        <time>2017-04-30T10:53:26Z</time>
      </trkpt>
      <trkpt lat="48.45897" lon="6.65895">
        <ele>326.09</ele>
        <time>2017-04-30T10:53:43Z</time>
      </trkpt>
      <trkpt lat="48.45896" lon="6.65897">
        <ele>326.19</ele>
        <time>2017-04-30T10:54:01Z</time>
      </trkpt>
      <trkpt lat="48.45897" lon="6.65897">
        <ele>326</ele>
        <time>2017-04-30T10:54:21Z</time>
      </trkpt>
      <trkpt lat="48.45898" lon="6.65895">
        <ele>325.67</ele>
        <time>2017-04-30T10:54:42Z</time>
      </trkpt>
      <trkpt lat="48.45896" lon="6.65896">
        <ele>326.09</ele>
        <time>2017-04-30T10:55:03Z</time>
      </trkpt>
      <trkpt lat="48.45895" lon="6.65897">
        <ele>325.94</ele>
        <time>2017-04-30T10:55:27Z</time>
      </trkpt>
      <trkpt lat="48.45893" lon="6.6591">
        <ele>323.77</ele>
        <time>2017-04-30T10:55:42Z</time>
      </trkpt>
      <trkpt lat="48.45892" lon="6.65915">
        <ele>322.2</ele>
        <time>2017-04-30T10:55:57Z</time>
      </trkpt>
      <trkpt lat="48.45886" lon="6.65929">
        <ele>318.83</ele>
        <time>2017-04-30T10:56:14Z</time>
      </trkpt>
      <trkpt lat="48.45896" lon="6.6594">
        <ele>319.05</ele>
        <time>2017-04-30T10:56:27Z</time>
      </trkpt>
      <trkpt lat="48.45912" lon="6.65941">
        <ele>320.32</ele>
        <time>2017-04-30T10:56:42Z</time>
      </trkpt>
      <trkpt lat="48.45924" lon="6.65939">
        <ele>320.63</ele>
        <time>2017-04-30T10:56:54Z</time>
      </trkpt>
      <trkpt lat="48.45926" lon="6.6594">
        <ele>320.97</ele>
        <time>2017-04-30T10:56:56Z</time>
      </trkpt>
      <trkpt lat="48.4593" lon="6.65941">
        <ele>321.07</ele>
        <time>2017-04-30T10:57:05Z</time>
      </trkpt>
      <trkpt lat="48.45936" lon="6.6594">
        <ele>320.31</ele>
        <time>2017-04-30T10:57:11Z</time>
      </trkpt>
      <trkpt lat="48.45939" lon="6.65939">
        <ele>320.26</ele>
        <time>2017-04-30T10:57:14Z</time>
      </trkpt>
      <trkpt lat="48.45947" lon="6.65941">
        <ele>319.75</ele>
        <time>2017-04-30T10:57:22Z</time>
      </trkpt>
      <trkpt lat="48.45962" lon="6.65952">
        <ele>317.95</ele>
        <time>2017-04-30T10:57:39Z</time>
      </trkpt>
      <trkpt lat="48.45978" lon="6.65966">
        <ele>316.49</ele>
        <time>2017-04-30T10:57:54Z</time>
      </trkpt>
      <trkpt lat="48.45999" lon="6.65968">
        <ele>313.95</ele>
        <time>2017-04-30T10:58:12Z</time>
      </trkpt>
      <trkpt lat="48.46024" lon="6.65964">
        <ele>311.31</ele>
        <time>2017-04-30T10:58:34Z</time>
      </trkpt>
      <trkpt lat="48.46047" lon="6.65963">
        <ele>308.87</ele>
        <time>2017-04-30T10:58:54Z</time>
      </trkpt>
      <trkpt lat="48.4607" lon="6.65962">
        <ele>307.11</ele>
        <time>2017-04-30T10:59:13Z</time>
      </trkpt>
      <trkpt lat="48.46091" lon="6.65961">
        <ele>304.5</ele>
        <time>2017-04-30T10:59:31Z</time>
      </trkpt>
      <trkpt lat="48.4611" lon="6.65961">
        <ele>302.14</ele>
        <time>2017-04-30T10:59:48Z</time>
      </trkpt>
      <trkpt lat="48.46131" lon="6.6596">
        <ele>298.99</ele>
        <time>2017-04-30T11:00:07Z</time>
      </trkpt>
      <trkpt lat="48.46132" lon="6.65961">
        <ele>299.43</ele>
        <time>2017-04-30T11:00:08Z</time>
      </trkpt>
      <trkpt lat="48.4615" lon="6.65959">
        <ele>296.96</ele>
        <time>2017-04-30T11:00:25Z</time>
      </trkpt>
      <trkpt lat="48.46171" lon="6.6596">
        <ele>294.57</ele>
        <time>2017-04-30T11:00:44Z</time>
      </trkpt>
      <trkpt lat="48.4619" lon="6.65962">
        <ele>294.03</ele>
        <time>2017-04-30T11:01:01Z</time>
      </trkpt>
      <trkpt lat="48.4621" lon="6.65974">
        <ele>292.87</ele>
        <time>2017-04-30T11:01:19Z</time>
      </trkpt>
      <trkpt lat="48.46235" lon="6.65969">
        <ele>292.09</ele>
        <time>2017-04-30T11:01:40Z</time>
      </trkpt>
      <trkpt lat="48.46259" lon="6.65962">
        <ele>291.46</ele>
        <time>2017-04-30T11:02:01Z</time>
      </trkpt>
      <trkpt lat="48.46276" lon="6.65981">
        <ele>289.77</ele>
        <time>2017-04-30T11:02:18Z</time>
      </trkpt>
      <trkpt lat="48.46285" lon="6.66005">
        <ele>289.93</ele>
        <time>2017-04-30T11:02:33Z</time>
      </trkpt>
      <trkpt lat="48.46296" lon="6.66039">
        <ele>289.05</ele>
        <time>2017-04-30T11:02:53Z</time>
      </trkpt>
      <trkpt lat="48.46312" lon="6.66083">
        <ele>288.36</ele>
        <time>2017-04-30T11:03:20Z</time>
      </trkpt>
      <trkpt lat="48.46323" lon="6.66117">
        <ele>288.46</ele>
        <time>2017-04-30T11:03:40Z</time>
      </trkpt>
      <trkpt lat="48.46336" lon="6.66159">
        <ele>288.45</ele>
        <time>2017-04-30T11:04:04Z</time>
      </trkpt>
      <trkpt lat="48.46348" lon="6.66197">
        <ele>288.54</ele>
        <time>2017-04-30T11:04:26Z</time>
      </trkpt>
      <trkpt lat="48.46361" lon="6.66231">
        <ele>288.77</ele>
        <time>2017-04-30T11:04:46Z</time>
      </trkpt>
      <trkpt lat="48.46371" lon="6.66251">
        <ele>289.17</ele>
        <time>2017-04-30T11:04:59Z</time>
      </trkpt>
      <trkpt lat="48.46386" lon="6.66281">
        <ele>289.81</ele>
        <time>2017-04-30T11:05:19Z</time>
      </trkpt>
      <trkpt lat="48.46401" lon="6.66315">
        <ele>289.74</ele>
        <time>2017-04-30T11:05:41Z</time>
      </trkpt>
      <trkpt lat="48.46418" lon="6.66349">
        <ele>289.84</ele>
        <time>2017-04-30T11:06:03Z</time>
      </trkpt>
      <trkpt lat="48.46438" lon="6.66387">
        <ele>289.61</ele>
        <time>2017-04-30T11:06:27Z</time>
      </trkpt>
      <trkpt lat="48.46452" lon="6.66414">
        <ele>289.9</ele>
        <time>2017-04-30T11:06:45Z</time>
      </trkpt>
      <trkpt lat="48.46469" lon="6.66444">
        <ele>289.14</ele>
        <time>2017-04-30T11:07:04Z</time>
      </trkpt>
      <trkpt lat="48.46488" lon="6.66484">
        <ele>289.37</ele>
        <time>2017-04-30T11:07:29Z</time>
      </trkpt>
      <trkpt lat="48.46503" lon="6.66515">
        <ele>288.69</ele>
        <time>2017-04-30T11:07:49Z</time>
      </trkpt>
      <trkpt lat="48.46513" lon="6.66546">
        <ele>288.13</ele>
        <time>2017-04-30T11:08:07Z</time>
      </trkpt>
      <trkpt lat="48.46515" lon="6.6655">
        <ele>288.44</ele>
        <time>2017-04-30T11:08:10Z</time>
      </trkpt>
      <trkpt lat="48.46516" lon="6.66552">
        <ele>288.5</ele>
        <time>2017-04-30T11:08:12Z</time>
      </trkpt>
      <trkpt lat="48.46528" lon="6.66583">
        <ele>288.81</ele>
        <time>2017-04-30T11:08:30Z</time>
      </trkpt>
      <trkpt lat="48.46536" lon="6.66611">
        <ele>288.69</ele>
        <time>2017-04-30T11:08:46Z</time>
      </trkpt>
      <trkpt lat="48.46545" lon="6.66636">
        <ele>288.23</ele>
        <time>2017-04-30T11:09:00Z</time>
      </trkpt>
      <trkpt lat="48.46548" lon="6.6665">
        <ele>288.36</ele>
        <time>2017-04-30T11:09:08Z</time>
      </trkpt>
      <trkpt lat="48.46558" lon="6.66685">
        <ele>289.75</ele>
        <time>2017-04-30T11:09:28Z</time>
      </trkpt>
      <trkpt lat="48.46566" lon="6.66717">
        <ele>289.78</ele>
        <time>2017-04-30T11:09:44Z</time>
      </trkpt>
      <trkpt lat="48.46568" lon="6.66723">
        <ele>290.16</ele>
        <time>2017-04-30T11:09:47Z</time>
      </trkpt>
      <trkpt lat="48.46569" lon="6.66726">
        <ele>290.52</ele>
        <time>2017-04-30T11:09:49Z</time>
      </trkpt>
      <trkpt lat="48.46571" lon="6.66739">
        <ele>290.36</ele>
        <time>2017-04-30T11:09:56Z</time>
      </trkpt>
      <trkpt lat="48.46573" lon="6.66754">
        <ele>290.17</ele>
        <time>2017-04-30T11:10:04Z</time>
      </trkpt>
      <trkpt lat="48.46587" lon="6.66793">
        <ele>290.27</ele>
        <time>2017-04-30T11:10:25Z</time>
      </trkpt>
      <trkpt lat="48.46599" lon="6.6683">
        <ele>291.01</ele>
        <time>2017-04-30T11:10:45Z</time>
      </trkpt>
      <trkpt lat="48.4661" lon="6.66874">
        <ele>291.29</ele>
        <time>2017-04-30T11:11:08Z</time>
      </trkpt>
      <trkpt lat="48.46619" lon="6.66901">
        <ele>293.13</ele>
        <time>2017-04-30T11:11:23Z</time>
      </trkpt>
      <trkpt lat="48.46632" lon="6.66934">
        <ele>293.13</ele>
        <time>2017-04-30T11:11:41Z</time>
      </trkpt>
      <trkpt lat="48.46639" lon="6.66964">
        <ele>293.8</ele>
        <time>2017-04-30T11:11:58Z</time>
      </trkpt>
      <trkpt lat="48.46647" lon="6.66993">
        <ele>295.13</ele>
        <time>2017-04-30T11:12:14Z</time>
      </trkpt>
      <trkpt lat="48.46662" lon="6.67031">
        <ele>295.72</ele>
        <time>2017-04-30T11:12:36Z</time>
      </trkpt>
      <trkpt lat="48.46677" lon="6.67058">
        <ele>296.77</ele>
        <time>2017-04-30T11:12:54Z</time>
      </trkpt>
      <trkpt lat="48.46688" lon="6.67084">
        <ele>296.81</ele>
        <time>2017-04-30T11:13:10Z</time>
      </trkpt>
      <trkpt lat="48.46691" lon="6.67091">
        <ele>296.25</ele>
        <time>2017-04-30T11:13:14Z</time>
      </trkpt>
      <trkpt lat="48.46697" lon="6.67104">
        <ele>296.82</ele>
        <time>2017-04-30T11:13:22Z</time>
      </trkpt>
      <trkpt lat="48.46711" lon="6.67144">
        <ele>296.07</ele>
        <time>2017-04-30T11:13:44Z</time>
      </trkpt>
      <trkpt lat="48.46722" lon="6.67186">
        <ele>294.98</ele>
        <time>2017-04-30T11:14:06Z</time>
      </trkpt>
      <trkpt lat="48.46732" lon="6.6723">
        <ele>293.09</ele>
        <time>2017-04-30T11:14:29Z</time>
      </trkpt>
      <trkpt lat="48.46744" lon="6.6727">
        <ele>291.85</ele>
        <time>2017-04-30T11:14:51Z</time>
      </trkpt>
      <trkpt lat="48.46757" lon="6.67302">
        <ele>290.11</ele>
        <time>2017-04-30T11:15:10Z</time>
      </trkpt>
      <trkpt lat="48.4677" lon="6.67326">
        <ele>288.27</ele>
        <time>2017-04-30T11:15:26Z</time>
      </trkpt>
      <trkpt lat="48.46791" lon="6.67351">
        <ele>286.75</ele>
        <time>2017-04-30T11:15:46Z</time>
      </trkpt>
      <trkpt lat="48.46813" lon="6.67381">
        <ele>286.75</ele>
        <time>2017-04-30T11:16:07Z</time>
      </trkpt>
      <trkpt lat="48.46825" lon="6.67413">
        <ele>286.49</ele>
        <time>2017-04-30T11:16:25Z</time>
      </trkpt>
      <trkpt lat="48.46835" lon="6.67444">
        <ele>287.03</ele>
        <time>2017-04-30T11:16:42Z</time>
      </trkpt>
      <trkpt lat="48.46845" lon="6.6747">
        <ele>287.93</ele>
        <time>2017-04-30T11:16:57Z</time>
      </trkpt>
      <trkpt lat="48.46854" lon="6.67495">
        <ele>288.66</ele>
        <time>2017-04-30T11:17:11Z</time>
      </trkpt>
      <trkpt lat="48.46867" lon="6.67531">
        <ele>287.87</ele>
        <time>2017-04-30T11:17:31Z</time>
      </trkpt>
      <trkpt lat="48.46879" lon="6.67566">
        <ele>287.21</ele>
        <time>2017-04-30T11:17:50Z</time>
      </trkpt>
      <trkpt lat="48.46889" lon="6.67595">
        <ele>285.67</ele>
        <time>2017-04-30T11:18:07Z</time>
      </trkpt>
      <trkpt lat="48.4689" lon="6.67599">
        <ele>285.16</ele>
        <time>2017-04-30T11:18:09Z</time>
      </trkpt>
      <trkpt lat="48.46896" lon="6.67634">
        <ele>284.44</ele>
        <time>2017-04-30T11:18:27Z</time>
      </trkpt>
      <trkpt lat="48.46901" lon="6.67676">
        <ele>282.6</ele>
        <time>2017-04-30T11:18:48Z</time>
      </trkpt>
      <trkpt lat="48.46911" lon="6.67717">
        <ele>280.41</ele>
        <time>2017-04-30T11:19:09Z</time>
      </trkpt>
      <trkpt lat="48.46925" lon="6.67758">
        <ele>277.92</ele>
        <time>2017-04-30T11:19:32Z</time>
      </trkpt>
      <trkpt lat="48.46937" lon="6.67796">
        <ele>275.3</ele>
        <time>2017-04-30T11:19:52Z</time>
      </trkpt>
      <trkpt lat="48.46948" lon="6.67829">
        <ele>273.53</ele>
        <time>2017-04-30T11:20:10Z</time>
      </trkpt>
      <trkpt lat="48.46961" lon="6.67867">
        <ele>272.53</ele>
        <time>2017-04-30T11:20:31Z</time>
      </trkpt>
      <trkpt lat="48.46976" lon="6.67909">
        <ele>271.44</ele>
        <time>2017-04-30T11:20:54Z</time>
      </trkpt>
      <trkpt lat="48.46985" lon="6.67942">
        <ele>270.94</ele>
        <time>2017-04-30T11:21:12Z</time>
      </trkpt>
      <trkpt lat="48.4699" lon="6.67959">
        <ele>270.69</ele>
        <time>2017-04-30T11:21:22Z</time>
      </trkpt>
      <trkpt lat="48.46994" lon="6.67971">
        <ele>270.79</ele>
        <time>2017-04-30T11:21:29Z</time>
      </trkpt>
      <trkpt lat="48.47004" lon="6.68011">
        <ele>270.79</ele>
        <time>2017-04-30T11:21:51Z</time>
      </trkpt>
      <trkpt lat="48.47005" lon="6.68018">
        <ele>270.96</ele>
        <time>2017-04-30T11:21:55Z</time>
      </trkpt>
      <trkpt lat="48.47011" lon="6.68052">
        <ele>271.03</ele>
        <time>2017-04-30T11:22:15Z</time>
      </trkpt>
      <trkpt lat="48.47017" lon="6.68084">
        <ele>269.63</ele>
        <time>2017-04-30T11:22:33Z</time>
      </trkpt>
      <trkpt lat="48.47018" lon="6.68095">
        <ele>270.17</ele>
        <time>2017-04-30T11:22:39Z</time>
      </trkpt>
      <trkpt lat="48.47022" lon="6.68132">
        <ele>270</ele>
        <time>2017-04-30T11:22:58Z</time>
      </trkpt>
      <trkpt lat="48.47029" lon="6.68178">
        <ele>269.45</ele>
        <time>2017-04-30T11:23:22Z</time>
      </trkpt>
      <trkpt lat="48.47037" lon="6.68221">
        <ele>269.96</ele>
        <time>2017-04-30T11:23:45Z</time>
      </trkpt>
      <trkpt lat="48.47044" lon="6.68264">
        <ele>270.06</ele>
        <time>2017-04-30T11:24:08Z</time>
      </trkpt>
      <trkpt lat="48.47052" lon="6.68302">
        <ele>269.6</ele>
        <time>2017-04-30T11:24:28Z</time>
      </trkpt>
      <trkpt lat="48.47059" lon="6.68325">
        <ele>269.64</ele>
        <time>2017-04-30T11:24:45Z</time>
      </trkpt>
      <trkpt lat="48.47059" lon="6.68329">
        <ele>269.5</ele>
        <time>2017-04-30T11:25:01Z</time>
      </trkpt>
      <trkpt lat="48.47059" lon="6.68325">
        <ele>269.69</ele>
        <time>2017-04-30T11:25:15Z</time>
      </trkpt>
      <trkpt lat="48.4706" lon="6.68334">
        <ele>269.39</ele>
        <time>2017-04-30T11:25:33Z</time>
      </trkpt>
      <trkpt lat="48.47066" lon="6.68344">
        <ele>270.24</ele>
        <time>2017-04-30T11:25:50Z</time>
      </trkpt>
      <trkpt lat="48.47067" lon="6.68346">
        <ele>270.31</ele>
        <time>2017-04-30T11:25:52Z</time>
      </trkpt>
      <trkpt lat="48.47078" lon="6.68369">
        <ele>270</ele>
        <time>2017-04-30T11:26:10Z</time>
      </trkpt>
      <trkpt lat="48.47093" lon="6.68403">
        <ele>270.06</ele>
        <time>2017-04-30T11:26:33Z</time>
      </trkpt>
      <trkpt lat="48.47109" lon="6.6844">
        <ele>270.11</ele>
        <time>2017-04-30T11:26:58Z</time>
      </trkpt>
      <trkpt lat="48.47123" lon="6.68467">
        <ele>269.59</ele>
        <time>2017-04-30T11:27:18Z</time>
      </trkpt>
      <trkpt lat="48.47139" lon="6.68493">
        <ele>268.6</ele>
        <time>2017-04-30T11:27:38Z</time>
      </trkpt>
      <trkpt lat="48.47152" lon="6.68516">
        <ele>268.54</ele>
        <time>2017-04-30T11:27:55Z</time>
      </trkpt>
      <trkpt lat="48.4717" lon="6.68546">
        <ele>268.53</ele>
        <time>2017-04-30T11:28:18Z</time>
      </trkpt>
      <trkpt lat="48.47186" lon="6.68573">
        <ele>268.04</ele>
        <time>2017-04-30T11:28:38Z</time>
      </trkpt>
      <trkpt lat="48.47198" lon="6.68603">
        <ele>267.85</ele>
        <time>2017-04-30T11:28:57Z</time>
      </trkpt>
      <trkpt lat="48.4721" lon="6.68625">
        <ele>268.15</ele>
        <time>2017-04-30T11:29:12Z</time>
      </trkpt>
      <trkpt lat="48.47222" lon="6.68651">
        <ele>268.15</ele>
        <time>2017-04-30T11:29:28Z</time>
      </trkpt>
      <trkpt lat="48.4723" lon="6.68663">
        <ele>267.85</ele>
        <time>2017-04-30T11:29:40Z</time>
      </trkpt>
      <trkpt lat="48.47247" lon="6.68689">
        <ele>268.18</ele>
        <time>2017-04-30T11:30:00Z</time>
      </trkpt>
      <trkpt lat="48.47259" lon="6.68704">
        <ele>267.75</ele>
        <time>2017-04-30T11:30:13Z</time>
      </trkpt>
      <trkpt lat="48.47277" lon="6.68725">
        <ele>268.28</ele>
        <time>2017-04-30T11:30:33Z</time>
      </trkpt>
      <trkpt lat="48.47292" lon="6.68737">
        <ele>268.75</ele>
        <time>2017-04-30T11:30:46Z</time>
      </trkpt>
      <trkpt lat="48.47298" lon="6.68749">
        <ele>268.6</ele>
        <time>2017-04-30T11:30:55Z</time>
      </trkpt>
      <trkpt lat="48.47311" lon="6.68779">
        <ele>268.77</ele>
        <time>2017-04-30T11:31:14Z</time>
      </trkpt>
      <trkpt lat="48.47322" lon="6.68814">
        <ele>267.95</ele>
        <time>2017-04-30T11:31:35Z</time>
      </trkpt>
      <trkpt lat="48.47326" lon="6.68842">
        <ele>267.01</ele>
        <time>2017-04-30T11:31:51Z</time>
      </trkpt>
      <trkpt lat="48.4732" lon="6.68886">
        <ele>266.57</ele>
        <time>2017-04-30T11:32:15Z</time>
      </trkpt>
      <trkpt lat="48.47323" lon="6.68917">
        <ele>265.85</ele>
        <time>2017-04-30T11:32:33Z</time>
      </trkpt>
      <trkpt lat="48.47333" lon="6.68966">
        <ele>264.67</ele>
        <time>2017-04-30T11:32:59Z</time>
      </trkpt>
      <trkpt lat="48.4734" lon="6.6901">
        <ele>264.78</ele>
        <time>2017-04-30T11:33:22Z</time>
      </trkpt>
      <trkpt lat="48.47349" lon="6.69056">
        <ele>263.85</ele>
        <time>2017-04-30T11:33:48Z</time>
      </trkpt>
      <trkpt lat="48.47351" lon="6.69067">
        <ele>263.97</ele>
        <time>2017-04-30T11:33:54Z</time>
      </trkpt>
      <trkpt lat="48.47361" lon="6.691">
        <ele>263.17</ele>
        <time>2017-04-30T11:34:15Z</time>
      </trkpt>
      <trkpt lat="48.47365" lon="6.69107">
        <ele>263.09</ele>
        <time>2017-04-30T11:34:20Z</time>
      </trkpt>
      <trkpt lat="48.47361" lon="6.69115">
        <ele>263.48</ele>
        <time>2017-04-30T11:34:28Z</time>
      </trkpt>
      <trkpt lat="48.47341" lon="6.69133">
        <ele>262.72</ele>
        <time>2017-04-30T11:34:46Z</time>
      </trkpt>
      <trkpt lat="48.47321" lon="6.6915">
        <ele>262.03</ele>
        <time>2017-04-30T11:35:06Z</time>
      </trkpt>
      <trkpt lat="48.47315" lon="6.69153">
        <ele>262.72</ele>
        <time>2017-04-30T11:35:14Z</time>
      </trkpt>
      <trkpt lat="48.47313" lon="6.69158">
        <ele>262.86</ele>
        <time>2017-04-30T11:35:19Z</time>
      </trkpt>
      <trkpt lat="48.4732" lon="6.69174">
        <ele>261.97</ele>
        <time>2017-04-30T11:35:31Z</time>
      </trkpt>
      <trkpt lat="48.47319" lon="6.6918">
        <ele>261.66</ele>
        <time>2017-04-30T11:35:35Z</time>
      </trkpt>
      <trkpt lat="48.47303" lon="6.69188">
        <ele>262.76</ele>
        <time>2017-04-30T11:35:53Z</time>
      </trkpt>
      <trkpt lat="48.47285" lon="6.69204">
        <ele>264.11</ele>
        <time>2017-04-30T11:36:11Z</time>
      </trkpt>
      <trkpt lat="48.47277" lon="6.69207">
        <ele>263.61</ele>
        <time>2017-04-30T11:36:17Z</time>
      </trkpt>
      <trkpt lat="48.4727" lon="6.69212">
        <ele>264.34</ele>
        <time>2017-04-30T11:36:24Z</time>
      </trkpt>
      <trkpt lat="48.47266" lon="6.69217">
        <ele>264.29</ele>
        <time>2017-04-30T11:36:28Z</time>
      </trkpt>
      <trkpt lat="48.47245" lon="6.69222">
        <ele>265.65</ele>
        <time>2017-04-30T11:36:46Z</time>
      </trkpt>
      <trkpt lat="48.47228" lon="6.69234">
        <ele>266.98</ele>
        <time>2017-04-30T11:37:03Z</time>
      </trkpt>
      <trkpt lat="48.47208" lon="6.69247">
        <ele>267.29</ele>
        <time>2017-04-30T11:37:21Z</time>
      </trkpt>
      <trkpt lat="48.47197" lon="6.69254">
        <ele>268.07</ele>
        <time>2017-04-30T11:37:31Z</time>
      </trkpt>
      <trkpt lat="48.47182" lon="6.69268">
        <ele>269.79</ele>
        <time>2017-04-30T11:37:47Z</time>
      </trkpt>
      <trkpt lat="48.47168" lon="6.69286">
        <ele>270.61</ele>
        <time>2017-04-30T11:38:02Z</time>
      </trkpt>
      <trkpt lat="48.47156" lon="6.69309">
        <ele>271.55</ele>
        <time>2017-04-30T11:38:18Z</time>
      </trkpt>
      <trkpt lat="48.47147" lon="6.69331">
        <ele>272.45</ele>
        <time>2017-04-30T11:38:33Z</time>
      </trkpt>
      <trkpt lat="48.47145" lon="6.69335">
        <ele>272.99</ele>
        <time>2017-04-30T11:38:36Z</time>
      </trkpt>
      <trkpt lat="48.47133" lon="6.69363">
        <ele>275.57</ele>
        <time>2017-04-30T11:38:54Z</time>
      </trkpt>
      <trkpt lat="48.47117" lon="6.69375">
        <ele>276.57</ele>
        <time>2017-04-30T11:39:08Z</time>
      </trkpt>
      <trkpt lat="48.47098" lon="6.69378">
        <ele>276.47</ele>
        <time>2017-04-30T11:39:25Z</time>
      </trkpt>
      <trkpt lat="48.47093" lon="6.69377">
        <ele>277.28</ele>
        <time>2017-04-30T11:39:30Z</time>
      </trkpt>
      <trkpt lat="48.47088" lon="6.6938">
        <ele>277.17</ele>
        <time>2017-04-30T11:39:34Z</time>
      </trkpt>
      <trkpt lat="48.47065" lon="6.69381">
        <ele>278.43</ele>
        <time>2017-04-30T11:39:52Z</time>
      </trkpt>
      <trkpt lat="48.47056" lon="6.69381">
        <ele>278.48</ele>
        <time>2017-04-30T11:40:00Z</time>
      </trkpt>
      <trkpt lat="48.47034" lon="6.69389">
        <ele>280.21</ele>
        <time>2017-04-30T11:40:18Z</time>
      </trkpt>
      <trkpt lat="48.47032" lon="6.69388">
        <ele>280.46</ele>
        <time>2017-04-30T11:40:37Z</time>
      </trkpt>
      <trkpt lat="48.4703" lon="6.6939">
        <ele>280.05</ele>
        <time>2017-04-30T11:41:04Z</time>
      </trkpt>
      <trkpt lat="48.47029" lon="6.6939">
        <ele>280.15</ele>
        <time>2017-04-30T11:41:32Z</time>
      </trkpt>
      <trkpt lat="48.47029" lon="6.69389">
        <ele>280.33</ele>
        <time>2017-04-30T11:41:55Z</time>
      </trkpt>
      <trkpt lat="48.47028" lon="6.69388">
        <ele>280.02</ele>
        <time>2017-04-30T11:42:36Z</time>
      </trkpt>
      <trkpt lat="48.47029" lon="6.69388">
        <ele>280.25</ele>
        <time>2017-04-30T11:43:03Z</time>
      </trkpt>
      <trkpt lat="48.47024" lon="6.6939">
        <ele>280.27</ele>
        <time>2017-04-30T11:43:20Z</time>
      </trkpt>
      <trkpt lat="48.4702" lon="6.69389">
        <ele>280.66</ele>
        <time>2017-04-30T11:43:37Z</time>
      </trkpt>
      <trkpt lat="48.4702" lon="6.69389">
        <ele>280.46</ele>
        <time>2017-04-30T11:44:13Z</time>
      </trkpt>
      <trkpt lat="48.47021" lon="6.69388">
        <ele>280.66</ele>
        <time>2017-04-30T11:44:39Z</time>
      </trkpt>
      <trkpt lat="48.47022" lon="6.69388">
        <ele>280.54</ele>
        <time>2017-04-30T11:45:14Z</time>
      </trkpt>
      <trkpt lat="48.4702" lon="6.69389">
        <ele>280.92</ele>
        <time>2017-04-30T11:45:22Z</time>
      </trkpt>
      <trkpt lat="48.47016" lon="6.6939">
        <ele>281.17</ele>
        <time>2017-04-30T11:45:26Z</time>
      </trkpt>
      <trkpt lat="48.4699" lon="6.69394">
        <ele>281.37</ele>
        <time>2017-04-30T11:45:47Z</time>
      </trkpt>
      <trkpt lat="48.46969" lon="6.69398">
        <ele>281.53</ele>
        <time>2017-04-30T11:46:04Z</time>
      </trkpt>
      <trkpt lat="48.46946" lon="6.69399">
        <ele>282.43</ele>
        <time>2017-04-30T11:46:22Z</time>
      </trkpt>
      <trkpt lat="48.46923" lon="6.69399">
        <ele>283.54</ele>
        <time>2017-04-30T11:46:40Z</time>
      </trkpt>
      <trkpt lat="48.46897" lon="6.69403">
        <ele>283.66</ele>
        <time>2017-04-30T11:47:01Z</time>
      </trkpt>
      <trkpt lat="48.46876" lon="6.69408">
        <ele>285.24</ele>
        <time>2017-04-30T11:47:18Z</time>
      </trkpt>
      <trkpt lat="48.46855" lon="6.69414">
        <ele>286.65</ele>
        <time>2017-04-30T11:47:36Z</time>
      </trkpt>
      <trkpt lat="48.46834" lon="6.69422">
        <ele>288.13</ele>
        <time>2017-04-30T11:47:54Z</time>
      </trkpt>
      <trkpt lat="48.46813" lon="6.69428">
        <ele>289.77</ele>
        <time>2017-04-30T11:48:12Z</time>
      </trkpt>
      <trkpt lat="48.46792" lon="6.69435">
        <ele>291.16</ele>
        <time>2017-04-30T11:48:31Z</time>
      </trkpt>
      <trkpt lat="48.46764" lon="6.69441">
        <ele>293.07</ele>
        <time>2017-04-30T11:48:53Z</time>
      </trkpt>
      <trkpt lat="48.4674" lon="6.69446">
        <ele>294.36</ele>
        <time>2017-04-30T11:49:12Z</time>
      </trkpt>
      <trkpt lat="48.46713" lon="6.69454">
        <ele>296.86</ele>
        <time>2017-04-30T11:49:34Z</time>
      </trkpt>
      <trkpt lat="48.46701" lon="6.69457">
        <ele>297.33</ele>
        <time>2017-04-30T11:49:45Z</time>
      </trkpt>
      <trkpt lat="48.46681" lon="6.69464">
        <ele>298.9</ele>
        <time>2017-04-30T11:50:04Z</time>
      </trkpt>
      <trkpt lat="48.46659" lon="6.69476">
        <ele>299.89</ele>
        <time>2017-04-30T11:50:24Z</time>
      </trkpt>
      <trkpt lat="48.4664" lon="6.69489">
        <ele>301.24</ele>
        <time>2017-04-30T11:50:43Z</time>
      </trkpt>
      <trkpt lat="48.46617" lon="6.69509">
        <ele>303.74</ele>
        <time>2017-04-30T11:51:05Z</time>
      </trkpt>
      <trkpt lat="48.46593" lon="6.69528">
        <ele>305.79</ele>
        <time>2017-04-30T11:51:27Z</time>
      </trkpt>
      <trkpt lat="48.46568" lon="6.69548">
        <ele>306.85</ele>
        <time>2017-04-30T11:51:49Z</time>
      </trkpt>
      <trkpt lat="48.46544" lon="6.69567">
        <ele>308.25</ele>
        <time>2017-04-30T11:52:10Z</time>
      </trkpt>
      <trkpt lat="48.46521" lon="6.69592">
        <ele>309.35</ele>
        <time>2017-04-30T11:52:33Z</time>
      </trkpt>
      <trkpt lat="48.46497" lon="6.6962">
        <ele>310.39</ele>
        <time>2017-04-30T11:52:56Z</time>
      </trkpt>
      <trkpt lat="48.46471" lon="6.69649">
        <ele>310.24</ele>
        <time>2017-04-30T11:53:21Z</time>
      </trkpt>
      <trkpt lat="48.46443" lon="6.69677">
        <ele>310.38</ele>
        <time>2017-04-30T11:53:46Z</time>
      </trkpt>
      <trkpt lat="48.46412" lon="6.69713">
        <ele>310.51</ele>
        <time>2017-04-30T11:54:14Z</time>
      </trkpt>
      <trkpt lat="48.46382" lon="6.69749">
        <ele>310.91</ele>
        <time>2017-04-30T11:54:41Z</time>
      </trkpt>
      <trkpt lat="48.46358" lon="6.69777">
        <ele>310.83</ele>
        <time>2017-04-30T11:55:04Z</time>
      </trkpt>
      <trkpt lat="48.46331" lon="6.69813">
        <ele>311.49</ele>
        <time>2017-04-30T11:55:30Z</time>
      </trkpt>
      <trkpt lat="48.46311" lon="6.6985">
        <ele>312.98</ele>
        <time>2017-04-30T11:55:53Z</time>
      </trkpt>
      <trkpt lat="48.46293" lon="6.69891">
        <ele>313.52</ele>
        <time>2017-04-30T11:56:17Z</time>
      </trkpt>
      <trkpt lat="48.46272" lon="6.6993">
        <ele>313.9</ele>
        <time>2017-04-30T11:56:43Z</time>
      </trkpt>
      <trkpt lat="48.46252" lon="6.69955">
        <ele>315.5</ele>
        <time>2017-04-30T11:57:07Z</time>
      </trkpt>
      <trkpt lat="48.4625" lon="6.69958">
        <ele>315.39</ele>
        <time>2017-04-30T11:57:30Z</time>
      </trkpt>
      <trkpt lat="48.4624" lon="6.69967">
        <ele>315.59</ele>
        <time>2017-04-30T11:57:49Z</time>
      </trkpt>
      <trkpt lat="48.46229" lon="6.69978">
        <ele>316</ele>
        <time>2017-04-30T11:58:08Z</time>
      </trkpt>
      <trkpt lat="48.46229" lon="6.69978">
        <ele>315.89</ele>
        <time>2017-04-30T11:58:42Z</time>
      </trkpt>
      <trkpt lat="48.4623" lon="6.69978">
        <ele>316.31</ele>
        <time>2017-04-30T11:59:07Z</time>
      </trkpt>
      <trkpt lat="48.46227" lon="6.69978">
        <ele>315.92</ele>
        <time>2017-04-30T11:59:26Z</time>
      </trkpt>
      <trkpt lat="48.46214" lon="6.69989">
        <ele>315.88</ele>
        <time>2017-04-30T11:59:42Z</time>
      </trkpt>
      <trkpt lat="48.46204" lon="6.69996">
        <ele>315.94</ele>
        <time>2017-04-30T11:59:54Z</time>
      </trkpt>
      <trkpt lat="48.46188" lon="6.70005">
        <ele>315.6</ele>
        <time>2017-04-30T12:00:11Z</time>
      </trkpt>
      <trkpt lat="48.46176" lon="6.70011">
        <ele>315.47</ele>
        <time>2017-04-30T12:00:26Z</time>
      </trkpt>
      <trkpt lat="48.46172" lon="6.70013">
        <ele>316.04</ele>
        <time>2017-04-30T12:00:39Z</time>
      </trkpt>
      <trkpt lat="48.46158" lon="6.7002">
        <ele>315.5</ele>
        <time>2017-04-30T12:00:55Z</time>
      </trkpt>
      <trkpt lat="48.46132" lon="6.70036">
        <ele>315.84</ele>
        <time>2017-04-30T12:01:18Z</time>
      </trkpt>
      <trkpt lat="48.46111" lon="6.70054">
        <ele>314.36</ele>
        <time>2017-04-30T12:01:37Z</time>
      </trkpt>
      <trkpt lat="48.46084" lon="6.70075">
        <ele>314.42</ele>
        <time>2017-04-30T12:02:00Z</time>
      </trkpt>
      <trkpt lat="48.46059" lon="6.7009">
        <ele>312.61</ele>
        <time>2017-04-30T12:02:21Z</time>
      </trkpt>
      <trkpt lat="48.46037" lon="6.70103">
        <ele>312.61</ele>
        <time>2017-04-30T12:02:39Z</time>
      </trkpt>
      <trkpt lat="48.4601" lon="6.70124">
        <ele>311.08</ele>
        <time>2017-04-30T12:03:01Z</time>
      </trkpt>
      <trkpt lat="48.45982" lon="6.70142">
        <ele>310.35</ele>
        <time>2017-04-30T12:03:23Z</time>
      </trkpt>
      <trkpt lat="48.45951" lon="6.70164">
        <ele>309.21</ele>
        <time>2017-04-30T12:03:48Z</time>
      </trkpt>
      <trkpt lat="48.45923" lon="6.70183">
        <ele>309</ele>
        <time>2017-04-30T12:04:11Z</time>
      </trkpt>
      <trkpt lat="48.45892" lon="6.70206">
        <ele>306.69</ele>
        <time>2017-04-30T12:04:38Z</time>
      </trkpt>
      <trkpt lat="48.45871" lon="6.70228">
        <ele>305.79</ele>
        <time>2017-04-30T12:04:58Z</time>
      </trkpt>
      <trkpt lat="48.45854" lon="6.70255">
        <ele>304.54</ele>
        <time>2017-04-30T12:05:19Z</time>
      </trkpt>
      <trkpt lat="48.45836" lon="6.7027">
        <ele>303.02</ele>
        <time>2017-04-30T12:05:36Z</time>
      </trkpt>
      <trkpt lat="48.4582" lon="6.70283">
        <ele>302.06</ele>
        <time>2017-04-30T12:05:52Z</time>
      </trkpt>
      <trkpt lat="48.45819" lon="6.70283">
        <ele>301.51</ele>
        <time>2017-04-30T12:05:53Z</time>
      </trkpt>
      <trkpt lat="48.45807" lon="6.70288">
        <ele>300.81</ele>
        <time>2017-04-30T12:06:02Z</time>
      </trkpt>
      <trkpt lat="48.45801" lon="6.70293">
        <ele>301.05</ele>
        <time>2017-04-30T12:06:06Z</time>
      </trkpt>
      <trkpt lat="48.45779" lon="6.70308">
        <ele>298.45</ele>
        <time>2017-04-30T12:06:24Z</time>
      </trkpt>
      <trkpt lat="48.45769" lon="6.70321">
        <ele>297.72</ele>
        <time>2017-04-30T12:06:33Z</time>
      </trkpt>
      <trkpt lat="48.45761" lon="6.70325">
        <ele>296.82</ele>
        <time>2017-04-30T12:06:38Z</time>
      </trkpt>
      <trkpt lat="48.45744" lon="6.70357">
        <ele>295.34</ele>
        <time>2017-04-30T12:06:57Z</time>
      </trkpt>
      <trkpt lat="48.45731" lon="6.70388">
        <ele>294.18</ele>
        <time>2017-04-30T12:07:14Z</time>
      </trkpt>
      <trkpt lat="48.45719" lon="6.70412">
        <ele>292.7</ele>
        <time>2017-04-30T12:07:29Z</time>
      </trkpt>
      <trkpt lat="48.45711" lon="6.70426">
        <ele>292.56</ele>
        <time>2017-04-30T12:07:38Z</time>
      </trkpt>
      <trkpt lat="48.45702" lon="6.70444">
        <ele>291.21</ele>
        <time>2017-04-30T12:07:48Z</time>
      </trkpt>
      <trkpt lat="48.45698" lon="6.7045">
        <ele>290.73</ele>
        <time>2017-04-30T12:07:52Z</time>
      </trkpt>
      <trkpt lat="48.45695" lon="6.70459">
        <ele>289.87</ele>
        <time>2017-04-30T12:07:58Z</time>
      </trkpt>
      <trkpt lat="48.45691" lon="6.70469">
        <ele>289.52</ele>
        <time>2017-04-30T12:08:04Z</time>
      </trkpt>
      <trkpt lat="48.45683" lon="6.70489">
        <ele>289.3</ele>
        <time>2017-04-30T12:08:15Z</time>
      </trkpt>
      <trkpt lat="48.45668" lon="6.70512">
        <ele>287.61</ele>
        <time>2017-04-30T12:08:31Z</time>
      </trkpt>
      <trkpt lat="48.45656" lon="6.70526">
        <ele>287.64</ele>
        <time>2017-04-30T12:08:41Z</time>
      </trkpt>
      <trkpt lat="48.45647" lon="6.70539">
        <ele>287.35</ele>
        <time>2017-04-30T12:08:51Z</time>
      </trkpt>
      <trkpt lat="48.45633" lon="6.70562">
        <ele>286.78</ele>
        <time>2017-04-30T12:09:05Z</time>
      </trkpt>
      <trkpt lat="48.45617" lon="6.70589">
        <ele>286</ele>
        <time>2017-04-30T12:09:22Z</time>
      </trkpt>
      <trkpt lat="48.45605" lon="6.70607">
        <ele>285.72</ele>
        <time>2017-04-30T12:09:35Z</time>
      </trkpt>
      <trkpt lat="48.45601" lon="6.70611">
        <ele>285.7</ele>
        <time>2017-04-30T12:09:39Z</time>
      </trkpt>
      <trkpt lat="48.45588" lon="6.70635">
        <ele>285.87</ele>
        <time>2017-04-30T12:09:54Z</time>
      </trkpt>
      <trkpt lat="48.45581" lon="6.70644">
        <ele>285.33</ele>
        <time>2017-04-30T12:10:01Z</time>
      </trkpt>
      <trkpt lat="48.45575" lon="6.70654">
        <ele>285.55</ele>
        <time>2017-04-30T12:10:10Z</time>
      </trkpt>
      <trkpt lat="48.4557" lon="6.70661">
        <ele>285.62</ele>
        <time>2017-04-30T12:10:15Z</time>
      </trkpt>
      <trkpt lat="48.45565" lon="6.70679">
        <ele>285.58</ele>
        <time>2017-04-30T12:10:25Z</time>
      </trkpt>
      <trkpt lat="48.45549" lon="6.70706">
        <ele>286.39</ele>
        <time>2017-04-30T12:10:40Z</time>
      </trkpt>
      <trkpt lat="48.45545" lon="6.70714">
        <ele>286.57</ele>
        <time>2017-04-30T12:10:45Z</time>
      </trkpt>
      <trkpt lat="48.45544" lon="6.70718">
        <ele>286.88</ele>
        <time>2017-04-30T12:10:47Z</time>
      </trkpt>
      <trkpt lat="48.4554" lon="6.70724">
        <ele>287.32</ele>
        <time>2017-04-30T12:10:51Z</time>
      </trkpt>
      <trkpt lat="48.45526" lon="6.7075">
        <ele>287.23</ele>
        <time>2017-04-30T12:11:07Z</time>
      </trkpt>
      <trkpt lat="48.45514" lon="6.70774">
        <ele>287.99</ele>
        <time>2017-04-30T12:11:22Z</time>
      </trkpt>
      <trkpt lat="48.45507" lon="6.70786">
        <ele>287.59</ele>
        <time>2017-04-30T12:11:30Z</time>
      </trkpt>
      <trkpt lat="48.45497" lon="6.70817">
        <ele>286.71</ele>
        <time>2017-04-30T12:11:46Z</time>
      </trkpt>
      <trkpt lat="48.45493" lon="6.70828">
        <ele>286.57</ele>
        <time>2017-04-30T12:11:52Z</time>
      </trkpt>
      <trkpt lat="48.45481" lon="6.7085">
        <ele>286.42</ele>
        <time>2017-04-30T12:12:05Z</time>
      </trkpt>
      <trkpt lat="48.45479" lon="6.70854">
        <ele>286.03</ele>
        <time>2017-04-30T12:12:08Z</time>
      </trkpt>
      <trkpt lat="48.4547" lon="6.70869">
        <ele>285.52</ele>
        <time>2017-04-30T12:12:17Z</time>
      </trkpt>
      <trkpt lat="48.45457" lon="6.70892">
        <ele>286.56</ele>
        <time>2017-04-30T12:12:32Z</time>
      </trkpt>
      <trkpt lat="48.45455" lon="6.70897">
        <ele>286.26</ele>
        <time>2017-04-30T12:12:35Z</time>
      </trkpt>
      <trkpt lat="48.45447" lon="6.70913">
        <ele>286.39</ele>
        <time>2017-04-30T12:12:50Z</time>
      </trkpt>
      <trkpt lat="48.45446" lon="6.70922">
        <ele>286</ele>
        <time>2017-04-30T12:13:08Z</time>
      </trkpt>
      <trkpt lat="48.45444" lon="6.70921">
        <ele>286.56</ele>
        <time>2017-04-30T12:13:42Z</time>
      </trkpt>
      <trkpt lat="48.45439" lon="6.70926">
        <ele>286.15</ele>
        <time>2017-04-30T12:13:51Z</time>
      </trkpt>
      <trkpt lat="48.45428" lon="6.70926">
        <ele>286.93</ele>
        <time>2017-04-30T12:14:04Z</time>
      </trkpt>
      <trkpt lat="48.45424" lon="6.70927">
        <ele>287.7</ele>
        <time>2017-04-30T12:14:25Z</time>
      </trkpt>
      <trkpt lat="48.45433" lon="6.70928">
        <ele>287.29</ele>
        <time>2017-04-30T12:14:48Z</time>
      </trkpt>
      <trkpt lat="48.45443" lon="6.70925">
        <ele>286.73</ele>
        <time>2017-04-30T12:15:06Z</time>
      </trkpt>
      <trkpt lat="48.45442" lon="6.70925">
        <ele>287.19</ele>
        <time>2017-04-30T12:15:29Z</time>
      </trkpt>
      <trkpt lat="48.45439" lon="6.70925">
        <ele>287.42</ele>
        <time>2017-04-30T12:16:06Z</time>
      </trkpt>
      <trkpt lat="48.45438" lon="6.70927">
        <ele>287.26</ele>
        <time>2017-04-30T12:16:35Z</time>
      </trkpt>
      <trkpt lat="48.45438" lon="6.70927">
        <ele>287.59</ele>
        <time>2017-04-30T12:17:10Z</time>
      </trkpt>
      <trkpt lat="48.45436" lon="6.70928">
        <ele>287.32</ele>
        <time>2017-04-30T12:17:34Z</time>
      </trkpt>
      <trkpt lat="48.45434" lon="6.70929">
        <ele>287.4</ele>
        <time>2017-04-30T12:17:48Z</time>
      </trkpt>
      <trkpt lat="48.45433" lon="6.70935">
        <ele>287.52</ele>
        <time>2017-04-30T12:18:05Z</time>
      </trkpt>
      <trkpt lat="48.45432" lon="6.70938">
        <ele>287.95</ele>
        <time>2017-04-30T12:18:07Z</time>
      </trkpt>
      <trkpt lat="48.4543" lon="6.70943">
        <ele>287.76</ele>
        <time>2017-04-30T12:18:11Z</time>
      </trkpt>
      <trkpt lat="48.45417" lon="6.70973">
        <ele>288.39</ele>
        <time>2017-04-30T12:18:31Z</time>
      </trkpt>
      <trkpt lat="48.45413" lon="6.70979">
        <ele>289.06</ele>
        <time>2017-04-30T12:18:36Z</time>
      </trkpt>
      <trkpt lat="48.45408" lon="6.70989">
        <ele>288.66</ele>
        <time>2017-04-30T12:18:43Z</time>
      </trkpt>
      <trkpt lat="48.45391" lon="6.71011">
        <ele>289.59</ele>
        <time>2017-04-30T12:19:01Z</time>
      </trkpt>
      <trkpt lat="48.45376" lon="6.71031">
        <ele>290.36</ele>
        <time>2017-04-30T12:19:17Z</time>
      </trkpt>
      <trkpt lat="48.45363" lon="6.71052">
        <ele>290.51</ele>
        <time>2017-04-30T12:19:33Z</time>
      </trkpt>
      <trkpt lat="48.45349" lon="6.71069">
        <ele>291</ele>
        <time>2017-04-30T12:19:47Z</time>
      </trkpt>
      <trkpt lat="48.45335" lon="6.71086">
        <ele>291.43</ele>
        <time>2017-04-30T12:20:02Z</time>
      </trkpt>
      <trkpt lat="48.45317" lon="6.711">
        <ele>293.12</ele>
        <time>2017-04-30T12:20:18Z</time>
      </trkpt>
      <trkpt lat="48.45299" lon="6.71118">
        <ele>293.96</ele>
        <time>2017-04-30T12:20:34Z</time>
      </trkpt>
      <trkpt lat="48.45274" lon="6.71144">
        <ele>293.9</ele>
        <time>2017-04-30T12:20:57Z</time>
      </trkpt>
      <trkpt lat="48.45256" lon="6.71163">
        <ele>293.7</ele>
        <time>2017-04-30T12:21:15Z</time>
      </trkpt>
      <trkpt lat="48.45239" lon="6.7118">
        <ele>291.99</ele>
        <time>2017-04-30T12:21:31Z</time>
      </trkpt>
      <trkpt lat="48.45226" lon="6.71192">
        <ele>290.97</ele>
        <time>2017-04-30T12:21:46Z</time>
      </trkpt>
      <trkpt lat="48.45219" lon="6.712">
        <ele>290.51</ele>
        <time>2017-04-30T12:21:54Z</time>
      </trkpt>
      <trkpt lat="48.45216" lon="6.71206">
        <ele>290.09</ele>
        <time>2017-04-30T12:21:58Z</time>
      </trkpt>
      <trkpt lat="48.45203" lon="6.71224">
        <ele>289.14</ele>
        <time>2017-04-30T12:22:11Z</time>
      </trkpt>
      <trkpt lat="48.45186" lon="6.71244">
        <ele>287.54</ele>
        <time>2017-04-30T12:22:27Z</time>
      </trkpt>
      <trkpt lat="48.45174" lon="6.71263">
        <ele>285.05</ele>
        <time>2017-04-30T12:22:42Z</time>
      </trkpt>
      <trkpt lat="48.45172" lon="6.71266">
        <ele>285.18</ele>
        <time>2017-04-30T12:22:44Z</time>
      </trkpt>
      <trkpt lat="48.4517" lon="6.71272">
        <ele>284.82</ele>
        <time>2017-04-30T12:22:48Z</time>
      </trkpt>
      <trkpt lat="48.45158" lon="6.71288">
        <ele>282.78</ele>
        <time>2017-04-30T12:23:01Z</time>
      </trkpt>
      <trkpt lat="48.45141" lon="6.71298">
        <ele>280.95</ele>
        <time>2017-04-30T12:23:17Z</time>
      </trkpt>
      <trkpt lat="48.45117" lon="6.71302">
        <ele>279.32</ele>
        <time>2017-04-30T12:23:36Z</time>
      </trkpt>
      <trkpt lat="48.45116" lon="6.71302">
        <ele>279.31</ele>
        <time>2017-04-30T12:23:37Z</time>
      </trkpt>
      <trkpt lat="48.45094" lon="6.71324">
        <ele>278.29</ele>
        <time>2017-04-30T12:23:57Z</time>
      </trkpt>
      <trkpt lat="48.45091" lon="6.71335">
        <ele>277.8</ele>
        <time>2017-04-30T12:24:04Z</time>
      </trkpt>
      <trkpt lat="48.45087" lon="6.71337">
        <ele>277.82</ele>
        <time>2017-04-30T12:24:07Z</time>
      </trkpt>
      <trkpt lat="48.45074" lon="6.71331">
        <ele>278.62</ele>
        <time>2017-04-30T12:24:22Z</time>
      </trkpt>
      <trkpt lat="48.45061" lon="6.71324">
        <ele>278.3</ele>
        <time>2017-04-30T12:24:36Z</time>
      </trkpt>
      <trkpt lat="48.45049" lon="6.7132">
        <ele>279.93</ele>
        <time>2017-04-30T12:24:51Z</time>
      </trkpt>
      <trkpt lat="48.45042" lon="6.71322">
        <ele>279.58</ele>
        <time>2017-04-30T12:25:11Z</time>
      </trkpt>
      <trkpt lat="48.45035" lon="6.71325">
        <ele>279.41</ele>
        <time>2017-04-30T12:25:35Z</time>
      </trkpt>
      <trkpt lat="48.45015" lon="6.71343">
        <ele>278.59</ele>
        <time>2017-04-30T12:25:54Z</time>
      </trkpt>
      <trkpt lat="48.44995" lon="6.71362">
        <ele>276.02</ele>
        <time>2017-04-30T12:26:12Z</time>
      </trkpt>
      <trkpt lat="48.44988" lon="6.71394">
        <ele>275.66</ele>
        <time>2017-04-30T12:26:30Z</time>
      </trkpt>
      <trkpt lat="48.44974" lon="6.7141">
        <ele>275.4</ele>
        <time>2017-04-30T12:26:45Z</time>
      </trkpt>
      <trkpt lat="48.44957" lon="6.71432">
        <ele>275.3</ele>
        <time>2017-04-30T12:27:04Z</time>
      </trkpt>
      <trkpt lat="48.44951" lon="6.71445">
        <ele>275.35</ele>
        <time>2017-04-30T12:27:16Z</time>
      </trkpt>
      <trkpt lat="48.4493" lon="6.71442">
        <ele>275.74</ele>
        <time>2017-04-30T12:27:36Z</time>
      </trkpt>
      <trkpt lat="48.44911" lon="6.71433">
        <ele>276.37</ele>
        <time>2017-04-30T12:27:52Z</time>
      </trkpt>
      <trkpt lat="48.44888" lon="6.71422">
        <ele>277.22</ele>
        <time>2017-04-30T12:28:11Z</time>
      </trkpt>
      <trkpt lat="48.44866" lon="6.71416">
        <ele>278.03</ele>
        <time>2017-04-30T12:28:31Z</time>
      </trkpt>
      <trkpt lat="48.44846" lon="6.71418">
        <ele>280.44</ele>
        <time>2017-04-30T12:28:48Z</time>
      </trkpt>
      <trkpt lat="48.44844" lon="6.71418">
        <ele>280.75</ele>
        <time>2017-04-30T12:28:50Z</time>
      </trkpt>
      <trkpt lat="48.44834" lon="6.71431">
        <ele>282.4</ele>
        <time>2017-04-30T12:29:01Z</time>
      </trkpt>
      <trkpt lat="48.44834" lon="6.71457">
        <ele>283.64</ele>
        <time>2017-04-30T12:29:16Z</time>
      </trkpt>
      <trkpt lat="48.44836" lon="6.71466">
        <ele>284.45</ele>
        <time>2017-04-30T12:29:22Z</time>
      </trkpt>
      <trkpt lat="48.44845" lon="6.71486">
        <ele>286.35</ele>
        <time>2017-04-30T12:29:37Z</time>
      </trkpt>
      <trkpt lat="48.4485" lon="6.71495">
        <ele>286.95</ele>
        <time>2017-04-30T12:29:44Z</time>
      </trkpt>
      <trkpt lat="48.44859" lon="6.71512">
        <ele>288.92</ele>
        <time>2017-04-30T12:29:58Z</time>
      </trkpt>
      <trkpt lat="48.44872" lon="6.71531">
        <ele>289.91</ele>
        <time>2017-04-30T12:30:13Z</time>
      </trkpt>
      <trkpt lat="48.44882" lon="6.71546">
        <ele>291.32</ele>
        <time>2017-04-30T12:30:24Z</time>
      </trkpt>
      <trkpt lat="48.44894" lon="6.71568">
        <ele>291.84</ele>
        <time>2017-04-30T12:30:41Z</time>
      </trkpt>
      <trkpt lat="48.44907" lon="6.71599">
        <ele>293.31</ele>
        <time>2017-04-30T12:31:01Z</time>
      </trkpt>
      <trkpt lat="48.44917" lon="6.71627">
        <ele>294.35</ele>
        <time>2017-04-30T12:31:19Z</time>
      </trkpt>
      <trkpt lat="48.44922" lon="6.71658">
        <ele>295.57</ele>
        <time>2017-04-30T12:31:38Z</time>
      </trkpt>
      <trkpt lat="48.44923" lon="6.71697">
        <ele>295.91</ele>
        <time>2017-04-30T12:32:00Z</time>
      </trkpt>
      <trkpt lat="48.44924" lon="6.7173">
        <ele>296.74</ele>
        <time>2017-04-30T12:32:18Z</time>
      </trkpt>
      <trkpt lat="48.44928" lon="6.71761">
        <ele>297.23</ele>
        <time>2017-04-30T12:32:35Z</time>
      </trkpt>
      <trkpt lat="48.44928" lon="6.71797">
        <ele>297.34</ele>
        <time>2017-04-30T12:32:55Z</time>
      </trkpt>
      <trkpt lat="48.44925" lon="6.71839">
        <ele>298.23</ele>
        <time>2017-04-30T12:33:18Z</time>
      </trkpt>
      <trkpt lat="48.44918" lon="6.71876">
        <ele>299.39</ele>
        <time>2017-04-30T12:33:38Z</time>
      </trkpt>
      <trkpt lat="48.44912" lon="6.7191">
        <ele>299.38</ele>
        <time>2017-04-30T12:33:57Z</time>
      </trkpt>
      <trkpt lat="48.44909" lon="6.71945">
        <ele>300.65</ele>
        <time>2017-04-30T12:34:16Z</time>
      </trkpt>
      <trkpt lat="48.44905" lon="6.71979">
        <ele>300.88</ele>
        <time>2017-04-30T12:34:36Z</time>
      </trkpt>
      <trkpt lat="48.44905" lon="6.71986">
        <ele>301.03</ele>
        <time>2017-04-30T12:34:56Z</time>
      </trkpt>
      <trkpt lat="48.44904" lon="6.71988">
        <ele>300.93</ele>
        <time>2017-04-30T12:35:13Z</time>
      </trkpt>
      <trkpt lat="48.44903" lon="6.71989">
        <ele>301.29</ele>
        <time>2017-04-30T12:35:40Z</time>
      </trkpt>
      <trkpt lat="48.44905" lon="6.72001">
        <ele>301.13</ele>
        <time>2017-04-30T12:36:01Z</time>
      </trkpt>
      <trkpt lat="48.44905" lon="6.72033">
        <ele>302.2</ele>
        <time>2017-04-30T12:36:20Z</time>
      </trkpt>
      <trkpt lat="48.44907" lon="6.72068">
        <ele>303.54</ele>
        <time>2017-04-30T12:36:39Z</time>
      </trkpt>
      <trkpt lat="48.44914" lon="6.72097">
        <ele>304.97</ele>
        <time>2017-04-30T12:36:56Z</time>
      </trkpt>
      <trkpt lat="48.44919" lon="6.7211">
        <ele>305.35</ele>
        <time>2017-04-30T12:37:05Z</time>
      </trkpt>
      <trkpt lat="48.4494" lon="6.72121">
        <ele>306.23</ele>
        <time>2017-04-30T12:37:23Z</time>
      </trkpt>
      <trkpt lat="48.44944" lon="6.72123">
        <ele>306.51</ele>
        <time>2017-04-30T12:37:26Z</time>
      </trkpt>
      <trkpt lat="48.44949" lon="6.72125">
        <ele>306.23</ele>
        <time>2017-04-30T12:37:30Z</time>
      </trkpt>
      <trkpt lat="48.44979" lon="6.72143">
        <ele>307.25</ele>
        <time>2017-04-30T12:37:54Z</time>
      </trkpt>
      <trkpt lat="48.45001" lon="6.7216">
        <ele>307.07</ele>
        <time>2017-04-30T12:38:12Z</time>
      </trkpt>
      <trkpt lat="48.45029" lon="6.72182">
        <ele>307.82</ele>
        <time>2017-04-30T12:38:36Z</time>
      </trkpt>
      <trkpt lat="48.45054" lon="6.72196">
        <ele>307.76</ele>
        <time>2017-04-30T12:38:56Z</time>
      </trkpt>
      <trkpt lat="48.45079" lon="6.7221">
        <ele>308.19</ele>
        <time>2017-04-30T12:39:16Z</time>
      </trkpt>
      <trkpt lat="48.45107" lon="6.72222">
        <ele>307.9</ele>
        <time>2017-04-30T12:39:39Z</time>
      </trkpt>
      <trkpt lat="48.45133" lon="6.72235">
        <ele>308.51</ele>
        <time>2017-04-30T12:40:00Z</time>
      </trkpt>
      <trkpt lat="48.45156" lon="6.72246">
        <ele>309.77</ele>
        <time>2017-04-30T12:40:19Z</time>
      </trkpt>
      <trkpt lat="48.45176" lon="6.72256">
        <ele>309.35</ele>
        <time>2017-04-30T12:40:35Z</time>
      </trkpt>
      <trkpt lat="48.45199" lon="6.72266">
        <ele>308.92</ele>
        <time>2017-04-30T12:40:53Z</time>
      </trkpt>
      <trkpt lat="48.45229" lon="6.72276">
        <ele>307.49</ele>
        <time>2017-04-30T12:41:15Z</time>
      </trkpt>
      <trkpt lat="48.45257" lon="6.72286">
        <ele>307.18</ele>
        <time>2017-04-30T12:41:36Z</time>
      </trkpt>
      <trkpt lat="48.45283" lon="6.72296">
        <ele>306.93</ele>
        <time>2017-04-30T12:41:56Z</time>
      </trkpt>
      <trkpt lat="48.4531" lon="6.72306">
        <ele>306.61</ele>
        <time>2017-04-30T12:42:16Z</time>
      </trkpt>
      <trkpt lat="48.45337" lon="6.72319">
        <ele>306.32</ele>
        <time>2017-04-30T12:42:37Z</time>
      </trkpt>
      <trkpt lat="48.45361" lon="6.72337">
        <ele>306.21</ele>
        <time>2017-04-30T12:42:57Z</time>
      </trkpt>
      <trkpt lat="48.45386" lon="6.72356">
        <ele>306.61</ele>
        <time>2017-04-30T12:43:18Z</time>
      </trkpt>
      <trkpt lat="48.4541" lon="6.72373">
        <ele>306.68</ele>
        <time>2017-04-30T12:43:38Z</time>
      </trkpt>
      <trkpt lat="48.45438" lon="6.72395">
        <ele>307.06</ele>
        <time>2017-04-30T12:44:02Z</time>
      </trkpt>
      <trkpt lat="48.45458" lon="6.72411">
        <ele>308.05</ele>
        <time>2017-04-30T12:44:21Z</time>
      </trkpt>
      <trkpt lat="48.45476" lon="6.72416">
        <ele>307.48</ele>
        <time>2017-04-30T12:44:37Z</time>
      </trkpt>
      <trkpt lat="48.45502" lon="6.7243">
        <ele>307.21</ele>
        <time>2017-04-30T12:45:00Z</time>
      </trkpt>
      <trkpt lat="48.45522" lon="6.72448">
        <ele>307</ele>
        <time>2017-04-30T12:45:21Z</time>
      </trkpt>
      <trkpt lat="48.45548" lon="6.72469">
        <ele>306.33</ele>
        <time>2017-04-30T12:45:44Z</time>
      </trkpt>
      <trkpt lat="48.45576" lon="6.72493">
        <ele>305.41</ele>
        <time>2017-04-30T12:46:10Z</time>
      </trkpt>
      <trkpt lat="48.45599" lon="6.72511">
        <ele>305.16</ele>
        <time>2017-04-30T12:46:31Z</time>
      </trkpt>
      <trkpt lat="48.45619" lon="6.72529">
        <ele>305.2</ele>
        <time>2017-04-30T12:46:50Z</time>
      </trkpt>
      <trkpt lat="48.45645" lon="6.72551">
        <ele>304.51</ele>
        <time>2017-04-30T12:47:14Z</time>
      </trkpt>
      <trkpt lat="48.45672" lon="6.72573">
        <ele>304.75</ele>
        <time>2017-04-30T12:47:38Z</time>
      </trkpt>
      <trkpt lat="48.45704" lon="6.7259">
        <ele>304.01</ele>
        <time>2017-04-30T12:48:04Z</time>
      </trkpt>
      <trkpt lat="48.45734" lon="6.726">
        <ele>303.38</ele>
        <time>2017-04-30T12:48:28Z</time>
      </trkpt>
      <trkpt lat="48.45739" lon="6.72601">
        <ele>302.53</ele>
        <time>2017-04-30T12:48:47Z</time>
      </trkpt>
      <trkpt lat="48.45738" lon="6.72603">
        <ele>302.58</ele>
        <time>2017-04-30T12:49:11Z</time>
      </trkpt>
      <trkpt lat="48.4574" lon="6.72605">
        <ele>303.22</ele>
        <time>2017-04-30T12:49:27Z</time>
      </trkpt>
      <trkpt lat="48.45739" lon="6.72605">
        <ele>302.59</ele>
        <time>2017-04-30T12:49:44Z</time>
      </trkpt>
      <trkpt lat="48.4574" lon="6.72605">
        <ele>302.28</ele>
        <time>2017-04-30T12:49:58Z</time>
      </trkpt>
      <trkpt lat="48.45743" lon="6.72605">
        <ele>302.05</ele>
        <time>2017-04-30T12:50:01Z</time>
      </trkpt>
      <trkpt lat="48.45748" lon="6.72605">
        <ele>302.25</ele>
        <time>2017-04-30T12:50:07Z</time>
      </trkpt>
      <trkpt lat="48.45764" lon="6.72606">
        <ele>301.14</ele>
        <time>2017-04-30T12:50:22Z</time>
      </trkpt>
      <trkpt lat="48.45789" lon="6.72603">
        <ele>300.28</ele>
        <time>2017-04-30T12:50:43Z</time>
      </trkpt>
      <trkpt lat="48.45795" lon="6.72601">
        <ele>300.72</ele>
        <time>2017-04-30T12:50:48Z</time>
      </trkpt>
      <trkpt lat="48.45815" lon="6.72595">
        <ele>299.65</ele>
        <time>2017-04-30T12:51:05Z</time>
      </trkpt>
      <trkpt lat="48.45839" lon="6.72588">
        <ele>299.07</ele>
        <time>2017-04-30T12:51:26Z</time>
      </trkpt>
      <trkpt lat="48.4586" lon="6.72595">
        <ele>299.1</ele>
        <time>2017-04-30T12:51:45Z</time>
      </trkpt>
      <trkpt lat="48.45877" lon="6.7261">
        <ele>297.74</ele>
        <time>2017-04-30T12:52:00Z</time>
      </trkpt>
      <trkpt lat="48.45894" lon="6.72624">
        <ele>296.16</ele>
        <time>2017-04-30T12:52:15Z</time>
      </trkpt>
      <trkpt lat="48.45914" lon="6.72642">
        <ele>294.24</ele>
        <time>2017-04-30T12:52:33Z</time>
      </trkpt>
      <trkpt lat="48.45931" lon="6.72649">
        <ele>292.03</ele>
        <time>2017-04-30T12:52:47Z</time>
      </trkpt>
      <trkpt lat="48.45947" lon="6.7266">
        <ele>289.92</ele>
        <time>2017-04-30T12:53:03Z</time>
      </trkpt>
      <trkpt lat="48.45967" lon="6.7267">
        <ele>287.96</ele>
        <time>2017-04-30T12:53:20Z</time>
      </trkpt>
      <trkpt lat="48.45988" lon="6.72681">
        <ele>285.11</ele>
        <time>2017-04-30T12:53:39Z</time>
      </trkpt>
      <trkpt lat="48.46009" lon="6.7269">
        <ele>282.82</ele>
        <time>2017-04-30T12:53:57Z</time>
      </trkpt>
      <trkpt lat="48.4603" lon="6.72699">
        <ele>280.36</ele>
        <time>2017-04-30T12:54:15Z</time>
      </trkpt>
      <trkpt lat="48.46052" lon="6.72708">
        <ele>278.08</ele>
        <time>2017-04-30T12:54:33Z</time>
      </trkpt>
      <trkpt lat="48.46069" lon="6.7272">
        <ele>275.46</ele>
        <time>2017-04-30T12:54:48Z</time>
      </trkpt>
      <trkpt lat="48.46085" lon="6.72738">
        <ele>272.94</ele>
        <time>2017-04-30T12:55:04Z</time>
      </trkpt>
      <trkpt lat="48.461" lon="6.7276">
        <ele>270.77</ele>
        <time>2017-04-30T12:55:21Z</time>
      </trkpt>
      <trkpt lat="48.46119" lon="6.72782">
        <ele>268.22</ele>
        <time>2017-04-30T12:55:40Z</time>
      </trkpt>
      <trkpt lat="48.46136" lon="6.72796">
        <ele>267.12</ele>
        <time>2017-04-30T12:55:56Z</time>
      </trkpt>
      <trkpt lat="48.46159" lon="6.72809">
        <ele>265.47</ele>
        <time>2017-04-30T12:56:15Z</time>
      </trkpt>
      <trkpt lat="48.46178" lon="6.72821">
        <ele>264.7</ele>
        <time>2017-04-30T12:56:31Z</time>
      </trkpt>
      <trkpt lat="48.46199" lon="6.72834">
        <ele>263.59</ele>
        <time>2017-04-30T12:56:49Z</time>
      </trkpt>
      <trkpt lat="48.46225" lon="6.72847">
        <ele>262.35</ele>
        <time>2017-04-30T12:57:10Z</time>
      </trkpt>
      <trkpt lat="48.46241" lon="6.72855">
        <ele>261.84</ele>
        <time>2017-04-30T12:57:24Z</time>
      </trkpt>
      <trkpt lat="48.4626" lon="6.72869">
        <ele>262.35</ele>
        <time>2017-04-30T12:57:40Z</time>
      </trkpt>
      <trkpt lat="48.46266" lon="6.72874">
        <ele>261.89</ele>
        <time>2017-04-30T12:57:45Z</time>
      </trkpt>
      <trkpt lat="48.46271" lon="6.72892">
        <ele>262.17</ele>
        <time>2017-04-30T12:57:57Z</time>
      </trkpt>
      <trkpt lat="48.46275" lon="6.72884">
        <ele>262.06</ele>
        <time>2017-04-30T12:58:13Z</time>
      </trkpt>
      <trkpt lat="48.46283" lon="6.72879">
        <ele>262.7</ele>
        <time>2017-04-30T12:58:30Z</time>
      </trkpt>
      <trkpt lat="48.46281" lon="6.72874">
        <ele>262.68</ele>
        <time>2017-04-30T12:58:53Z</time>
      </trkpt>
      <trkpt lat="48.46277" lon="6.72876">
        <ele>262.84</ele>
        <time>2017-04-30T12:59:21Z</time>
      </trkpt>
      <trkpt lat="48.46276" lon="6.7288">
        <ele>263.11</ele>
        <time>2017-04-30T12:59:40Z</time>
      </trkpt>
      <trkpt lat="48.46274" lon="6.7288">
        <ele>261.35</ele>
        <time>2017-04-30T12:59:47Z</time>
      </trkpt>
      <trkpt lat="48.46274" lon="6.72879">
        <ele>262.66</ele>
        <time>2017-04-30T12:59:52Z</time>
      </trkpt>
      <trkpt lat="48.46274" lon="6.72881">
        <ele>262.88</ele>
        <time>2017-04-30T13:00:14Z</time>
      </trkpt>
      <trkpt lat="48.46272" lon="6.72881">
        <ele>262.81</ele>
        <time>2017-04-30T13:00:36Z</time>
      </trkpt>
      <trkpt lat="48.4627" lon="6.72882">
        <ele>263.09</ele>
        <time>2017-04-30T13:00:51Z</time>
      </trkpt>
      <trkpt lat="48.46268" lon="6.72881">
        <ele>263.23</ele>
        <time>2017-04-30T13:01:20Z</time>
      </trkpt>
      <trkpt lat="48.46268" lon="6.7288">
        <ele>263.34</ele>
        <time>2017-04-30T13:01:45Z</time>
      </trkpt>
      <trkpt lat="48.46269" lon="6.72879">
        <ele>262.99</ele>
        <time>2017-04-30T13:02:11Z</time>
      </trkpt>
      <trkpt lat="48.46267" lon="6.72883">
        <ele>262.98</ele>
        <time>2017-04-30T13:02:35Z</time>
      </trkpt>
      <trkpt lat="48.46267" lon="6.72886">
        <ele>262.74</ele>
        <time>2017-04-30T13:02:59Z</time>
      </trkpt>
      <trkpt lat="48.46267" lon="6.72887">
        <ele>262.5</ele>
        <time>2017-04-30T13:03:00Z</time>
      </trkpt>
      <trkpt lat="48.46268" lon="6.72891">
        <ele>262.76</ele>
        <time>2017-04-30T13:03:03Z</time>
      </trkpt>
      <trkpt lat="48.46268" lon="6.72898">
        <ele>262.99</ele>
        <time>2017-04-30T13:03:08Z</time>
      </trkpt>
      <trkpt lat="48.46259" lon="6.72917">
        <ele>263.16</ele>
        <time>2017-04-30T13:03:23Z</time>
      </trkpt>
      <trkpt lat="48.46259" lon="6.72919">
        <ele>263.16</ele>
        <time>2017-04-30T13:03:24Z</time>
      </trkpt>
      <trkpt lat="48.46254" lon="6.72926">
        <ele>263.18</ele>
        <time>2017-04-30T13:03:29Z</time>
      </trkpt>
      <trkpt lat="48.46238" lon="6.72947">
        <ele>263.06</ele>
        <time>2017-04-30T13:03:46Z</time>
      </trkpt>
      <trkpt lat="48.46223" lon="6.7297">
        <ele>263.23</ele>
        <time>2017-04-30T13:04:02Z</time>
      </trkpt>
      <trkpt lat="48.46206" lon="6.72994">
        <ele>263.13</ele>
        <time>2017-04-30T13:04:21Z</time>
      </trkpt>
      <trkpt lat="48.46191" lon="6.73019">
        <ele>262.85</ele>
        <time>2017-04-30T13:04:39Z</time>
      </trkpt>
      <trkpt lat="48.46178" lon="6.73035">
        <ele>263.12</ele>
        <time>2017-04-30T13:04:51Z</time>
      </trkpt>
      <trkpt lat="48.46175" lon="6.73041">
        <ele>263.15</ele>
        <time>2017-04-30T13:04:55Z</time>
      </trkpt>
      <trkpt lat="48.46165" lon="6.73053">
        <ele>262.96</ele>
        <time>2017-04-30T13:05:04Z</time>
      </trkpt>
      <trkpt lat="48.46155" lon="6.73067">
        <ele>262.98</ele>
        <time>2017-04-30T13:05:14Z</time>
      </trkpt>
      <trkpt lat="48.46153" lon="6.73069">
        <ele>263.02</ele>
        <time>2017-04-30T13:05:16Z</time>
      </trkpt>
      <trkpt lat="48.46134" lon="6.73095">
        <ele>262.99</ele>
        <time>2017-04-30T13:05:35Z</time>
      </trkpt>
      <trkpt lat="48.46118" lon="6.73111">
        <ele>263.45</ele>
        <time>2017-04-30T13:05:49Z</time>
      </trkpt>
      <trkpt lat="48.46095" lon="6.73146">
        <ele>262.79</ele>
        <time>2017-04-30T13:06:13Z</time>
      </trkpt>
      <trkpt lat="48.46078" lon="6.73172">
        <ele>262.46</ele>
        <time>2017-04-30T13:06:31Z</time>
      </trkpt>
      <trkpt lat="48.46055" lon="6.73197">
        <ele>262.5</ele>
        <time>2017-04-30T13:06:52Z</time>
      </trkpt>
      <trkpt lat="48.46029" lon="6.73222">
        <ele>262.72</ele>
        <time>2017-04-30T13:07:15Z</time>
      </trkpt>
      <trkpt lat="48.46006" lon="6.73244">
        <ele>262.7</ele>
        <time>2017-04-30T13:07:36Z</time>
      </trkpt>
      <trkpt lat="48.4599" lon="6.73258">
        <ele>262.94</ele>
        <time>2017-04-30T13:07:50Z</time>
      </trkpt>
      <trkpt lat="48.45965" lon="6.73278">
        <ele>262.65</ele>
        <time>2017-04-30T13:08:11Z</time>
      </trkpt>
      <trkpt lat="48.45946" lon="6.73289">
        <ele>262.69</ele>
        <time>2017-04-30T13:08:26Z</time>
      </trkpt>
      <trkpt lat="48.45924" lon="6.73302">
        <ele>262.43</ele>
        <time>2017-04-30T13:08:44Z</time>
      </trkpt>
      <trkpt lat="48.45904" lon="6.73311">
        <ele>262.29</ele>
        <time>2017-04-30T13:09:00Z</time>
      </trkpt>
      <trkpt lat="48.4588" lon="6.73321">
        <ele>263</ele>
        <time>2017-04-30T13:09:18Z</time>
      </trkpt>
      <trkpt lat="48.4585" lon="6.73329">
        <ele>262.79</ele>
        <time>2017-04-30T13:09:40Z</time>
      </trkpt>
      <trkpt lat="48.45828" lon="6.73326">
        <ele>263.07</ele>
        <time>2017-04-30T13:09:58Z</time>
      </trkpt>
      <trkpt lat="48.45806" lon="6.73313">
        <ele>263.43</ele>
        <time>2017-04-30T13:10:16Z</time>
      </trkpt>
      <trkpt lat="48.45782" lon="6.73297">
        <ele>263.17</ele>
        <time>2017-04-30T13:10:35Z</time>
      </trkpt>
      <trkpt lat="48.45762" lon="6.73284">
        <ele>263.03</ele>
        <time>2017-04-30T13:10:51Z</time>
      </trkpt>
      <trkpt lat="48.45744" lon="6.7328">
        <ele>263.04</ele>
        <time>2017-04-30T13:11:05Z</time>
      </trkpt>
      <trkpt lat="48.45722" lon="6.73283">
        <ele>263.26</ele>
        <time>2017-04-30T13:11:22Z</time>
      </trkpt>
      <trkpt lat="48.45701" lon="6.73287">
        <ele>262.99</ele>
        <time>2017-04-30T13:11:37Z</time>
      </trkpt>
      <trkpt lat="48.45682" lon="6.73291">
        <ele>262.88</ele>
        <time>2017-04-30T13:11:51Z</time>
      </trkpt>
      <trkpt lat="48.45654" lon="6.73295">
        <ele>263.19</ele>
        <time>2017-04-30T13:12:12Z</time>
      </trkpt>
      <trkpt lat="48.45629" lon="6.73303">
        <ele>263.32</ele>
        <time>2017-04-30T13:12:31Z</time>
      </trkpt>
      <trkpt lat="48.45605" lon="6.73315">
        <ele>262.98</ele>
        <time>2017-04-30T13:12:50Z</time>
      </trkpt>
      <trkpt lat="48.45582" lon="6.73328">
        <ele>264</ele>
        <time>2017-04-30T13:13:09Z</time>
      </trkpt>
      <trkpt lat="48.45559" lon="6.73341">
        <ele>263.85</ele>
        <time>2017-04-30T13:13:27Z</time>
      </trkpt>
      <trkpt lat="48.45533" lon="6.73355">
        <ele>264.24</ele>
        <time>2017-04-30T13:13:48Z</time>
      </trkpt>
      <trkpt lat="48.45511" lon="6.73366">
        <ele>264.52</ele>
        <time>2017-04-30T13:14:07Z</time>
      </trkpt>
      <trkpt lat="48.45493" lon="6.73377">
        <ele>264.3</ele>
        <time>2017-04-30T13:14:23Z</time>
      </trkpt>
      <trkpt lat="48.45474" lon="6.73388">
        <ele>264.32</ele>
        <time>2017-04-30T13:14:40Z</time>
      </trkpt>
      <trkpt lat="48.4547" lon="6.73391">
        <ele>263.55</ele>
        <time>2017-04-30T13:14:55Z</time>
      </trkpt>
      <trkpt lat="48.4547" lon="6.7339">
        <ele>264.3</ele>
        <time>2017-04-30T13:15:18Z</time>
      </trkpt>
      <trkpt lat="48.4547" lon="6.73388">
        <ele>264.58</ele>
        <time>2017-04-30T13:15:46Z</time>
      </trkpt>
      <trkpt lat="48.4547" lon="6.73386">
        <ele>265.57</ele>
        <time>2017-04-30T13:16:20Z</time>
      </trkpt>
      <trkpt lat="48.45469" lon="6.73389">
        <ele>265.66</ele>
        <time>2017-04-30T13:16:56Z</time>
      </trkpt>
      <trkpt lat="48.45468" lon="6.7339">
        <ele>265.02</ele>
        <time>2017-04-30T13:17:17Z</time>
      </trkpt>
      <trkpt lat="48.45471" lon="6.73389">
        <ele>265.18</ele>
        <time>2017-04-30T13:17:52Z</time>
      </trkpt>
      <trkpt lat="48.45469" lon="6.73389">
        <ele>264.69</ele>
        <time>2017-04-30T13:18:20Z</time>
      </trkpt>
      <trkpt lat="48.45467" lon="6.73392">
        <ele>264.67</ele>
        <time>2017-04-30T13:18:42Z</time>
      </trkpt>
      <trkpt lat="48.45462" lon="6.73405">
        <ele>264.64</ele>
        <time>2017-04-30T13:18:51Z</time>
      </trkpt>
      <trkpt lat="48.45459" lon="6.73409">
        <ele>264.5</ele>
        <time>2017-04-30T13:18:55Z</time>
      </trkpt>
      <trkpt lat="48.45457" lon="6.73413">
        <ele>264.49</ele>
        <time>2017-04-30T13:18:59Z</time>
      </trkpt>
      <trkpt lat="48.45444" lon="6.73428">
        <ele>264.38</ele>
        <time>2017-04-30T13:19:15Z</time>
      </trkpt>
      <trkpt lat="48.45438" lon="6.73442">
        <ele>264.69</ele>
        <time>2017-04-30T13:19:24Z</time>
      </trkpt>
      <trkpt lat="48.45432" lon="6.73478">
        <ele>264.54</ele>
        <time>2017-04-30T13:19:46Z</time>
      </trkpt>
      <trkpt lat="48.45438" lon="6.7351">
        <ele>264.44</ele>
        <time>2017-04-30T13:20:04Z</time>
      </trkpt>
      <trkpt lat="48.45432" lon="6.73539">
        <ele>265.38</ele>
        <time>2017-04-30T13:20:20Z</time>
      </trkpt>
      <trkpt lat="48.45424" lon="6.73575">
        <ele>264.48</ele>
        <time>2017-04-30T13:20:39Z</time>
      </trkpt>
      <trkpt lat="48.45413" lon="6.73606">
        <ele>264.34</ele>
        <time>2017-04-30T13:20:57Z</time>
      </trkpt>
      <trkpt lat="48.45399" lon="6.73628">
        <ele>264.64</ele>
        <time>2017-04-30T13:21:13Z</time>
      </trkpt>
      <trkpt lat="48.45382" lon="6.73648">
        <ele>265.1</ele>
        <time>2017-04-30T13:21:30Z</time>
      </trkpt>
      <trkpt lat="48.45364" lon="6.73664">
        <ele>264.68</ele>
        <time>2017-04-30T13:21:46Z</time>
      </trkpt>
      <trkpt lat="48.45345" lon="6.73681">
        <ele>264.48</ele>
        <time>2017-04-30T13:22:03Z</time>
      </trkpt>
      <trkpt lat="48.45325" lon="6.7369">
        <ele>264.39</ele>
        <time>2017-04-30T13:22:19Z</time>
      </trkpt>
      <trkpt lat="48.45299" lon="6.73689">
        <ele>265.21</ele>
        <time>2017-04-30T13:22:38Z</time>
      </trkpt>
      <trkpt lat="48.45282" lon="6.73694">
        <ele>265.06</ele>
        <time>2017-04-30T13:22:54Z</time>
      </trkpt>
      <trkpt lat="48.45265" lon="6.73704">
        <ele>264.91</ele>
        <time>2017-04-30T13:23:09Z</time>
      </trkpt>
      <trkpt lat="48.45244" lon="6.73718">
        <ele>265.11</ele>
        <time>2017-04-30T13:23:26Z</time>
      </trkpt>
      <trkpt lat="48.45221" lon="6.73737">
        <ele>264.63</ele>
        <time>2017-04-30T13:23:46Z</time>
      </trkpt>
      <trkpt lat="48.452" lon="6.73745">
        <ele>264.88</ele>
        <time>2017-04-30T13:24:03Z</time>
      </trkpt>
      <trkpt lat="48.45179" lon="6.73755">
        <ele>264.35</ele>
        <time>2017-04-30T13:24:20Z</time>
      </trkpt>
      <trkpt lat="48.45173" lon="6.73757">
        <ele>264.86</ele>
        <time>2017-04-30T13:24:24Z</time>
      </trkpt>
      <trkpt lat="48.45147" lon="6.73762">
        <ele>263.9</ele>
        <time>2017-04-30T13:24:44Z</time>
      </trkpt>
      <trkpt lat="48.45126" lon="6.73766">
        <ele>263.56</ele>
        <time>2017-04-30T13:25:01Z</time>
      </trkpt>
      <trkpt lat="48.45103" lon="6.73764">
        <ele>264.8</ele>
        <time>2017-04-30T13:25:20Z</time>
      </trkpt>
      <trkpt lat="48.45087" lon="6.73763">
        <ele>265.17</ele>
        <time>2017-04-30T13:25:33Z</time>
      </trkpt>
      <trkpt lat="48.45064" lon="6.73762">
        <ele>264.45</ele>
        <time>2017-04-30T13:25:53Z</time>
      </trkpt>
      <trkpt lat="48.45052" lon="6.73763">
        <ele>265.54</ele>
        <time>2017-04-30T13:26:04Z</time>
      </trkpt>
      <trkpt lat="48.45045" lon="6.73762">
        <ele>265.68</ele>
        <time>2017-04-30T13:26:09Z</time>
      </trkpt>
      <trkpt lat="48.45024" lon="6.7377">
        <ele>265.79</ele>
        <time>2017-04-30T13:26:29Z</time>
      </trkpt>
      <trkpt lat="48.45002" lon="6.73778">
        <ele>265.33</ele>
        <time>2017-04-30T13:26:49Z</time>
      </trkpt>
      <trkpt lat="48.44978" lon="6.73786">
        <ele>265.88</ele>
        <time>2017-04-30T13:27:10Z</time>
      </trkpt>
      <trkpt lat="48.44962" lon="6.73792">
        <ele>266.05</ele>
        <time>2017-04-30T13:27:27Z</time>
      </trkpt>
      <trkpt lat="48.44959" lon="6.73793">
        <ele>265.86</ele>
        <time>2017-04-30T13:27:30Z</time>
      </trkpt>
      <trkpt lat="48.44943" lon="6.73798">
        <ele>266.65</ele>
        <time>2017-04-30T13:27:48Z</time>
      </trkpt>
      <trkpt lat="48.44941" lon="6.73796">
        <ele>266.33</ele>
        <time>2017-04-30T13:28:10Z</time>
      </trkpt>
    </trkseg>
  </trk>
</gpx>